<?xml version="1.0" encoding="UTF-8" standalone="no" ?>
<gpx xmlns="http://www.topografix.com/GPX/1/1" xmlns:xsi="http://www.w3.org/2001/XMLSchema-instance" xsi:schemaLocation="http://www.topografix.com/GPX/1/1 http://www.topografix.com/GPX/1/1/gpx.xsd" version="1.1" creator="VisuGPX - https://www.visugpx.com">
  <metadata>
    <name>Balade de 9km à Canville-la-Rocque</name>
  </metadata>
  <trk>
    <name><![CDATA[Balade de 9km à Canville-la-Rocque_1]]></name>
    <trkseg>
      <trkpt lat="49.34403" lon="-1.63615">
        <ele>38</ele>
        <time>2022-02-21T15:06:23Z</time>
      </trkpt>
      <trkpt lat="49.34407" lon="-1.63611">
        <ele>31.3</ele>
        <time>2022-02-21T15:06:38Z</time>
      </trkpt>
      <trkpt lat="49.34406" lon="-1.63601">
        <ele>31.7</ele>
        <time>2022-02-21T15:06:45Z</time>
      </trkpt>
      <trkpt lat="49.34405" lon="-1.63594">
        <ele>31.6</ele>
        <time>2022-02-21T15:06:48Z</time>
      </trkpt>
      <trkpt lat="49.34406" lon="-1.63587">
        <ele>31.7</ele>
        <time>2022-02-21T15:06:53Z</time>
      </trkpt>
      <trkpt lat="49.34409" lon="-1.63581">
        <ele>31.9</ele>
        <time>2022-02-21T15:06:57Z</time>
      </trkpt>
      <trkpt lat="49.34413" lon="-1.63577">
        <ele>32.1</ele>
        <time>2022-02-21T15:07:00Z</time>
      </trkpt>
      <trkpt lat="49.34416" lon="-1.6357">
        <ele>32.3</ele>
        <time>2022-02-21T15:07:03Z</time>
      </trkpt>
      <trkpt lat="49.34418" lon="-1.63564">
        <ele>32.3</ele>
        <time>2022-02-21T15:07:06Z</time>
      </trkpt>
      <trkpt lat="49.34422" lon="-1.63556">
        <ele>32.4</ele>
        <time>2022-02-21T15:07:10Z</time>
      </trkpt>
      <trkpt lat="49.34426" lon="-1.63551">
        <ele>31.9</ele>
        <time>2022-02-21T15:07:17Z</time>
      </trkpt>
      <trkpt lat="49.3443" lon="-1.63546">
        <ele>31.7</ele>
        <time>2022-02-21T15:07:20Z</time>
      </trkpt>
      <trkpt lat="49.34434" lon="-1.63542">
        <ele>31.7</ele>
        <time>2022-02-21T15:07:23Z</time>
      </trkpt>
      <trkpt lat="49.34438" lon="-1.63536">
        <ele>31.8</ele>
        <time>2022-02-21T15:07:26Z</time>
      </trkpt>
      <trkpt lat="49.34442" lon="-1.6353">
        <ele>31.8</ele>
        <time>2022-02-21T15:07:29Z</time>
      </trkpt>
      <trkpt lat="49.34446" lon="-1.63524">
        <ele>31.9</ele>
        <time>2022-02-21T15:07:34Z</time>
      </trkpt>
      <trkpt lat="49.34451" lon="-1.63521">
        <ele>31.7</ele>
        <time>2022-02-21T15:07:39Z</time>
      </trkpt>
      <trkpt lat="49.34454" lon="-1.63517">
        <ele>31.7</ele>
        <time>2022-02-21T15:07:44Z</time>
      </trkpt>
      <trkpt lat="49.34456" lon="-1.63511">
        <ele>31.8</ele>
        <time>2022-02-21T15:07:47Z</time>
      </trkpt>
      <trkpt lat="49.3446" lon="-1.63504">
        <ele>31.9</ele>
        <time>2022-02-21T15:07:51Z</time>
      </trkpt>
      <trkpt lat="49.34464" lon="-1.63499">
        <ele>32</ele>
        <time>2022-02-21T15:07:54Z</time>
      </trkpt>
      <trkpt lat="49.34469" lon="-1.63493">
        <ele>32.2</ele>
        <time>2022-02-21T15:07:57Z</time>
      </trkpt>
      <trkpt lat="49.34472" lon="-1.63487">
        <ele>32.3</ele>
        <time>2022-02-21T15:08:00Z</time>
      </trkpt>
      <trkpt lat="49.34475" lon="-1.63483">
        <ele>32.4</ele>
        <time>2022-02-21T15:08:03Z</time>
      </trkpt>
      <trkpt lat="49.3448" lon="-1.63477">
        <ele>32.4</ele>
        <time>2022-02-21T15:08:06Z</time>
      </trkpt>
      <trkpt lat="49.34484" lon="-1.63471">
        <ele>32.4</ele>
        <time>2022-02-21T15:08:10Z</time>
      </trkpt>
      <trkpt lat="49.34486" lon="-1.63463">
        <ele>32.4</ele>
        <time>2022-02-21T15:08:14Z</time>
      </trkpt>
      <trkpt lat="49.34488" lon="-1.63454">
        <ele>32.5</ele>
        <time>2022-02-21T15:08:18Z</time>
      </trkpt>
      <trkpt lat="49.34489" lon="-1.63445">
        <ele>32.5</ele>
        <time>2022-02-21T15:08:22Z</time>
      </trkpt>
      <trkpt lat="49.34491" lon="-1.63436">
        <ele>32.5</ele>
        <time>2022-02-21T15:08:26Z</time>
      </trkpt>
      <trkpt lat="49.34493" lon="-1.63428">
        <ele>32.4</ele>
        <time>2022-02-21T15:08:30Z</time>
      </trkpt>
      <trkpt lat="49.34494" lon="-1.6342">
        <ele>32.4</ele>
        <time>2022-02-21T15:08:34Z</time>
      </trkpt>
      <trkpt lat="49.34495" lon="-1.63413">
        <ele>32.2</ele>
        <time>2022-02-21T15:08:37Z</time>
      </trkpt>
      <trkpt lat="49.34495" lon="-1.63405">
        <ele>32.1</ele>
        <time>2022-02-21T15:08:40Z</time>
      </trkpt>
      <trkpt lat="49.34497" lon="-1.63396">
        <ele>32.3</ele>
        <time>2022-02-21T15:08:45Z</time>
      </trkpt>
      <trkpt lat="49.34501" lon="-1.63391">
        <ele>32.6</ele>
        <time>2022-02-21T15:08:48Z</time>
      </trkpt>
      <trkpt lat="49.34501" lon="-1.63382">
        <ele>32.6</ele>
        <time>2022-02-21T15:08:51Z</time>
      </trkpt>
      <trkpt lat="49.34501" lon="-1.63375">
        <ele>32.3</ele>
        <time>2022-02-21T15:08:54Z</time>
      </trkpt>
      <trkpt lat="49.34502" lon="-1.63364">
        <ele>32</ele>
        <time>2022-02-21T15:08:58Z</time>
      </trkpt>
      <trkpt lat="49.34504" lon="-1.63357">
        <ele>31.8</ele>
        <time>2022-02-21T15:09:01Z</time>
      </trkpt>
      <trkpt lat="49.34506" lon="-1.6335">
        <ele>31.9</ele>
        <time>2022-02-21T15:09:05Z</time>
      </trkpt>
      <trkpt lat="49.34507" lon="-1.63342">
        <ele>31.8</ele>
        <time>2022-02-21T15:09:08Z</time>
      </trkpt>
      <trkpt lat="49.3451" lon="-1.63334">
        <ele>31.8</ele>
        <time>2022-02-21T15:09:13Z</time>
      </trkpt>
      <trkpt lat="49.34512" lon="-1.63327">
        <ele>31.7</ele>
        <time>2022-02-21T15:09:17Z</time>
      </trkpt>
      <trkpt lat="49.34514" lon="-1.6332">
        <ele>31.8</ele>
        <time>2022-02-21T15:09:20Z</time>
      </trkpt>
      <trkpt lat="49.34517" lon="-1.63315">
        <ele>31.8</ele>
        <time>2022-02-21T15:09:23Z</time>
      </trkpt>
      <trkpt lat="49.34519" lon="-1.63307">
        <ele>32</ele>
        <time>2022-02-21T15:09:27Z</time>
      </trkpt>
      <trkpt lat="49.34522" lon="-1.63301">
        <ele>31.9</ele>
        <time>2022-02-21T15:09:31Z</time>
      </trkpt>
      <trkpt lat="49.34525" lon="-1.63294">
        <ele>31.8</ele>
        <time>2022-02-21T15:09:34Z</time>
      </trkpt>
      <trkpt lat="49.34528" lon="-1.63289">
        <ele>31.8</ele>
        <time>2022-02-21T15:09:37Z</time>
      </trkpt>
      <trkpt lat="49.34531" lon="-1.63281">
        <ele>31.7</ele>
        <time>2022-02-21T15:09:41Z</time>
      </trkpt>
      <trkpt lat="49.34532" lon="-1.63273">
        <ele>31.6</ele>
        <time>2022-02-21T15:09:45Z</time>
      </trkpt>
      <trkpt lat="49.34536" lon="-1.63266">
        <ele>31.5</ele>
        <time>2022-02-21T15:09:49Z</time>
      </trkpt>
      <trkpt lat="49.34539" lon="-1.6326">
        <ele>31.7</ele>
        <time>2022-02-21T15:09:52Z</time>
      </trkpt>
      <trkpt lat="49.34542" lon="-1.63253">
        <ele>31.7</ele>
        <time>2022-02-21T15:09:55Z</time>
      </trkpt>
      <trkpt lat="49.34545" lon="-1.63247">
        <ele>31.8</ele>
        <time>2022-02-21T15:09:58Z</time>
      </trkpt>
      <trkpt lat="49.34548" lon="-1.63242">
        <ele>31.8</ele>
        <time>2022-02-21T15:10:02Z</time>
      </trkpt>
      <trkpt lat="49.34552" lon="-1.63235">
        <ele>31.9</ele>
        <time>2022-02-21T15:10:06Z</time>
      </trkpt>
      <trkpt lat="49.34554" lon="-1.63229">
        <ele>32.3</ele>
        <time>2022-02-21T15:10:09Z</time>
      </trkpt>
      <trkpt lat="49.34557" lon="-1.63222">
        <ele>32.5</ele>
        <time>2022-02-21T15:10:12Z</time>
      </trkpt>
      <trkpt lat="49.3456" lon="-1.63217">
        <ele>32.4</ele>
        <time>2022-02-21T15:10:15Z</time>
      </trkpt>
      <trkpt lat="49.34564" lon="-1.6321">
        <ele>32.2</ele>
        <time>2022-02-21T15:10:18Z</time>
      </trkpt>
      <trkpt lat="49.34567" lon="-1.63204">
        <ele>31.9</ele>
        <time>2022-02-21T15:10:21Z</time>
      </trkpt>
      <trkpt lat="49.3457" lon="-1.63198">
        <ele>31.7</ele>
        <time>2022-02-21T15:10:24Z</time>
      </trkpt>
      <trkpt lat="49.34573" lon="-1.63192">
        <ele>31.5</ele>
        <time>2022-02-21T15:10:28Z</time>
      </trkpt>
      <trkpt lat="49.34577" lon="-1.63185">
        <ele>31.4</ele>
        <time>2022-02-21T15:10:31Z</time>
      </trkpt>
      <trkpt lat="49.34579" lon="-1.63179">
        <ele>31.4</ele>
        <time>2022-02-21T15:10:34Z</time>
      </trkpt>
      <trkpt lat="49.34582" lon="-1.63173">
        <ele>31.4</ele>
        <time>2022-02-21T15:10:37Z</time>
      </trkpt>
      <trkpt lat="49.34584" lon="-1.63166">
        <ele>31.4</ele>
        <time>2022-02-21T15:10:40Z</time>
      </trkpt>
      <trkpt lat="49.34586" lon="-1.63159">
        <ele>31.3</ele>
        <time>2022-02-21T15:10:44Z</time>
      </trkpt>
      <trkpt lat="49.34587" lon="-1.63151">
        <ele>31.2</ele>
        <time>2022-02-21T15:10:47Z</time>
      </trkpt>
      <trkpt lat="49.34586" lon="-1.63143">
        <ele>31.2</ele>
        <time>2022-02-21T15:10:50Z</time>
      </trkpt>
      <trkpt lat="49.34585" lon="-1.63134">
        <ele>31.2</ele>
        <time>2022-02-21T15:10:54Z</time>
      </trkpt>
      <trkpt lat="49.34584" lon="-1.63126">
        <ele>31.2</ele>
        <time>2022-02-21T15:10:57Z</time>
      </trkpt>
      <trkpt lat="49.34584" lon="-1.63117">
        <ele>31.4</ele>
        <time>2022-02-21T15:11:01Z</time>
      </trkpt>
      <trkpt lat="49.34584" lon="-1.63109">
        <ele>31.8</ele>
        <time>2022-02-21T15:11:04Z</time>
      </trkpt>
      <trkpt lat="49.34585" lon="-1.63101">
        <ele>32.4</ele>
        <time>2022-02-21T15:11:07Z</time>
      </trkpt>
      <trkpt lat="49.34588" lon="-1.63093">
        <ele>33.1</ele>
        <time>2022-02-21T15:11:11Z</time>
      </trkpt>
      <trkpt lat="49.3459" lon="-1.63087">
        <ele>33.3</ele>
        <time>2022-02-21T15:11:14Z</time>
      </trkpt>
      <trkpt lat="49.34592" lon="-1.6308">
        <ele>33.3</ele>
        <time>2022-02-21T15:11:18Z</time>
      </trkpt>
      <trkpt lat="49.34594" lon="-1.63073">
        <ele>33</ele>
        <time>2022-02-21T15:11:21Z</time>
      </trkpt>
      <trkpt lat="49.34602" lon="-1.63054">
        <ele>32.4</ele>
        <time>2022-02-21T15:11:33Z</time>
      </trkpt>
      <trkpt lat="49.34605" lon="-1.63047">
        <ele>32.2</ele>
        <time>2022-02-21T15:11:36Z</time>
      </trkpt>
      <trkpt lat="49.34608" lon="-1.6304">
        <ele>32.2</ele>
        <time>2022-02-21T15:11:40Z</time>
      </trkpt>
      <trkpt lat="49.34611" lon="-1.63035">
        <ele>32.3</ele>
        <time>2022-02-21T15:11:43Z</time>
      </trkpt>
      <trkpt lat="49.34614" lon="-1.63028">
        <ele>32.4</ele>
        <time>2022-02-21T15:11:47Z</time>
      </trkpt>
      <trkpt lat="49.34617" lon="-1.63021">
        <ele>32.4</ele>
        <time>2022-02-21T15:11:50Z</time>
      </trkpt>
      <trkpt lat="49.3462" lon="-1.63016">
        <ele>32.4</ele>
        <time>2022-02-21T15:11:53Z</time>
      </trkpt>
      <trkpt lat="49.34622" lon="-1.63009">
        <ele>32</ele>
        <time>2022-02-21T15:11:56Z</time>
      </trkpt>
      <trkpt lat="49.34625" lon="-1.63003">
        <ele>31.6</ele>
        <time>2022-02-21T15:12:00Z</time>
      </trkpt>
      <trkpt lat="49.34626" lon="-1.62996">
        <ele>31.2</ele>
        <time>2022-02-21T15:12:03Z</time>
      </trkpt>
      <trkpt lat="49.34629" lon="-1.62988">
        <ele>31.2</ele>
        <time>2022-02-21T15:12:07Z</time>
      </trkpt>
      <trkpt lat="49.34633" lon="-1.62981">
        <ele>31.2</ele>
        <time>2022-02-21T15:12:11Z</time>
      </trkpt>
      <trkpt lat="49.34636" lon="-1.62975">
        <ele>31.2</ele>
        <time>2022-02-21T15:12:14Z</time>
      </trkpt>
      <trkpt lat="49.34639" lon="-1.62966">
        <ele>31.4</ele>
        <time>2022-02-21T15:12:18Z</time>
      </trkpt>
      <trkpt lat="49.34643" lon="-1.62959">
        <ele>31.6</ele>
        <time>2022-02-21T15:12:21Z</time>
      </trkpt>
      <trkpt lat="49.34646" lon="-1.62952">
        <ele>31.9</ele>
        <time>2022-02-21T15:12:24Z</time>
      </trkpt>
      <trkpt lat="49.34648" lon="-1.62946">
        <ele>32</ele>
        <time>2022-02-21T15:12:27Z</time>
      </trkpt>
      <trkpt lat="49.34651" lon="-1.62939">
        <ele>32</ele>
        <time>2022-02-21T15:12:30Z</time>
      </trkpt>
      <trkpt lat="49.34654" lon="-1.62931">
        <ele>32.1</ele>
        <time>2022-02-21T15:12:33Z</time>
      </trkpt>
      <trkpt lat="49.34657" lon="-1.62924">
        <ele>32.1</ele>
        <time>2022-02-21T15:12:37Z</time>
      </trkpt>
      <trkpt lat="49.3466" lon="-1.62916">
        <ele>32.2</ele>
        <time>2022-02-21T15:12:41Z</time>
      </trkpt>
      <trkpt lat="49.34663" lon="-1.62909">
        <ele>32.3</ele>
        <time>2022-02-21T15:12:44Z</time>
      </trkpt>
      <trkpt lat="49.34666" lon="-1.62903">
        <ele>32.5</ele>
        <time>2022-02-21T15:12:47Z</time>
      </trkpt>
      <trkpt lat="49.34668" lon="-1.62895">
        <ele>32.8</ele>
        <time>2022-02-21T15:12:51Z</time>
      </trkpt>
      <trkpt lat="49.3467" lon="-1.62887">
        <ele>32.8</ele>
        <time>2022-02-21T15:12:55Z</time>
      </trkpt>
      <trkpt lat="49.34671" lon="-1.6288">
        <ele>32.6</ele>
        <time>2022-02-21T15:12:58Z</time>
      </trkpt>
      <trkpt lat="49.34673" lon="-1.62872">
        <ele>32.6</ele>
        <time>2022-02-21T15:13:02Z</time>
      </trkpt>
      <trkpt lat="49.34676" lon="-1.62866">
        <ele>32.8</ele>
        <time>2022-02-21T15:13:06Z</time>
      </trkpt>
      <trkpt lat="49.34681" lon="-1.62864">
        <ele>32.2</ele>
        <time>2022-02-21T15:13:25Z</time>
      </trkpt>
      <trkpt lat="49.34686" lon="-1.62863">
        <ele>31.8</ele>
        <time>2022-02-21T15:13:36Z</time>
      </trkpt>
      <trkpt lat="49.3469" lon="-1.62864">
        <ele>31.4</ele>
        <time>2022-02-21T15:13:48Z</time>
      </trkpt>
      <trkpt lat="49.34695" lon="-1.62865">
        <ele>28.4</ele>
        <time>2022-02-21T15:13:54Z</time>
      </trkpt>
      <trkpt lat="49.34693" lon="-1.62885">
        <ele>32.5</ele>
        <time>2022-02-21T15:14:06Z</time>
      </trkpt>
      <trkpt lat="49.34697" lon="-1.62881">
        <ele>36.5</ele>
        <time>2022-02-21T15:14:26Z</time>
      </trkpt>
      <trkpt lat="49.34701" lon="-1.62878">
        <ele>34.6</ele>
        <time>2022-02-21T15:14:34Z</time>
      </trkpt>
      <trkpt lat="49.34706" lon="-1.62876">
        <ele>33.8</ele>
        <time>2022-02-21T15:14:42Z</time>
      </trkpt>
      <trkpt lat="49.3471" lon="-1.62875">
        <ele>33.5</ele>
        <time>2022-02-21T15:14:50Z</time>
      </trkpt>
      <trkpt lat="49.34715" lon="-1.62873">
        <ele>33</ele>
        <time>2022-02-21T15:15:03Z</time>
      </trkpt>
      <trkpt lat="49.34718" lon="-1.62877">
        <ele>33.1</ele>
        <time>2022-02-21T15:15:14Z</time>
      </trkpt>
      <trkpt lat="49.34722" lon="-1.6288">
        <ele>32.5</ele>
        <time>2022-02-21T15:15:30Z</time>
      </trkpt>
      <trkpt lat="49.34727" lon="-1.62881">
        <ele>32.4</ele>
        <time>2022-02-21T15:15:44Z</time>
      </trkpt>
      <trkpt lat="49.34731" lon="-1.62878">
        <ele>32.2</ele>
        <time>2022-02-21T15:15:48Z</time>
      </trkpt>
      <trkpt lat="49.34735" lon="-1.6288">
        <ele>32</ele>
        <time>2022-02-21T15:15:55Z</time>
      </trkpt>
      <trkpt lat="49.3474" lon="-1.62879">
        <ele>30.9</ele>
        <time>2022-02-21T15:16:23Z</time>
      </trkpt>
      <trkpt lat="49.34744" lon="-1.6288">
        <ele>29.5</ele>
        <time>2022-02-21T15:16:57Z</time>
      </trkpt>
      <trkpt lat="49.34749" lon="-1.62884">
        <ele>28.5</ele>
        <time>2022-02-21T15:17:10Z</time>
      </trkpt>
      <trkpt lat="49.34753" lon="-1.62885">
        <ele>28.3</ele>
        <time>2022-02-21T15:17:16Z</time>
      </trkpt>
      <trkpt lat="49.34758" lon="-1.62885">
        <ele>28.2</ele>
        <time>2022-02-21T15:17:24Z</time>
      </trkpt>
      <trkpt lat="49.34762" lon="-1.62889">
        <ele>28.1</ele>
        <time>2022-02-21T15:17:32Z</time>
      </trkpt>
      <trkpt lat="49.34766" lon="-1.62889">
        <ele>28</ele>
        <time>2022-02-21T15:17:35Z</time>
      </trkpt>
      <trkpt lat="49.34772" lon="-1.62891">
        <ele>27.7</ele>
        <time>2022-02-21T15:17:40Z</time>
      </trkpt>
      <trkpt lat="49.34776" lon="-1.62892">
        <ele>27.8</ele>
        <time>2022-02-21T15:17:54Z</time>
      </trkpt>
      <trkpt lat="49.34782" lon="-1.6289">
        <ele>27.7</ele>
        <time>2022-02-21T15:17:59Z</time>
      </trkpt>
      <trkpt lat="49.34786" lon="-1.6289">
        <ele>27.4</ele>
        <time>2022-02-21T15:18:05Z</time>
      </trkpt>
      <trkpt lat="49.34791" lon="-1.62891">
        <ele>27</ele>
        <time>2022-02-21T15:18:33Z</time>
      </trkpt>
      <trkpt lat="49.34794" lon="-1.62885">
        <ele>27.4</ele>
        <time>2022-02-21T15:18:40Z</time>
      </trkpt>
      <trkpt lat="49.34796" lon="-1.62877">
        <ele>27.3</ele>
        <time>2022-02-21T15:18:45Z</time>
      </trkpt>
      <trkpt lat="49.34798" lon="-1.6287">
        <ele>27</ele>
        <time>2022-02-21T15:18:50Z</time>
      </trkpt>
      <trkpt lat="49.348" lon="-1.62862">
        <ele>26.9</ele>
        <time>2022-02-21T15:18:55Z</time>
      </trkpt>
      <trkpt lat="49.34803" lon="-1.62857">
        <ele>26.4</ele>
        <time>2022-02-21T15:19:02Z</time>
      </trkpt>
      <trkpt lat="49.34806" lon="-1.6285">
        <ele>26.1</ele>
        <time>2022-02-21T15:19:07Z</time>
      </trkpt>
      <trkpt lat="49.34808" lon="-1.62844">
        <ele>26.2</ele>
        <time>2022-02-21T15:19:16Z</time>
      </trkpt>
      <trkpt lat="49.3481" lon="-1.62838">
        <ele>25.8</ele>
        <time>2022-02-21T15:19:27Z</time>
      </trkpt>
      <trkpt lat="49.34813" lon="-1.62832">
        <ele>25.6</ele>
        <time>2022-02-21T15:19:38Z</time>
      </trkpt>
      <trkpt lat="49.34817" lon="-1.62829">
        <ele>26.7</ele>
        <time>2022-02-21T15:19:51Z</time>
      </trkpt>
      <trkpt lat="49.34817" lon="-1.62821">
        <ele>26.9</ele>
        <time>2022-02-21T15:20:01Z</time>
      </trkpt>
      <trkpt lat="49.34817" lon="-1.62813">
        <ele>26.7</ele>
        <time>2022-02-21T15:20:07Z</time>
      </trkpt>
      <trkpt lat="49.3482" lon="-1.62808">
        <ele>26.1</ele>
        <time>2022-02-21T15:20:28Z</time>
      </trkpt>
      <trkpt lat="49.34822" lon="-1.62799">
        <ele>26</ele>
        <time>2022-02-21T15:20:38Z</time>
      </trkpt>
      <trkpt lat="49.34823" lon="-1.62792">
        <ele>26.1</ele>
        <time>2022-02-21T15:20:41Z</time>
      </trkpt>
      <trkpt lat="49.34826" lon="-1.62787">
        <ele>25.9</ele>
        <time>2022-02-21T15:20:48Z</time>
      </trkpt>
      <trkpt lat="49.3483" lon="-1.62783">
        <ele>25.8</ele>
        <time>2022-02-21T15:21:05Z</time>
      </trkpt>
      <trkpt lat="49.34834" lon="-1.62781">
        <ele>24.2</ele>
        <time>2022-02-21T15:21:19Z</time>
      </trkpt>
      <trkpt lat="49.34839" lon="-1.6278">
        <ele>22.1</ele>
        <time>2022-02-21T15:21:39Z</time>
      </trkpt>
      <trkpt lat="49.34843" lon="-1.62776">
        <ele>22.1</ele>
        <time>2022-02-21T15:21:50Z</time>
      </trkpt>
      <trkpt lat="49.34848" lon="-1.62772">
        <ele>21.4</ele>
        <time>2022-02-21T15:21:56Z</time>
      </trkpt>
      <trkpt lat="49.34851" lon="-1.62766">
        <ele>21.3</ele>
        <time>2022-02-21T15:22:01Z</time>
      </trkpt>
      <trkpt lat="49.34855" lon="-1.62762">
        <ele>21.3</ele>
        <time>2022-02-21T15:22:11Z</time>
      </trkpt>
      <trkpt lat="49.3486" lon="-1.62758">
        <ele>20.4</ele>
        <time>2022-02-21T15:22:28Z</time>
      </trkpt>
      <trkpt lat="49.34865" lon="-1.62753">
        <ele>20</ele>
        <time>2022-02-21T15:22:31Z</time>
      </trkpt>
      <trkpt lat="49.34869" lon="-1.6275">
        <ele>19.4</ele>
        <time>2022-02-21T15:22:43Z</time>
      </trkpt>
      <trkpt lat="49.34873" lon="-1.62748">
        <ele>18.3</ele>
        <time>2022-02-21T15:23:04Z</time>
      </trkpt>
      <trkpt lat="49.34877" lon="-1.62745">
        <ele>17.7</ele>
        <time>2022-02-21T15:23:25Z</time>
      </trkpt>
      <trkpt lat="49.34882" lon="-1.62742">
        <ele>16.7</ele>
        <time>2022-02-21T15:23:35Z</time>
      </trkpt>
      <trkpt lat="49.34887" lon="-1.6274">
        <ele>16.1</ele>
        <time>2022-02-21T15:23:39Z</time>
      </trkpt>
      <trkpt lat="49.34891" lon="-1.62742">
        <ele>15.5</ele>
        <time>2022-02-21T15:23:43Z</time>
      </trkpt>
      <trkpt lat="49.34897" lon="-1.62739">
        <ele>15.2</ele>
        <time>2022-02-21T15:23:49Z</time>
      </trkpt>
      <trkpt lat="49.34902" lon="-1.62737">
        <ele>15</ele>
        <time>2022-02-21T15:23:54Z</time>
      </trkpt>
      <trkpt lat="49.34905" lon="-1.62733">
        <ele>14.8</ele>
        <time>2022-02-21T15:24:06Z</time>
      </trkpt>
      <trkpt lat="49.34906" lon="-1.6274">
        <ele>15.3</ele>
        <time>2022-02-21T15:24:47Z</time>
      </trkpt>
      <trkpt lat="49.34901" lon="-1.62746">
        <ele>15.7</ele>
        <time>2022-02-21T15:24:50Z</time>
      </trkpt>
      <trkpt lat="49.34899" lon="-1.62754">
        <ele>14.5</ele>
        <time>2022-02-21T15:24:55Z</time>
      </trkpt>
      <trkpt lat="49.349" lon="-1.62761">
        <ele>13.9</ele>
        <time>2022-02-21T15:25:07Z</time>
      </trkpt>
      <trkpt lat="49.34901" lon="-1.62768">
        <ele>16.9</ele>
        <time>2022-02-21T15:25:16Z</time>
      </trkpt>
      <trkpt lat="49.34902" lon="-1.62775">
        <ele>17.8</ele>
        <time>2022-02-21T15:25:29Z</time>
      </trkpt>
      <trkpt lat="49.34904" lon="-1.62781">
        <ele>17.6</ele>
        <time>2022-02-21T15:25:40Z</time>
      </trkpt>
      <trkpt lat="49.34904" lon="-1.62788">
        <ele>16</ele>
        <time>2022-02-21T15:26:30Z</time>
      </trkpt>
      <trkpt lat="49.34903" lon="-1.62795">
        <ele>14.7</ele>
        <time>2022-02-21T15:27:07Z</time>
      </trkpt>
      <trkpt lat="49.34902" lon="-1.62802">
        <ele>14.3</ele>
        <time>2022-02-21T15:27:29Z</time>
      </trkpt>
      <trkpt lat="49.349" lon="-1.62808">
        <ele>14</ele>
        <time>2022-02-21T15:27:40Z</time>
      </trkpt>
      <trkpt lat="49.34901" lon="-1.62815">
        <ele>14</ele>
        <time>2022-02-21T15:27:48Z</time>
      </trkpt>
      <trkpt lat="49.34898" lon="-1.62823">
        <ele>13.5</ele>
        <time>2022-02-21T15:27:59Z</time>
      </trkpt>
      <trkpt lat="49.34896" lon="-1.62832">
        <ele>13.2</ele>
        <time>2022-02-21T15:28:06Z</time>
      </trkpt>
      <trkpt lat="49.34892" lon="-1.62841">
        <ele>13.2</ele>
        <time>2022-02-21T15:28:11Z</time>
      </trkpt>
      <trkpt lat="49.34889" lon="-1.62848">
        <ele>13.1</ele>
        <time>2022-02-21T15:28:16Z</time>
      </trkpt>
      <trkpt lat="49.34886" lon="-1.62853">
        <ele>13.1</ele>
        <time>2022-02-21T15:28:20Z</time>
      </trkpt>
      <trkpt lat="49.34882" lon="-1.62859">
        <ele>12.9</ele>
        <time>2022-02-21T15:28:24Z</time>
      </trkpt>
      <trkpt lat="49.34879" lon="-1.62865">
        <ele>12.9</ele>
        <time>2022-02-21T15:28:27Z</time>
      </trkpt>
      <trkpt lat="49.34877" lon="-1.62874">
        <ele>12.9</ele>
        <time>2022-02-21T15:28:31Z</time>
      </trkpt>
      <trkpt lat="49.34873" lon="-1.62877">
        <ele>14.7</ele>
        <time>2022-02-21T15:28:47Z</time>
      </trkpt>
      <trkpt lat="49.3487" lon="-1.62883">
        <ele>15.9</ele>
        <time>2022-02-21T15:28:56Z</time>
      </trkpt>
      <trkpt lat="49.34867" lon="-1.62889">
        <ele>16.3</ele>
        <time>2022-02-21T15:29:01Z</time>
      </trkpt>
      <trkpt lat="49.34864" lon="-1.62895">
        <ele>16.4</ele>
        <time>2022-02-21T15:29:09Z</time>
      </trkpt>
      <trkpt lat="49.34862" lon="-1.62902">
        <ele>16.2</ele>
        <time>2022-02-21T15:29:15Z</time>
      </trkpt>
      <trkpt lat="49.34857" lon="-1.62906">
        <ele>16.1</ele>
        <time>2022-02-21T15:29:19Z</time>
      </trkpt>
      <trkpt lat="49.34853" lon="-1.62912">
        <ele>16.1</ele>
        <time>2022-02-21T15:29:24Z</time>
      </trkpt>
      <trkpt lat="49.34849" lon="-1.62917">
        <ele>16.5</ele>
        <time>2022-02-21T15:29:29Z</time>
      </trkpt>
      <trkpt lat="49.34845" lon="-1.62922">
        <ele>17</ele>
        <time>2022-02-21T15:29:36Z</time>
      </trkpt>
      <trkpt lat="49.3484" lon="-1.62928">
        <ele>17.1</ele>
        <time>2022-02-21T15:29:41Z</time>
      </trkpt>
      <trkpt lat="49.34837" lon="-1.62933">
        <ele>17.2</ele>
        <time>2022-02-21T15:29:47Z</time>
      </trkpt>
      <trkpt lat="49.34832" lon="-1.62937">
        <ele>17.3</ele>
        <time>2022-02-21T15:29:52Z</time>
      </trkpt>
      <trkpt lat="49.34829" lon="-1.62942">
        <ele>17.3</ele>
        <time>2022-02-21T15:29:59Z</time>
      </trkpt>
      <trkpt lat="49.34825" lon="-1.62948">
        <ele>17.3</ele>
        <time>2022-02-21T15:30:03Z</time>
      </trkpt>
      <trkpt lat="49.34822" lon="-1.62952">
        <ele>17.3</ele>
        <time>2022-02-21T15:30:10Z</time>
      </trkpt>
      <trkpt lat="49.34818" lon="-1.62958">
        <ele>17</ele>
        <time>2022-02-21T15:30:16Z</time>
      </trkpt>
      <trkpt lat="49.34814" lon="-1.62964">
        <ele>17.1</ele>
        <time>2022-02-21T15:30:21Z</time>
      </trkpt>
      <trkpt lat="49.34809" lon="-1.62966">
        <ele>17.3</ele>
        <time>2022-02-21T15:30:28Z</time>
      </trkpt>
      <trkpt lat="49.34807" lon="-1.62972">
        <ele>16.1</ele>
        <time>2022-02-21T15:31:32Z</time>
      </trkpt>
      <trkpt lat="49.34807" lon="-1.62981">
        <ele>16.3</ele>
        <time>2022-02-21T15:31:37Z</time>
      </trkpt>
      <trkpt lat="49.34803" lon="-1.62986">
        <ele>16.1</ele>
        <time>2022-02-21T15:31:44Z</time>
      </trkpt>
      <trkpt lat="49.34798" lon="-1.6299">
        <ele>15.9</ele>
        <time>2022-02-21T15:31:49Z</time>
      </trkpt>
      <trkpt lat="49.34796" lon="-1.62997">
        <ele>16.3</ele>
        <time>2022-02-21T15:31:55Z</time>
      </trkpt>
      <trkpt lat="49.34794" lon="-1.63004">
        <ele>17.6</ele>
        <time>2022-02-21T15:32:14Z</time>
      </trkpt>
      <trkpt lat="49.34792" lon="-1.63011">
        <ele>17.8</ele>
        <time>2022-02-21T15:32:20Z</time>
      </trkpt>
      <trkpt lat="49.34789" lon="-1.63019">
        <ele>18</ele>
        <time>2022-02-21T15:32:25Z</time>
      </trkpt>
      <trkpt lat="49.34788" lon="-1.63026">
        <ele>18.1</ele>
        <time>2022-02-21T15:32:29Z</time>
      </trkpt>
      <trkpt lat="49.34786" lon="-1.63032">
        <ele>18.4</ele>
        <time>2022-02-21T15:32:34Z</time>
      </trkpt>
      <trkpt lat="49.34782" lon="-1.63037">
        <ele>19.5</ele>
        <time>2022-02-21T15:32:46Z</time>
      </trkpt>
      <trkpt lat="49.34781" lon="-1.63044">
        <ele>22</ele>
        <time>2022-02-21T15:33:18Z</time>
      </trkpt>
      <trkpt lat="49.3478" lon="-1.63051">
        <ele>22.1</ele>
        <time>2022-02-21T15:33:34Z</time>
      </trkpt>
      <trkpt lat="49.34779" lon="-1.63059">
        <ele>22.5</ele>
        <time>2022-02-21T15:33:42Z</time>
      </trkpt>
      <trkpt lat="49.34777" lon="-1.63067">
        <ele>22.7</ele>
        <time>2022-02-21T15:33:47Z</time>
      </trkpt>
      <trkpt lat="49.34774" lon="-1.63077">
        <ele>22.8</ele>
        <time>2022-02-21T15:33:50Z</time>
      </trkpt>
      <trkpt lat="49.34769" lon="-1.6309">
        <ele>22.9</ele>
        <time>2022-02-21T15:33:53Z</time>
      </trkpt>
      <trkpt lat="49.34767" lon="-1.63099">
        <ele>23.1</ele>
        <time>2022-02-21T15:33:56Z</time>
      </trkpt>
      <trkpt lat="49.34766" lon="-1.63109">
        <ele>23.3</ele>
        <time>2022-02-21T15:33:59Z</time>
      </trkpt>
      <trkpt lat="49.34765" lon="-1.63116">
        <ele>23.9</ele>
        <time>2022-02-21T15:34:12Z</time>
      </trkpt>
      <trkpt lat="49.34762" lon="-1.63123">
        <ele>24.4</ele>
        <time>2022-02-21T15:34:18Z</time>
      </trkpt>
      <trkpt lat="49.3476" lon="-1.63132">
        <ele>24.6</ele>
        <time>2022-02-21T15:34:22Z</time>
      </trkpt>
      <trkpt lat="49.34759" lon="-1.63139">
        <ele>24.9</ele>
        <time>2022-02-21T15:34:25Z</time>
      </trkpt>
      <trkpt lat="49.34758" lon="-1.63146">
        <ele>26.2</ele>
        <time>2022-02-21T15:34:35Z</time>
      </trkpt>
      <trkpt lat="49.34761" lon="-1.63153">
        <ele>26.9</ele>
        <time>2022-02-21T15:34:38Z</time>
      </trkpt>
      <trkpt lat="49.34764" lon="-1.63159">
        <ele>27.2</ele>
        <time>2022-02-21T15:34:40Z</time>
      </trkpt>
      <trkpt lat="49.34763" lon="-1.6315">
        <ele>26.9</ele>
        <time>2022-02-21T15:34:44Z</time>
      </trkpt>
      <trkpt lat="49.34758" lon="-1.63149">
        <ele>25.4</ele>
        <time>2022-02-21T15:35:15Z</time>
      </trkpt>
      <trkpt lat="49.34756" lon="-1.63156">
        <ele>25.5</ele>
        <time>2022-02-21T15:35:24Z</time>
      </trkpt>
      <trkpt lat="49.34754" lon="-1.63162">
        <ele>25.7</ele>
        <time>2022-02-21T15:35:29Z</time>
      </trkpt>
      <trkpt lat="49.34751" lon="-1.63169">
        <ele>25.8</ele>
        <time>2022-02-21T15:35:34Z</time>
      </trkpt>
      <trkpt lat="49.34749" lon="-1.63175">
        <ele>25.9</ele>
        <time>2022-02-21T15:35:39Z</time>
      </trkpt>
      <trkpt lat="49.34751" lon="-1.63184">
        <ele>25.6</ele>
        <time>2022-02-21T15:35:49Z</time>
      </trkpt>
      <trkpt lat="49.34749" lon="-1.63191">
        <ele>25.8</ele>
        <time>2022-02-21T15:35:53Z</time>
      </trkpt>
      <trkpt lat="49.34745" lon="-1.63199">
        <ele>26.5</ele>
        <time>2022-02-21T15:35:56Z</time>
      </trkpt>
      <trkpt lat="49.34741" lon="-1.63206">
        <ele>27.6</ele>
        <time>2022-02-21T15:36:00Z</time>
      </trkpt>
      <trkpt lat="49.34735" lon="-1.63211">
        <ele>28.1</ele>
        <time>2022-02-21T15:36:29Z</time>
      </trkpt>
      <trkpt lat="49.34732" lon="-1.63215">
        <ele>28.2</ele>
        <time>2022-02-21T15:36:31Z</time>
      </trkpt>
      <trkpt lat="49.34728" lon="-1.63222">
        <ele>28.1</ele>
        <time>2022-02-21T15:36:36Z</time>
      </trkpt>
      <trkpt lat="49.34725" lon="-1.63228">
        <ele>27.8</ele>
        <time>2022-02-21T15:36:41Z</time>
      </trkpt>
      <trkpt lat="49.34721" lon="-1.63233">
        <ele>27.6</ele>
        <time>2022-02-21T15:36:46Z</time>
      </trkpt>
      <trkpt lat="49.34718" lon="-1.63239">
        <ele>27.6</ele>
        <time>2022-02-21T15:36:49Z</time>
      </trkpt>
      <trkpt lat="49.34716" lon="-1.63246">
        <ele>28.1</ele>
        <time>2022-02-21T15:37:17Z</time>
      </trkpt>
      <trkpt lat="49.34711" lon="-1.63254">
        <ele>27.8</ele>
        <time>2022-02-21T15:37:21Z</time>
      </trkpt>
      <trkpt lat="49.34706" lon="-1.6326">
        <ele>27.8</ele>
        <time>2022-02-21T15:37:24Z</time>
      </trkpt>
      <trkpt lat="49.34702" lon="-1.63263">
        <ele>27.8</ele>
        <time>2022-02-21T15:37:26Z</time>
      </trkpt>
      <trkpt lat="49.34695" lon="-1.63266">
        <ele>27.9</ele>
        <time>2022-02-21T15:37:30Z</time>
      </trkpt>
      <trkpt lat="49.3469" lon="-1.63268">
        <ele>27.9</ele>
        <time>2022-02-21T15:37:33Z</time>
      </trkpt>
      <trkpt lat="49.34685" lon="-1.6327">
        <ele>27.7</ele>
        <time>2022-02-21T15:37:36Z</time>
      </trkpt>
      <trkpt lat="49.3468" lon="-1.63274">
        <ele>27.2</ele>
        <time>2022-02-21T15:37:39Z</time>
      </trkpt>
      <trkpt lat="49.34676" lon="-1.63277">
        <ele>26.7</ele>
        <time>2022-02-21T15:37:42Z</time>
      </trkpt>
      <trkpt lat="49.34664" lon="-1.63286">
        <ele>25.8</ele>
        <time>2022-02-21T15:37:52Z</time>
      </trkpt>
      <trkpt lat="49.34659" lon="-1.63288">
        <ele>25.2</ele>
        <time>2022-02-21T15:37:55Z</time>
      </trkpt>
      <trkpt lat="49.34655" lon="-1.63292">
        <ele>24.8</ele>
        <time>2022-02-21T15:37:59Z</time>
      </trkpt>
      <trkpt lat="49.34651" lon="-1.63298">
        <ele>24.6</ele>
        <time>2022-02-21T15:38:03Z</time>
      </trkpt>
      <trkpt lat="49.34647" lon="-1.63302">
        <ele>24.5</ele>
        <time>2022-02-21T15:38:07Z</time>
      </trkpt>
      <trkpt lat="49.34643" lon="-1.63307">
        <ele>24.4</ele>
        <time>2022-02-21T15:38:10Z</time>
      </trkpt>
      <trkpt lat="49.34639" lon="-1.63311">
        <ele>24.4</ele>
        <time>2022-02-21T15:38:13Z</time>
      </trkpt>
      <trkpt lat="49.34634" lon="-1.63315">
        <ele>24.2</ele>
        <time>2022-02-21T15:38:17Z</time>
      </trkpt>
      <trkpt lat="49.34629" lon="-1.63321">
        <ele>23.9</ele>
        <time>2022-02-21T15:38:20Z</time>
      </trkpt>
      <trkpt lat="49.34626" lon="-1.63326">
        <ele>23.5</ele>
        <time>2022-02-21T15:38:24Z</time>
      </trkpt>
      <trkpt lat="49.34621" lon="-1.63332">
        <ele>23.5</ele>
        <time>2022-02-21T15:38:28Z</time>
      </trkpt>
      <trkpt lat="49.34619" lon="-1.63339">
        <ele>24.1</ele>
        <time>2022-02-21T15:38:32Z</time>
      </trkpt>
      <trkpt lat="49.34616" lon="-1.63345">
        <ele>24.6</ele>
        <time>2022-02-21T15:38:35Z</time>
      </trkpt>
      <trkpt lat="49.34612" lon="-1.63352">
        <ele>25.1</ele>
        <time>2022-02-21T15:38:39Z</time>
      </trkpt>
      <trkpt lat="49.34609" lon="-1.63359">
        <ele>25.5</ele>
        <time>2022-02-21T15:38:42Z</time>
      </trkpt>
      <trkpt lat="49.34605" lon="-1.63365">
        <ele>25.7</ele>
        <time>2022-02-21T15:38:46Z</time>
      </trkpt>
      <trkpt lat="49.34601" lon="-1.63372">
        <ele>25.6</ele>
        <time>2022-02-21T15:38:49Z</time>
      </trkpt>
      <trkpt lat="49.34597" lon="-1.6338">
        <ele>25.5</ele>
        <time>2022-02-21T15:38:53Z</time>
      </trkpt>
      <trkpt lat="49.34593" lon="-1.63388">
        <ele>25.6</ele>
        <time>2022-02-21T15:38:58Z</time>
      </trkpt>
      <trkpt lat="49.34589" lon="-1.63395">
        <ele>26</ele>
        <time>2022-02-21T15:39:02Z</time>
      </trkpt>
      <trkpt lat="49.34586" lon="-1.634">
        <ele>26.2</ele>
        <time>2022-02-21T15:39:05Z</time>
      </trkpt>
      <trkpt lat="49.34582" lon="-1.63407">
        <ele>26.5</ele>
        <time>2022-02-21T15:39:09Z</time>
      </trkpt>
      <trkpt lat="49.34577" lon="-1.63413">
        <ele>26.6</ele>
        <time>2022-02-21T15:39:14Z</time>
      </trkpt>
      <trkpt lat="49.34574" lon="-1.63418">
        <ele>27</ele>
        <time>2022-02-21T15:39:17Z</time>
      </trkpt>
      <trkpt lat="49.34569" lon="-1.63424">
        <ele>27.8</ele>
        <time>2022-02-21T15:39:20Z</time>
      </trkpt>
      <trkpt lat="49.34566" lon="-1.63428">
        <ele>28.5</ele>
        <time>2022-02-21T15:39:23Z</time>
      </trkpt>
      <trkpt lat="49.34562" lon="-1.63434">
        <ele>28.8</ele>
        <time>2022-02-21T15:39:27Z</time>
      </trkpt>
      <trkpt lat="49.34559" lon="-1.63441">
        <ele>28.9</ele>
        <time>2022-02-21T15:39:30Z</time>
      </trkpt>
      <trkpt lat="49.34555" lon="-1.63447">
        <ele>29.1</ele>
        <time>2022-02-21T15:39:33Z</time>
      </trkpt>
      <trkpt lat="49.34552" lon="-1.63453">
        <ele>29.2</ele>
        <time>2022-02-21T15:39:36Z</time>
      </trkpt>
      <trkpt lat="49.34548" lon="-1.63459">
        <ele>29.8</ele>
        <time>2022-02-21T15:39:40Z</time>
      </trkpt>
      <trkpt lat="49.34545" lon="-1.63464">
        <ele>30.4</ele>
        <time>2022-02-21T15:39:43Z</time>
      </trkpt>
      <trkpt lat="49.34541" lon="-1.6347">
        <ele>30.9</ele>
        <time>2022-02-21T15:39:46Z</time>
      </trkpt>
      <trkpt lat="49.34537" lon="-1.63476">
        <ele>30.9</ele>
        <time>2022-02-21T15:39:50Z</time>
      </trkpt>
      <trkpt lat="49.34534" lon="-1.63481">
        <ele>30.8</ele>
        <time>2022-02-21T15:39:53Z</time>
      </trkpt>
      <trkpt lat="49.3453" lon="-1.63485">
        <ele>30.8</ele>
        <time>2022-02-21T15:39:57Z</time>
      </trkpt>
      <trkpt lat="49.34524" lon="-1.63489">
        <ele>30.6</ele>
        <time>2022-02-21T15:40:01Z</time>
      </trkpt>
      <trkpt lat="49.3452" lon="-1.6349">
        <ele>30.5</ele>
        <time>2022-02-21T15:40:04Z</time>
      </trkpt>
      <trkpt lat="49.34515" lon="-1.63489">
        <ele>30.3</ele>
        <time>2022-02-21T15:40:07Z</time>
      </trkpt>
      <trkpt lat="49.3451" lon="-1.63488">
        <ele>30</ele>
        <time>2022-02-21T15:40:10Z</time>
      </trkpt>
      <trkpt lat="49.34505" lon="-1.63485">
        <ele>29.6</ele>
        <time>2022-02-21T15:40:14Z</time>
      </trkpt>
      <trkpt lat="49.34501" lon="-1.63482">
        <ele>29.3</ele>
        <time>2022-02-21T15:40:18Z</time>
      </trkpt>
      <trkpt lat="49.34496" lon="-1.63478">
        <ele>29.2</ele>
        <time>2022-02-21T15:40:21Z</time>
      </trkpt>
      <trkpt lat="49.34491" lon="-1.63475">
        <ele>29.4</ele>
        <time>2022-02-21T15:40:24Z</time>
      </trkpt>
      <trkpt lat="49.34485" lon="-1.63474">
        <ele>29.8</ele>
        <time>2022-02-21T15:40:29Z</time>
      </trkpt>
      <trkpt lat="49.3448" lon="-1.63476">
        <ele>30</ele>
        <time>2022-02-21T15:40:32Z</time>
      </trkpt>
      <trkpt lat="49.34475" lon="-1.63482">
        <ele>30</ele>
        <time>2022-02-21T15:40:36Z</time>
      </trkpt>
      <trkpt lat="49.34471" lon="-1.63489">
        <ele>29.9</ele>
        <time>2022-02-21T15:40:40Z</time>
      </trkpt>
      <trkpt lat="49.34468" lon="-1.63496">
        <ele>29.5</ele>
        <time>2022-02-21T15:40:43Z</time>
      </trkpt>
      <trkpt lat="49.34464" lon="-1.63503">
        <ele>29</ele>
        <time>2022-02-21T15:40:47Z</time>
      </trkpt>
      <trkpt lat="49.3446" lon="-1.63507">
        <ele>29.4</ele>
        <time>2022-02-21T15:40:50Z</time>
      </trkpt>
      <trkpt lat="49.34456" lon="-1.63511">
        <ele>30.1</ele>
        <time>2022-02-21T15:40:53Z</time>
      </trkpt>
      <trkpt lat="49.34452" lon="-1.63518">
        <ele>30.7</ele>
        <time>2022-02-21T15:40:57Z</time>
      </trkpt>
      <trkpt lat="49.34448" lon="-1.63523">
        <ele>30.8</ele>
        <time>2022-02-21T15:41:00Z</time>
      </trkpt>
      <trkpt lat="49.34444" lon="-1.63528">
        <ele>30.8</ele>
        <time>2022-02-21T15:41:04Z</time>
      </trkpt>
      <trkpt lat="49.34441" lon="-1.63533">
        <ele>31</ele>
        <time>2022-02-21T15:41:07Z</time>
      </trkpt>
      <trkpt lat="49.34437" lon="-1.6354">
        <ele>31.3</ele>
        <time>2022-02-21T15:41:11Z</time>
      </trkpt>
      <trkpt lat="49.34433" lon="-1.63546">
        <ele>31.3</ele>
        <time>2022-02-21T15:41:15Z</time>
      </trkpt>
      <trkpt lat="49.34429" lon="-1.63549">
        <ele>31.2</ele>
        <time>2022-02-21T15:41:19Z</time>
      </trkpt>
      <trkpt lat="49.34424" lon="-1.63551">
        <ele>31.3</ele>
        <time>2022-02-21T15:41:23Z</time>
      </trkpt>
      <trkpt lat="49.34421" lon="-1.63557">
        <ele>31.4</ele>
        <time>2022-02-21T15:41:26Z</time>
      </trkpt>
      <trkpt lat="49.34417" lon="-1.63564">
        <ele>31.4</ele>
        <time>2022-02-21T15:41:30Z</time>
      </trkpt>
      <trkpt lat="49.34414" lon="-1.63571">
        <ele>31.4</ele>
        <time>2022-02-21T15:41:34Z</time>
      </trkpt>
      <trkpt lat="49.3441" lon="-1.63577">
        <ele>31.4</ele>
        <time>2022-02-21T15:41:37Z</time>
      </trkpt>
      <trkpt lat="49.34406" lon="-1.63584">
        <ele>31.6</ele>
        <time>2022-02-21T15:41:41Z</time>
      </trkpt>
      <trkpt lat="49.34401" lon="-1.63589">
        <ele>31.8</ele>
        <time>2022-02-21T15:41:45Z</time>
      </trkpt>
      <trkpt lat="49.34398" lon="-1.63594">
        <ele>32.1</ele>
        <time>2022-02-21T15:41:48Z</time>
      </trkpt>
      <trkpt lat="49.34394" lon="-1.636">
        <ele>32.5</ele>
        <time>2022-02-21T15:41:52Z</time>
      </trkpt>
      <trkpt lat="49.3439" lon="-1.63607">
        <ele>32.8</ele>
        <time>2022-02-21T15:41:55Z</time>
      </trkpt>
      <trkpt lat="49.34386" lon="-1.63611">
        <ele>32.8</ele>
        <time>2022-02-21T15:41:59Z</time>
      </trkpt>
      <trkpt lat="49.3438" lon="-1.63614">
        <ele>32.4</ele>
        <time>2022-02-21T15:42:02Z</time>
      </trkpt>
      <trkpt lat="49.34375" lon="-1.63612">
        <ele>32.1</ele>
        <time>2022-02-21T15:42:05Z</time>
      </trkpt>
      <trkpt lat="49.34369" lon="-1.63609">
        <ele>32</ele>
        <time>2022-02-21T15:42:09Z</time>
      </trkpt>
      <trkpt lat="49.34364" lon="-1.63604">
        <ele>32.1</ele>
        <time>2022-02-21T15:42:13Z</time>
      </trkpt>
      <trkpt lat="49.34359" lon="-1.63601">
        <ele>32</ele>
        <time>2022-02-21T15:42:17Z</time>
      </trkpt>
      <trkpt lat="49.34354" lon="-1.63599">
        <ele>31.8</ele>
        <time>2022-02-21T15:42:21Z</time>
      </trkpt>
      <trkpt lat="49.34349" lon="-1.63599">
        <ele>31.8</ele>
        <time>2022-02-21T15:42:24Z</time>
      </trkpt>
      <trkpt lat="49.34344" lon="-1.63597">
        <ele>31.9</ele>
        <time>2022-02-21T15:42:28Z</time>
      </trkpt>
      <trkpt lat="49.34339" lon="-1.63597">
        <ele>32</ele>
        <time>2022-02-21T15:42:31Z</time>
      </trkpt>
      <trkpt lat="49.34334" lon="-1.63598">
        <ele>31.9</ele>
        <time>2022-02-21T15:42:34Z</time>
      </trkpt>
      <trkpt lat="49.34329" lon="-1.636">
        <ele>31.7</ele>
        <time>2022-02-21T15:42:38Z</time>
      </trkpt>
      <trkpt lat="49.34323" lon="-1.63602">
        <ele>31.7</ele>
        <time>2022-02-21T15:42:41Z</time>
      </trkpt>
      <trkpt lat="49.34317" lon="-1.63604">
        <ele>31.9</ele>
        <time>2022-02-21T15:42:45Z</time>
      </trkpt>
      <trkpt lat="49.34313" lon="-1.63607">
        <ele>32.3</ele>
        <time>2022-02-21T15:42:48Z</time>
      </trkpt>
      <trkpt lat="49.34308" lon="-1.6361">
        <ele>32.6</ele>
        <time>2022-02-21T15:42:53Z</time>
      </trkpt>
      <trkpt lat="49.34304" lon="-1.63613">
        <ele>32.8</ele>
        <time>2022-02-21T15:42:57Z</time>
      </trkpt>
      <trkpt lat="49.34299" lon="-1.63616">
        <ele>32.8</ele>
        <time>2022-02-21T15:43:00Z</time>
      </trkpt>
      <trkpt lat="49.34295" lon="-1.63621">
        <ele>33</ele>
        <time>2022-02-21T15:43:03Z</time>
      </trkpt>
      <trkpt lat="49.34292" lon="-1.63626">
        <ele>33.3</ele>
        <time>2022-02-21T15:43:07Z</time>
      </trkpt>
      <trkpt lat="49.34288" lon="-1.63625">
        <ele>33.8</ele>
        <time>2022-02-21T15:43:12Z</time>
      </trkpt>
      <trkpt lat="49.34286" lon="-1.63633">
        <ele>34</ele>
        <time>2022-02-21T15:43:25Z</time>
      </trkpt>
      <trkpt lat="49.34284" lon="-1.63642">
        <ele>34</ele>
        <time>2022-02-21T15:43:28Z</time>
      </trkpt>
      <trkpt lat="49.3428" lon="-1.6365">
        <ele>34.1</ele>
        <time>2022-02-21T15:43:31Z</time>
      </trkpt>
      <trkpt lat="49.34277" lon="-1.63655">
        <ele>34.1</ele>
        <time>2022-02-21T15:43:34Z</time>
      </trkpt>
      <trkpt lat="49.34273" lon="-1.63662">
        <ele>34.4</ele>
        <time>2022-02-21T15:43:37Z</time>
      </trkpt>
      <trkpt lat="49.34268" lon="-1.63667">
        <ele>34.9</ele>
        <time>2022-02-21T15:43:40Z</time>
      </trkpt>
      <trkpt lat="49.34264" lon="-1.63671">
        <ele>35.1</ele>
        <time>2022-02-21T15:43:44Z</time>
      </trkpt>
      <trkpt lat="49.3426" lon="-1.63674">
        <ele>35.1</ele>
        <time>2022-02-21T15:43:47Z</time>
      </trkpt>
      <trkpt lat="49.34257" lon="-1.63681">
        <ele>34.7</ele>
        <time>2022-02-21T15:43:51Z</time>
      </trkpt>
      <trkpt lat="49.34253" lon="-1.63685">
        <ele>34.5</ele>
        <time>2022-02-21T15:43:54Z</time>
      </trkpt>
      <trkpt lat="49.34249" lon="-1.63692">
        <ele>34.4</ele>
        <time>2022-02-21T15:43:58Z</time>
      </trkpt>
      <trkpt lat="49.34245" lon="-1.63697">
        <ele>34.3</ele>
        <time>2022-02-21T15:44:02Z</time>
      </trkpt>
      <trkpt lat="49.3424" lon="-1.63702">
        <ele>34</ele>
        <time>2022-02-21T15:44:06Z</time>
      </trkpt>
      <trkpt lat="49.34236" lon="-1.63709">
        <ele>33.9</ele>
        <time>2022-02-21T15:44:10Z</time>
      </trkpt>
      <trkpt lat="49.34232" lon="-1.63714">
        <ele>33.8</ele>
        <time>2022-02-21T15:44:14Z</time>
      </trkpt>
      <trkpt lat="49.34228" lon="-1.63716">
        <ele>33.7</ele>
        <time>2022-02-21T15:44:17Z</time>
      </trkpt>
      <trkpt lat="49.34224" lon="-1.63722">
        <ele>33.5</ele>
        <time>2022-02-21T15:44:21Z</time>
      </trkpt>
      <trkpt lat="49.34221" lon="-1.63729">
        <ele>33.8</ele>
        <time>2022-02-21T15:44:39Z</time>
      </trkpt>
      <trkpt lat="49.34217" lon="-1.63731">
        <ele>33.9</ele>
        <time>2022-02-21T15:44:44Z</time>
      </trkpt>
      <trkpt lat="49.34215" lon="-1.63738">
        <ele>34</ele>
        <time>2022-02-21T15:44:47Z</time>
      </trkpt>
      <trkpt lat="49.34211" lon="-1.63745">
        <ele>33.9</ele>
        <time>2022-02-21T15:44:51Z</time>
      </trkpt>
      <trkpt lat="49.34208" lon="-1.63752">
        <ele>33.8</ele>
        <time>2022-02-21T15:44:55Z</time>
      </trkpt>
      <trkpt lat="49.34205" lon="-1.63757">
        <ele>33.7</ele>
        <time>2022-02-21T15:44:59Z</time>
      </trkpt>
      <trkpt lat="49.34201" lon="-1.63761">
        <ele>33.6</ele>
        <time>2022-02-21T15:45:02Z</time>
      </trkpt>
      <trkpt lat="49.34196" lon="-1.63765">
        <ele>33.4</ele>
        <time>2022-02-21T15:45:06Z</time>
      </trkpt>
      <trkpt lat="49.34193" lon="-1.63771">
        <ele>32.9</ele>
        <time>2022-02-21T15:45:11Z</time>
      </trkpt>
      <trkpt lat="49.34189" lon="-1.63776">
        <ele>32.6</ele>
        <time>2022-02-21T15:45:14Z</time>
      </trkpt>
      <trkpt lat="49.34186" lon="-1.63781">
        <ele>32.5</ele>
        <time>2022-02-21T15:45:18Z</time>
      </trkpt>
      <trkpt lat="49.34182" lon="-1.63788">
        <ele>32.6</ele>
        <time>2022-02-21T15:45:23Z</time>
      </trkpt>
      <trkpt lat="49.34177" lon="-1.63792">
        <ele>32.8</ele>
        <time>2022-02-21T15:45:27Z</time>
      </trkpt>
      <trkpt lat="49.34173" lon="-1.63796">
        <ele>33.2</ele>
        <time>2022-02-21T15:45:30Z</time>
      </trkpt>
      <trkpt lat="49.3417" lon="-1.63799">
        <ele>33.3</ele>
        <time>2022-02-21T15:45:33Z</time>
      </trkpt>
      <trkpt lat="49.34165" lon="-1.63805">
        <ele>33.4</ele>
        <time>2022-02-21T15:45:37Z</time>
      </trkpt>
      <trkpt lat="49.34161" lon="-1.6381">
        <ele>32.7</ele>
        <time>2022-02-21T15:45:42Z</time>
      </trkpt>
      <trkpt lat="49.34157" lon="-1.63815">
        <ele>32.4</ele>
        <time>2022-02-21T15:45:45Z</time>
      </trkpt>
      <trkpt lat="49.34153" lon="-1.6382">
        <ele>32.1</ele>
        <time>2022-02-21T15:45:48Z</time>
      </trkpt>
      <trkpt lat="49.34151" lon="-1.63826">
        <ele>32.2</ele>
        <time>2022-02-21T15:45:52Z</time>
      </trkpt>
      <trkpt lat="49.34146" lon="-1.63828">
        <ele>32.1</ele>
        <time>2022-02-21T15:45:55Z</time>
      </trkpt>
      <trkpt lat="49.34142" lon="-1.63835">
        <ele>31.8</ele>
        <time>2022-02-21T15:46:02Z</time>
      </trkpt>
      <trkpt lat="49.34139" lon="-1.63842">
        <ele>31.9</ele>
        <time>2022-02-21T15:46:05Z</time>
      </trkpt>
      <trkpt lat="49.34135" lon="-1.63849">
        <ele>31.9</ele>
        <time>2022-02-21T15:46:08Z</time>
      </trkpt>
      <trkpt lat="49.34132" lon="-1.63855">
        <ele>32.1</ele>
        <time>2022-02-21T15:46:12Z</time>
      </trkpt>
      <trkpt lat="49.3413" lon="-1.63862">
        <ele>32.1</ele>
        <time>2022-02-21T15:46:15Z</time>
      </trkpt>
      <trkpt lat="49.34122" lon="-1.63869">
        <ele>31.6</ele>
        <time>2022-02-21T15:46:22Z</time>
      </trkpt>
      <trkpt lat="49.34112" lon="-1.63876">
        <ele>30.6</ele>
        <time>2022-02-21T15:46:28Z</time>
      </trkpt>
      <trkpt lat="49.34107" lon="-1.63878">
        <ele>30.9</ele>
        <time>2022-02-21T15:46:32Z</time>
      </trkpt>
      <trkpt lat="49.34103" lon="-1.63882">
        <ele>31.9</ele>
        <time>2022-02-21T15:46:40Z</time>
      </trkpt>
      <trkpt lat="49.34098" lon="-1.63887">
        <ele>31.8</ele>
        <time>2022-02-21T15:46:45Z</time>
      </trkpt>
      <trkpt lat="49.34095" lon="-1.63895">
        <ele>31.6</ele>
        <time>2022-02-21T15:46:49Z</time>
      </trkpt>
      <trkpt lat="49.34092" lon="-1.63899">
        <ele>31.6</ele>
        <time>2022-02-21T15:46:51Z</time>
      </trkpt>
      <trkpt lat="49.34087" lon="-1.63905">
        <ele>31.7</ele>
        <time>2022-02-21T15:46:54Z</time>
      </trkpt>
      <trkpt lat="49.34082" lon="-1.63911">
        <ele>31.9</ele>
        <time>2022-02-21T15:46:58Z</time>
      </trkpt>
      <trkpt lat="49.34078" lon="-1.63917">
        <ele>32.1</ele>
        <time>2022-02-21T15:47:01Z</time>
      </trkpt>
      <trkpt lat="49.34075" lon="-1.63922">
        <ele>32.4</ele>
        <time>2022-02-21T15:47:04Z</time>
      </trkpt>
      <trkpt lat="49.34071" lon="-1.63926">
        <ele>32.4</ele>
        <time>2022-02-21T15:47:08Z</time>
      </trkpt>
      <trkpt lat="49.34066" lon="-1.63931">
        <ele>32.2</ele>
        <time>2022-02-21T15:47:13Z</time>
      </trkpt>
      <trkpt lat="49.34062" lon="-1.63935">
        <ele>32.1</ele>
        <time>2022-02-21T15:47:17Z</time>
      </trkpt>
      <trkpt lat="49.34057" lon="-1.63939">
        <ele>32.1</ele>
        <time>2022-02-21T15:47:21Z</time>
      </trkpt>
      <trkpt lat="49.34052" lon="-1.63942">
        <ele>32.1</ele>
        <time>2022-02-21T15:47:25Z</time>
      </trkpt>
      <trkpt lat="49.34051" lon="-1.63951">
        <ele>32.3</ele>
        <time>2022-02-21T15:47:29Z</time>
      </trkpt>
      <trkpt lat="49.34048" lon="-1.63959">
        <ele>32.5</ele>
        <time>2022-02-21T15:47:33Z</time>
      </trkpt>
      <trkpt lat="49.34045" lon="-1.63965">
        <ele>32.6</ele>
        <time>2022-02-21T15:47:36Z</time>
      </trkpt>
      <trkpt lat="49.3404" lon="-1.63973">
        <ele>33.1</ele>
        <time>2022-02-21T15:47:49Z</time>
      </trkpt>
      <trkpt lat="49.34036" lon="-1.63978">
        <ele>33.3</ele>
        <time>2022-02-21T15:47:53Z</time>
      </trkpt>
      <trkpt lat="49.34033" lon="-1.63985">
        <ele>33.4</ele>
        <time>2022-02-21T15:47:56Z</time>
      </trkpt>
      <trkpt lat="49.34029" lon="-1.63992">
        <ele>33.2</ele>
        <time>2022-02-21T15:48:00Z</time>
      </trkpt>
      <trkpt lat="49.34026" lon="-1.63997">
        <ele>33</ele>
        <time>2022-02-21T15:48:03Z</time>
      </trkpt>
      <trkpt lat="49.34022" lon="-1.64002">
        <ele>32.8</ele>
        <time>2022-02-21T15:48:07Z</time>
      </trkpt>
      <trkpt lat="49.34018" lon="-1.64009">
        <ele>32.4</ele>
        <time>2022-02-21T15:48:12Z</time>
      </trkpt>
      <trkpt lat="49.34015" lon="-1.64015">
        <ele>32.1</ele>
        <time>2022-02-21T15:48:15Z</time>
      </trkpt>
      <trkpt lat="49.34011" lon="-1.64019">
        <ele>32</ele>
        <time>2022-02-21T15:48:18Z</time>
      </trkpt>
      <trkpt lat="49.34006" lon="-1.64023">
        <ele>31.8</ele>
        <time>2022-02-21T15:48:27Z</time>
      </trkpt>
      <trkpt lat="49.34004" lon="-1.6403">
        <ele>31.6</ele>
        <time>2022-02-21T15:48:30Z</time>
      </trkpt>
      <trkpt lat="49.34001" lon="-1.64036">
        <ele>31.3</ele>
        <time>2022-02-21T15:48:33Z</time>
      </trkpt>
      <trkpt lat="49.33998" lon="-1.64043">
        <ele>31</ele>
        <time>2022-02-21T15:48:37Z</time>
      </trkpt>
      <trkpt lat="49.33995" lon="-1.64049">
        <ele>30.7</ele>
        <time>2022-02-21T15:48:40Z</time>
      </trkpt>
      <trkpt lat="49.33993" lon="-1.64057">
        <ele>30.5</ele>
        <time>2022-02-21T15:48:44Z</time>
      </trkpt>
      <trkpt lat="49.33989" lon="-1.64062">
        <ele>30.5</ele>
        <time>2022-02-21T15:48:47Z</time>
      </trkpt>
      <trkpt lat="49.33985" lon="-1.64066">
        <ele>30.5</ele>
        <time>2022-02-21T15:48:50Z</time>
      </trkpt>
      <trkpt lat="49.3398" lon="-1.6407">
        <ele>30.7</ele>
        <time>2022-02-21T15:48:54Z</time>
      </trkpt>
      <trkpt lat="49.33976" lon="-1.64076">
        <ele>31.2</ele>
        <time>2022-02-21T15:48:59Z</time>
      </trkpt>
      <trkpt lat="49.33973" lon="-1.64082">
        <ele>31.8</ele>
        <time>2022-02-21T15:49:02Z</time>
      </trkpt>
      <trkpt lat="49.33969" lon="-1.64088">
        <ele>32</ele>
        <time>2022-02-21T15:49:05Z</time>
      </trkpt>
      <trkpt lat="49.33965" lon="-1.64094">
        <ele>31.7</ele>
        <time>2022-02-21T15:49:09Z</time>
      </trkpt>
      <trkpt lat="49.33962" lon="-1.64101">
        <ele>31.3</ele>
        <time>2022-02-21T15:49:13Z</time>
      </trkpt>
      <trkpt lat="49.33959" lon="-1.64107">
        <ele>30.9</ele>
        <time>2022-02-21T15:49:17Z</time>
      </trkpt>
      <trkpt lat="49.33956" lon="-1.64114">
        <ele>30.8</ele>
        <time>2022-02-21T15:49:22Z</time>
      </trkpt>
      <trkpt lat="49.33952" lon="-1.6412">
        <ele>30.7</ele>
        <time>2022-02-21T15:49:25Z</time>
      </trkpt>
      <trkpt lat="49.33946" lon="-1.64122">
        <ele>30.8</ele>
        <time>2022-02-21T15:49:29Z</time>
      </trkpt>
      <trkpt lat="49.33943" lon="-1.64128">
        <ele>31</ele>
        <time>2022-02-21T15:49:33Z</time>
      </trkpt>
      <trkpt lat="49.33939" lon="-1.64134">
        <ele>31.4</ele>
        <time>2022-02-21T15:49:36Z</time>
      </trkpt>
      <trkpt lat="49.33936" lon="-1.64139">
        <ele>31.4</ele>
        <time>2022-02-21T15:49:39Z</time>
      </trkpt>
      <trkpt lat="49.33922" lon="-1.64161">
        <ele>30.8</ele>
        <time>2022-02-21T15:49:53Z</time>
      </trkpt>
      <trkpt lat="49.33919" lon="-1.64166">
        <ele>31.1</ele>
        <time>2022-02-21T15:49:56Z</time>
      </trkpt>
      <trkpt lat="49.33914" lon="-1.64172">
        <ele>31.1</ele>
        <time>2022-02-21T15:50:00Z</time>
      </trkpt>
      <trkpt lat="49.33909" lon="-1.64176">
        <ele>30.6</ele>
        <time>2022-02-21T15:50:04Z</time>
      </trkpt>
      <trkpt lat="49.33906" lon="-1.64182">
        <ele>29.8</ele>
        <time>2022-02-21T15:50:08Z</time>
      </trkpt>
      <trkpt lat="49.33902" lon="-1.64188">
        <ele>29.4</ele>
        <time>2022-02-21T15:50:11Z</time>
      </trkpt>
      <trkpt lat="49.33897" lon="-1.64193">
        <ele>29.4</ele>
        <time>2022-02-21T15:50:16Z</time>
      </trkpt>
      <trkpt lat="49.33892" lon="-1.64198">
        <ele>29.5</ele>
        <time>2022-02-21T15:50:20Z</time>
      </trkpt>
      <trkpt lat="49.33888" lon="-1.64203">
        <ele>29.4</ele>
        <time>2022-02-21T15:50:24Z</time>
      </trkpt>
      <trkpt lat="49.33881" lon="-1.64211">
        <ele>29.2</ele>
        <time>2022-02-21T15:50:29Z</time>
      </trkpt>
      <trkpt lat="49.33877" lon="-1.64215">
        <ele>28.9</ele>
        <time>2022-02-21T15:50:34Z</time>
      </trkpt>
      <trkpt lat="49.33873" lon="-1.64219">
        <ele>28.3</ele>
        <time>2022-02-21T15:50:39Z</time>
      </trkpt>
      <trkpt lat="49.33869" lon="-1.64222">
        <ele>27.6</ele>
        <time>2022-02-21T15:50:42Z</time>
      </trkpt>
      <trkpt lat="49.33865" lon="-1.64228">
        <ele>27</ele>
        <time>2022-02-21T15:50:45Z</time>
      </trkpt>
      <trkpt lat="49.33862" lon="-1.64233">
        <ele>26.9</ele>
        <time>2022-02-21T15:50:49Z</time>
      </trkpt>
      <trkpt lat="49.33857" lon="-1.64237">
        <ele>26.9</ele>
        <time>2022-02-21T15:50:52Z</time>
      </trkpt>
      <trkpt lat="49.33853" lon="-1.6424">
        <ele>26.9</ele>
        <time>2022-02-21T15:50:55Z</time>
      </trkpt>
      <trkpt lat="49.3385" lon="-1.64245">
        <ele>26.9</ele>
        <time>2022-02-21T15:50:58Z</time>
      </trkpt>
      <trkpt lat="49.33845" lon="-1.6425">
        <ele>26.8</ele>
        <time>2022-02-21T15:51:02Z</time>
      </trkpt>
      <trkpt lat="49.33841" lon="-1.64254">
        <ele>28.6</ele>
        <time>2022-02-21T15:51:21Z</time>
      </trkpt>
      <trkpt lat="49.33836" lon="-1.64259">
        <ele>28.8</ele>
        <time>2022-02-21T15:51:24Z</time>
      </trkpt>
      <trkpt lat="49.33831" lon="-1.64263">
        <ele>28.8</ele>
        <time>2022-02-21T15:51:28Z</time>
      </trkpt>
      <trkpt lat="49.33826" lon="-1.64268">
        <ele>28.6</ele>
        <time>2022-02-21T15:51:31Z</time>
      </trkpt>
      <trkpt lat="49.33822" lon="-1.64272">
        <ele>28.4</ele>
        <time>2022-02-21T15:51:34Z</time>
      </trkpt>
      <trkpt lat="49.33817" lon="-1.64278">
        <ele>28.2</ele>
        <time>2022-02-21T15:51:39Z</time>
      </trkpt>
      <trkpt lat="49.33812" lon="-1.64274">
        <ele>28.5</ele>
        <time>2022-02-21T15:51:45Z</time>
      </trkpt>
      <trkpt lat="49.33808" lon="-1.64278">
        <ele>28.8</ele>
        <time>2022-02-21T15:51:55Z</time>
      </trkpt>
      <trkpt lat="49.33803" lon="-1.6428">
        <ele>28.4</ele>
        <time>2022-02-21T15:52:01Z</time>
      </trkpt>
      <trkpt lat="49.338" lon="-1.64285">
        <ele>28.1</ele>
        <time>2022-02-21T15:52:06Z</time>
      </trkpt>
      <trkpt lat="49.33796" lon="-1.6429">
        <ele>28.3</ele>
        <time>2022-02-21T15:52:10Z</time>
      </trkpt>
      <trkpt lat="49.33791" lon="-1.64296">
        <ele>28.6</ele>
        <time>2022-02-21T15:52:14Z</time>
      </trkpt>
      <trkpt lat="49.33786" lon="-1.643">
        <ele>28.9</ele>
        <time>2022-02-21T15:52:19Z</time>
      </trkpt>
      <trkpt lat="49.3378" lon="-1.64301">
        <ele>29</ele>
        <time>2022-02-21T15:52:24Z</time>
      </trkpt>
      <trkpt lat="49.33775" lon="-1.64304">
        <ele>28.9</ele>
        <time>2022-02-21T15:52:28Z</time>
      </trkpt>
      <trkpt lat="49.3377" lon="-1.64307">
        <ele>28.6</ele>
        <time>2022-02-21T15:52:31Z</time>
      </trkpt>
      <trkpt lat="49.33766" lon="-1.64309">
        <ele>27.8</ele>
        <time>2022-02-21T15:52:35Z</time>
      </trkpt>
      <trkpt lat="49.3376" lon="-1.6431">
        <ele>27.2</ele>
        <time>2022-02-21T15:52:40Z</time>
      </trkpt>
      <trkpt lat="49.33756" lon="-1.64312">
        <ele>27</ele>
        <time>2022-02-21T15:52:44Z</time>
      </trkpt>
      <trkpt lat="49.33752" lon="-1.64317">
        <ele>27</ele>
        <time>2022-02-21T15:52:49Z</time>
      </trkpt>
      <trkpt lat="49.33747" lon="-1.64323">
        <ele>26.9</ele>
        <time>2022-02-21T15:52:54Z</time>
      </trkpt>
      <trkpt lat="49.33743" lon="-1.64327">
        <ele>26.6</ele>
        <time>2022-02-21T15:52:59Z</time>
      </trkpt>
      <trkpt lat="49.33739" lon="-1.64327">
        <ele>26.3</ele>
        <time>2022-02-21T15:53:02Z</time>
      </trkpt>
      <trkpt lat="49.33734" lon="-1.64329">
        <ele>26.1</ele>
        <time>2022-02-21T15:53:06Z</time>
      </trkpt>
      <trkpt lat="49.33729" lon="-1.64332">
        <ele>26</ele>
        <time>2022-02-21T15:53:10Z</time>
      </trkpt>
      <trkpt lat="49.33725" lon="-1.6434">
        <ele>26</ele>
        <time>2022-02-21T15:53:14Z</time>
      </trkpt>
      <trkpt lat="49.33721" lon="-1.64344">
        <ele>26.1</ele>
        <time>2022-02-21T15:53:18Z</time>
      </trkpt>
      <trkpt lat="49.33717" lon="-1.64345">
        <ele>26.4</ele>
        <time>2022-02-21T15:53:21Z</time>
      </trkpt>
      <trkpt lat="49.33712" lon="-1.6435">
        <ele>26.4</ele>
        <time>2022-02-21T15:53:25Z</time>
      </trkpt>
      <trkpt lat="49.33708" lon="-1.64354">
        <ele>26.3</ele>
        <time>2022-02-21T15:53:29Z</time>
      </trkpt>
      <trkpt lat="49.33702" lon="-1.64359">
        <ele>26.1</ele>
        <time>2022-02-21T15:53:35Z</time>
      </trkpt>
      <trkpt lat="49.33697" lon="-1.64364">
        <ele>25.8</ele>
        <time>2022-02-21T15:53:39Z</time>
      </trkpt>
      <trkpt lat="49.33693" lon="-1.64366">
        <ele>25.7</ele>
        <time>2022-02-21T15:53:43Z</time>
      </trkpt>
      <trkpt lat="49.33687" lon="-1.64369">
        <ele>25.6</ele>
        <time>2022-02-21T15:53:47Z</time>
      </trkpt>
      <trkpt lat="49.33683" lon="-1.64371">
        <ele>25.5</ele>
        <time>2022-02-21T15:53:54Z</time>
      </trkpt>
      <trkpt lat="49.33678" lon="-1.64376">
        <ele>25.1</ele>
        <time>2022-02-21T15:53:59Z</time>
      </trkpt>
      <trkpt lat="49.33672" lon="-1.64377">
        <ele>24.3</ele>
        <time>2022-02-21T15:54:04Z</time>
      </trkpt>
      <trkpt lat="49.33667" lon="-1.64378">
        <ele>23.8</ele>
        <time>2022-02-21T15:54:11Z</time>
      </trkpt>
      <trkpt lat="49.33662" lon="-1.6438">
        <ele>23.6</ele>
        <time>2022-02-21T15:54:15Z</time>
      </trkpt>
      <trkpt lat="49.33657" lon="-1.64383">
        <ele>22.9</ele>
        <time>2022-02-21T15:54:19Z</time>
      </trkpt>
      <trkpt lat="49.33653" lon="-1.64387">
        <ele>22.3</ele>
        <time>2022-02-21T15:54:24Z</time>
      </trkpt>
      <trkpt lat="49.33648" lon="-1.64389">
        <ele>22</ele>
        <time>2022-02-21T15:54:27Z</time>
      </trkpt>
      <trkpt lat="49.33643" lon="-1.64392">
        <ele>21.9</ele>
        <time>2022-02-21T15:54:31Z</time>
      </trkpt>
      <trkpt lat="49.33639" lon="-1.64395">
        <ele>22</ele>
        <time>2022-02-21T15:54:36Z</time>
      </trkpt>
      <trkpt lat="49.33634" lon="-1.64399">
        <ele>22.3</ele>
        <time>2022-02-21T15:54:40Z</time>
      </trkpt>
      <trkpt lat="49.33629" lon="-1.64401">
        <ele>22.6</ele>
        <time>2022-02-21T15:54:43Z</time>
      </trkpt>
      <trkpt lat="49.33625" lon="-1.64403">
        <ele>22.6</ele>
        <time>2022-02-21T15:54:47Z</time>
      </trkpt>
      <trkpt lat="49.33619" lon="-1.64406">
        <ele>22.1</ele>
        <time>2022-02-21T15:54:52Z</time>
      </trkpt>
      <trkpt lat="49.33614" lon="-1.6441">
        <ele>21.6</ele>
        <time>2022-02-21T15:54:57Z</time>
      </trkpt>
      <trkpt lat="49.3361" lon="-1.64413">
        <ele>21.5</ele>
        <time>2022-02-21T15:55:01Z</time>
      </trkpt>
      <trkpt lat="49.33604" lon="-1.64419">
        <ele>21.3</ele>
        <time>2022-02-21T15:55:08Z</time>
      </trkpt>
      <trkpt lat="49.33599" lon="-1.6442">
        <ele>20.6</ele>
        <time>2022-02-21T15:55:13Z</time>
      </trkpt>
      <trkpt lat="49.33594" lon="-1.64424">
        <ele>20</ele>
        <time>2022-02-21T15:55:16Z</time>
      </trkpt>
      <trkpt lat="49.3359" lon="-1.64427">
        <ele>19.2</ele>
        <time>2022-02-21T15:55:19Z</time>
      </trkpt>
      <trkpt lat="49.33585" lon="-1.64432">
        <ele>19.1</ele>
        <time>2022-02-21T15:55:24Z</time>
      </trkpt>
      <trkpt lat="49.3358" lon="-1.64436">
        <ele>19.1</ele>
        <time>2022-02-21T15:55:31Z</time>
      </trkpt>
      <trkpt lat="49.33576" lon="-1.64441">
        <ele>18.9</ele>
        <time>2022-02-21T15:55:35Z</time>
      </trkpt>
      <trkpt lat="49.33572" lon="-1.64448">
        <ele>18.9</ele>
        <time>2022-02-21T15:55:39Z</time>
      </trkpt>
      <trkpt lat="49.33567" lon="-1.64454">
        <ele>18.6</ele>
        <time>2022-02-21T15:55:42Z</time>
      </trkpt>
      <trkpt lat="49.33564" lon="-1.64461">
        <ele>18.4</ele>
        <time>2022-02-21T15:55:46Z</time>
      </trkpt>
      <trkpt lat="49.33561" lon="-1.64467">
        <ele>18.2</ele>
        <time>2022-02-21T15:55:50Z</time>
      </trkpt>
      <trkpt lat="49.33559" lon="-1.64473">
        <ele>18.5</ele>
        <time>2022-02-21T15:55:55Z</time>
      </trkpt>
      <trkpt lat="49.33557" lon="-1.6448">
        <ele>18.7</ele>
        <time>2022-02-21T15:55:59Z</time>
      </trkpt>
      <trkpt lat="49.33553" lon="-1.64484">
        <ele>18.9</ele>
        <time>2022-02-21T15:56:04Z</time>
      </trkpt>
      <trkpt lat="49.33548" lon="-1.64487">
        <ele>18.9</ele>
        <time>2022-02-21T15:56:06Z</time>
      </trkpt>
      <trkpt lat="49.33542" lon="-1.64488">
        <ele>19</ele>
        <time>2022-02-21T15:56:08Z</time>
      </trkpt>
      <trkpt lat="49.33538" lon="-1.64493">
        <ele>19</ele>
        <time>2022-02-21T15:56:11Z</time>
      </trkpt>
      <trkpt lat="49.33534" lon="-1.64497">
        <ele>18.9</ele>
        <time>2022-02-21T15:56:16Z</time>
      </trkpt>
      <trkpt lat="49.33529" lon="-1.64502">
        <ele>18.5</ele>
        <time>2022-02-21T15:56:28Z</time>
      </trkpt>
      <trkpt lat="49.33524" lon="-1.64501">
        <ele>18.9</ele>
        <time>2022-02-21T15:56:49Z</time>
      </trkpt>
      <trkpt lat="49.3352" lon="-1.64501">
        <ele>19.5</ele>
        <time>2022-02-21T15:56:56Z</time>
      </trkpt>
      <trkpt lat="49.33516" lon="-1.64505">
        <ele>19.7</ele>
        <time>2022-02-21T15:57:11Z</time>
      </trkpt>
      <trkpt lat="49.33512" lon="-1.64509">
        <ele>19.6</ele>
        <time>2022-02-21T15:57:14Z</time>
      </trkpt>
      <trkpt lat="49.33506" lon="-1.64512">
        <ele>19.6</ele>
        <time>2022-02-21T15:57:17Z</time>
      </trkpt>
      <trkpt lat="49.335" lon="-1.64514">
        <ele>19.5</ele>
        <time>2022-02-21T15:57:19Z</time>
      </trkpt>
      <trkpt lat="49.33487" lon="-1.64517">
        <ele>19.2</ele>
        <time>2022-02-21T15:57:25Z</time>
      </trkpt>
      <trkpt lat="49.33483" lon="-1.64518">
        <ele>19.2</ele>
        <time>2022-02-21T15:57:31Z</time>
      </trkpt>
      <trkpt lat="49.33477" lon="-1.64523">
        <ele>19.9</ele>
        <time>2022-02-21T15:57:38Z</time>
      </trkpt>
      <trkpt lat="49.33471" lon="-1.64526">
        <ele>21</ele>
        <time>2022-02-21T15:57:42Z</time>
      </trkpt>
      <trkpt lat="49.33468" lon="-1.64531">
        <ele>22.7</ele>
        <time>2022-02-21T15:57:48Z</time>
      </trkpt>
      <trkpt lat="49.33463" lon="-1.64536">
        <ele>22.6</ele>
        <time>2022-02-21T15:57:54Z</time>
      </trkpt>
      <trkpt lat="49.33458" lon="-1.64536">
        <ele>22.7</ele>
        <time>2022-02-21T15:58:09Z</time>
      </trkpt>
      <trkpt lat="49.33454" lon="-1.64539">
        <ele>22.5</ele>
        <time>2022-02-21T15:58:14Z</time>
      </trkpt>
      <trkpt lat="49.33449" lon="-1.64541">
        <ele>23.2</ele>
        <time>2022-02-21T15:58:22Z</time>
      </trkpt>
      <trkpt lat="49.33444" lon="-1.64544">
        <ele>23.3</ele>
        <time>2022-02-21T15:58:29Z</time>
      </trkpt>
      <trkpt lat="49.3344" lon="-1.64549">
        <ele>23.2</ele>
        <time>2022-02-21T15:58:36Z</time>
      </trkpt>
      <trkpt lat="49.33436" lon="-1.64554">
        <ele>23.6</ele>
        <time>2022-02-21T15:58:43Z</time>
      </trkpt>
      <trkpt lat="49.33432" lon="-1.64559">
        <ele>24.1</ele>
        <time>2022-02-21T15:58:50Z</time>
      </trkpt>
      <trkpt lat="49.33433" lon="-1.64567">
        <ele>24.5</ele>
        <time>2022-02-21T15:59:03Z</time>
      </trkpt>
      <trkpt lat="49.33429" lon="-1.64565">
        <ele>24.7</ele>
        <time>2022-02-21T15:59:24Z</time>
      </trkpt>
      <trkpt lat="49.33424" lon="-1.64563">
        <ele>25</ele>
        <time>2022-02-21T15:59:31Z</time>
      </trkpt>
      <trkpt lat="49.33419" lon="-1.64562">
        <ele>25.4</ele>
        <time>2022-02-21T15:59:38Z</time>
      </trkpt>
      <trkpt lat="49.33414" lon="-1.64561">
        <ele>26.1</ele>
        <time>2022-02-21T15:59:50Z</time>
      </trkpt>
      <trkpt lat="49.3341" lon="-1.64565">
        <ele>26.8</ele>
        <time>2022-02-21T16:00:02Z</time>
      </trkpt>
      <trkpt lat="49.33406" lon="-1.64569">
        <ele>26.9</ele>
        <time>2022-02-21T16:00:16Z</time>
      </trkpt>
      <trkpt lat="49.33402" lon="-1.64572">
        <ele>26.8</ele>
        <time>2022-02-21T16:00:24Z</time>
      </trkpt>
      <trkpt lat="49.33396" lon="-1.64577">
        <ele>26.4</ele>
        <time>2022-02-21T16:00:28Z</time>
      </trkpt>
      <trkpt lat="49.33392" lon="-1.6458">
        <ele>26.1</ele>
        <time>2022-02-21T16:00:31Z</time>
      </trkpt>
      <trkpt lat="49.33388" lon="-1.64584">
        <ele>25.3</ele>
        <time>2022-02-21T16:00:45Z</time>
      </trkpt>
      <trkpt lat="49.33381" lon="-1.64588">
        <ele>25</ele>
        <time>2022-02-21T16:00:51Z</time>
      </trkpt>
      <trkpt lat="49.33377" lon="-1.64591">
        <ele>24.9</ele>
        <time>2022-02-21T16:00:56Z</time>
      </trkpt>
      <trkpt lat="49.33376" lon="-1.64598">
        <ele>25.1</ele>
        <time>2022-02-21T16:01:01Z</time>
      </trkpt>
      <trkpt lat="49.33372" lon="-1.64602">
        <ele>24.7</ele>
        <time>2022-02-21T16:01:18Z</time>
      </trkpt>
      <trkpt lat="49.33368" lon="-1.64605">
        <ele>24</ele>
        <time>2022-02-21T16:01:28Z</time>
      </trkpt>
      <trkpt lat="49.33363" lon="-1.64606">
        <ele>23.8</ele>
        <time>2022-02-21T16:01:31Z</time>
      </trkpt>
      <trkpt lat="49.33358" lon="-1.64607">
        <ele>23.3</ele>
        <time>2022-02-21T16:01:35Z</time>
      </trkpt>
      <trkpt lat="49.33353" lon="-1.64608">
        <ele>23</ele>
        <time>2022-02-21T16:01:40Z</time>
      </trkpt>
      <trkpt lat="49.33348" lon="-1.64608">
        <ele>23</ele>
        <time>2022-02-21T16:01:45Z</time>
      </trkpt>
      <trkpt lat="49.33354" lon="-1.64605">
        <ele>22.4</ele>
        <time>2022-02-21T16:02:23Z</time>
      </trkpt>
      <trkpt lat="49.3335" lon="-1.64608">
        <ele>22.1</ele>
        <time>2022-02-21T16:02:52Z</time>
      </trkpt>
      <trkpt lat="49.33355" lon="-1.64606">
        <ele>21.7</ele>
        <time>2022-02-21T16:03:13Z</time>
      </trkpt>
      <trkpt lat="49.3336" lon="-1.64608">
        <ele>22.4</ele>
        <time>2022-02-21T16:03:19Z</time>
      </trkpt>
      <trkpt lat="49.33355" lon="-1.64607">
        <ele>23.7</ele>
        <time>2022-02-21T16:03:38Z</time>
      </trkpt>
      <trkpt lat="49.33351" lon="-1.64609">
        <ele>24.3</ele>
        <time>2022-02-21T16:03:50Z</time>
      </trkpt>
      <trkpt lat="49.33346" lon="-1.64611">
        <ele>24.2</ele>
        <time>2022-02-21T16:04:07Z</time>
      </trkpt>
      <trkpt lat="49.33344" lon="-1.64618">
        <ele>24.2</ele>
        <time>2022-02-21T16:04:20Z</time>
      </trkpt>
      <trkpt lat="49.33339" lon="-1.64622">
        <ele>24.2</ele>
        <time>2022-02-21T16:04:23Z</time>
      </trkpt>
      <trkpt lat="49.33334" lon="-1.64623">
        <ele>24.1</ele>
        <time>2022-02-21T16:04:27Z</time>
      </trkpt>
      <trkpt lat="49.33329" lon="-1.64625">
        <ele>23.4</ele>
        <time>2022-02-21T16:04:31Z</time>
      </trkpt>
      <trkpt lat="49.33323" lon="-1.64628">
        <ele>22.8</ele>
        <time>2022-02-21T16:04:36Z</time>
      </trkpt>
      <trkpt lat="49.33318" lon="-1.64631">
        <ele>22.4</ele>
        <time>2022-02-21T16:04:42Z</time>
      </trkpt>
      <trkpt lat="49.33313" lon="-1.64634">
        <ele>22.5</ele>
        <time>2022-02-21T16:04:46Z</time>
      </trkpt>
      <trkpt lat="49.33308" lon="-1.64635">
        <ele>22.7</ele>
        <time>2022-02-21T16:04:51Z</time>
      </trkpt>
      <trkpt lat="49.33302" lon="-1.64638">
        <ele>22.9</ele>
        <time>2022-02-21T16:04:56Z</time>
      </trkpt>
      <trkpt lat="49.33297" lon="-1.6464">
        <ele>22.6</ele>
        <time>2022-02-21T16:05:00Z</time>
      </trkpt>
      <trkpt lat="49.33292" lon="-1.6464">
        <ele>22.1</ele>
        <time>2022-02-21T16:05:06Z</time>
      </trkpt>
      <trkpt lat="49.33286" lon="-1.64643">
        <ele>21.9</ele>
        <time>2022-02-21T16:05:11Z</time>
      </trkpt>
      <trkpt lat="49.33281" lon="-1.64644">
        <ele>21.6</ele>
        <time>2022-02-21T16:05:16Z</time>
      </trkpt>
      <trkpt lat="49.33277" lon="-1.64649">
        <ele>21.2</ele>
        <time>2022-02-21T16:05:26Z</time>
      </trkpt>
      <trkpt lat="49.33271" lon="-1.64648">
        <ele>20.9</ele>
        <time>2022-02-21T16:05:29Z</time>
      </trkpt>
      <trkpt lat="49.33266" lon="-1.64648">
        <ele>21</ele>
        <time>2022-02-21T16:05:34Z</time>
      </trkpt>
      <trkpt lat="49.33261" lon="-1.64646">
        <ele>21.7</ele>
        <time>2022-02-21T16:05:38Z</time>
      </trkpt>
      <trkpt lat="49.33256" lon="-1.64645">
        <ele>21.9</ele>
        <time>2022-02-21T16:05:47Z</time>
      </trkpt>
      <trkpt lat="49.33251" lon="-1.64643">
        <ele>21.2</ele>
        <time>2022-02-21T16:05:55Z</time>
      </trkpt>
      <trkpt lat="49.33245" lon="-1.64645">
        <ele>20.8</ele>
        <time>2022-02-21T16:06:00Z</time>
      </trkpt>
      <trkpt lat="49.3324" lon="-1.64646">
        <ele>20.2</ele>
        <time>2022-02-21T16:06:04Z</time>
      </trkpt>
      <trkpt lat="49.33234" lon="-1.64644">
        <ele>19.5</ele>
        <time>2022-02-21T16:06:10Z</time>
      </trkpt>
      <trkpt lat="49.33229" lon="-1.64644">
        <ele>18.7</ele>
        <time>2022-02-21T16:06:15Z</time>
      </trkpt>
      <trkpt lat="49.33222" lon="-1.64644">
        <ele>18</ele>
        <time>2022-02-21T16:06:20Z</time>
      </trkpt>
      <trkpt lat="49.33218" lon="-1.64643">
        <ele>18</ele>
        <time>2022-02-21T16:06:24Z</time>
      </trkpt>
      <trkpt lat="49.33212" lon="-1.64644">
        <ele>19</ele>
        <time>2022-02-21T16:06:29Z</time>
      </trkpt>
      <trkpt lat="49.33207" lon="-1.64643">
        <ele>19.7</ele>
        <time>2022-02-21T16:06:32Z</time>
      </trkpt>
      <trkpt lat="49.33203" lon="-1.64642">
        <ele>20</ele>
        <time>2022-02-21T16:06:35Z</time>
      </trkpt>
      <trkpt lat="49.33198" lon="-1.64644">
        <ele>19.9</ele>
        <time>2022-02-21T16:06:41Z</time>
      </trkpt>
      <trkpt lat="49.33192" lon="-1.64646">
        <ele>19.5</ele>
        <time>2022-02-21T16:07:09Z</time>
      </trkpt>
      <trkpt lat="49.33188" lon="-1.64643">
        <ele>19.3</ele>
        <time>2022-02-21T16:07:12Z</time>
      </trkpt>
      <trkpt lat="49.33183" lon="-1.64642">
        <ele>19</ele>
        <time>2022-02-21T16:07:17Z</time>
      </trkpt>
      <trkpt lat="49.33178" lon="-1.6464">
        <ele>18.6</ele>
        <time>2022-02-21T16:07:20Z</time>
      </trkpt>
      <trkpt lat="49.33173" lon="-1.64636">
        <ele>18.3</ele>
        <time>2022-02-21T16:07:25Z</time>
      </trkpt>
      <trkpt lat="49.33169" lon="-1.64635">
        <ele>18.2</ele>
        <time>2022-02-21T16:07:33Z</time>
      </trkpt>
      <trkpt lat="49.33164" lon="-1.64634">
        <ele>18.2</ele>
        <time>2022-02-21T16:07:36Z</time>
      </trkpt>
      <trkpt lat="49.33158" lon="-1.64636">
        <ele>18</ele>
        <time>2022-02-21T16:07:41Z</time>
      </trkpt>
      <trkpt lat="49.33152" lon="-1.64638">
        <ele>18</ele>
        <time>2022-02-21T16:07:46Z</time>
      </trkpt>
      <trkpt lat="49.33147" lon="-1.64638">
        <ele>17.9</ele>
        <time>2022-02-21T16:07:50Z</time>
      </trkpt>
      <trkpt lat="49.33142" lon="-1.64637">
        <ele>18.1</ele>
        <time>2022-02-21T16:07:54Z</time>
      </trkpt>
      <trkpt lat="49.33137" lon="-1.64637">
        <ele>18.1</ele>
        <time>2022-02-21T16:07:59Z</time>
      </trkpt>
      <trkpt lat="49.33132" lon="-1.64638">
        <ele>18.2</ele>
        <time>2022-02-21T16:08:05Z</time>
      </trkpt>
      <trkpt lat="49.33127" lon="-1.64638">
        <ele>18.6</ele>
        <time>2022-02-21T16:08:10Z</time>
      </trkpt>
      <trkpt lat="49.33122" lon="-1.64638">
        <ele>20.1</ele>
        <time>2022-02-21T16:09:05Z</time>
      </trkpt>
      <trkpt lat="49.33117" lon="-1.64637">
        <ele>20.6</ele>
        <time>2022-02-21T16:09:20Z</time>
      </trkpt>
      <trkpt lat="49.33111" lon="-1.64638">
        <ele>20.7</ele>
        <time>2022-02-21T16:09:25Z</time>
      </trkpt>
      <trkpt lat="49.33106" lon="-1.6464">
        <ele>20.7</ele>
        <time>2022-02-21T16:09:30Z</time>
      </trkpt>
      <trkpt lat="49.33101" lon="-1.6464">
        <ele>20.7</ele>
        <time>2022-02-21T16:09:34Z</time>
      </trkpt>
      <trkpt lat="49.33095" lon="-1.6464">
        <ele>20.6</ele>
        <time>2022-02-21T16:09:37Z</time>
      </trkpt>
      <trkpt lat="49.33091" lon="-1.64645">
        <ele>20.5</ele>
        <time>2022-02-21T16:09:40Z</time>
      </trkpt>
      <trkpt lat="49.33086" lon="-1.64646">
        <ele>20.4</ele>
        <time>2022-02-21T16:09:44Z</time>
      </trkpt>
      <trkpt lat="49.33081" lon="-1.64647">
        <ele>20.4</ele>
        <time>2022-02-21T16:09:48Z</time>
      </trkpt>
      <trkpt lat="49.33075" lon="-1.64649">
        <ele>20.6</ele>
        <time>2022-02-21T16:09:52Z</time>
      </trkpt>
      <trkpt lat="49.33072" lon="-1.64653">
        <ele>21</ele>
        <time>2022-02-21T16:09:56Z</time>
      </trkpt>
      <trkpt lat="49.33069" lon="-1.64661">
        <ele>21.6</ele>
        <time>2022-02-21T16:10:01Z</time>
      </trkpt>
      <trkpt lat="49.33068" lon="-1.64669">
        <ele>21.9</ele>
        <time>2022-02-21T16:10:06Z</time>
      </trkpt>
      <trkpt lat="49.33065" lon="-1.64675">
        <ele>22.2</ele>
        <time>2022-02-21T16:10:18Z</time>
      </trkpt>
      <trkpt lat="49.33061" lon="-1.64681">
        <ele>22.4</ele>
        <time>2022-02-21T16:10:22Z</time>
      </trkpt>
      <trkpt lat="49.33054" lon="-1.64679">
        <ele>22.7</ele>
        <time>2022-02-21T16:10:27Z</time>
      </trkpt>
      <trkpt lat="49.33049" lon="-1.64677">
        <ele>22.8</ele>
        <time>2022-02-21T16:10:30Z</time>
      </trkpt>
      <trkpt lat="49.33044" lon="-1.64676">
        <ele>22.8</ele>
        <time>2022-02-21T16:10:34Z</time>
      </trkpt>
      <trkpt lat="49.33038" lon="-1.64677">
        <ele>22.9</ele>
        <time>2022-02-21T16:10:39Z</time>
      </trkpt>
      <trkpt lat="49.33033" lon="-1.64677">
        <ele>23</ele>
        <time>2022-02-21T16:10:43Z</time>
      </trkpt>
      <trkpt lat="49.33027" lon="-1.6468">
        <ele>23.1</ele>
        <time>2022-02-21T16:10:47Z</time>
      </trkpt>
      <trkpt lat="49.33022" lon="-1.64682">
        <ele>23.5</ele>
        <time>2022-02-21T16:10:51Z</time>
      </trkpt>
      <trkpt lat="49.33017" lon="-1.64683">
        <ele>23.6</ele>
        <time>2022-02-21T16:10:55Z</time>
      </trkpt>
      <trkpt lat="49.33012" lon="-1.64682">
        <ele>23.8</ele>
        <time>2022-02-21T16:10:59Z</time>
      </trkpt>
      <trkpt lat="49.33008" lon="-1.64685">
        <ele>24.2</ele>
        <time>2022-02-21T16:11:07Z</time>
      </trkpt>
      <trkpt lat="49.33003" lon="-1.64686">
        <ele>24.5</ele>
        <time>2022-02-21T16:11:11Z</time>
      </trkpt>
      <trkpt lat="49.32997" lon="-1.64687">
        <ele>24.7</ele>
        <time>2022-02-21T16:11:16Z</time>
      </trkpt>
      <trkpt lat="49.32992" lon="-1.64688">
        <ele>24.9</ele>
        <time>2022-02-21T16:11:19Z</time>
      </trkpt>
      <trkpt lat="49.32987" lon="-1.64688">
        <ele>25.1</ele>
        <time>2022-02-21T16:11:23Z</time>
      </trkpt>
      <trkpt lat="49.32981" lon="-1.64689">
        <ele>25.2</ele>
        <time>2022-02-21T16:11:28Z</time>
      </trkpt>
      <trkpt lat="49.32976" lon="-1.64688">
        <ele>25.8</ele>
        <time>2022-02-21T16:11:46Z</time>
      </trkpt>
      <trkpt lat="49.32971" lon="-1.64689">
        <ele>26.1</ele>
        <time>2022-02-21T16:11:49Z</time>
      </trkpt>
      <trkpt lat="49.32967" lon="-1.64689">
        <ele>26.4</ele>
        <time>2022-02-21T16:11:52Z</time>
      </trkpt>
      <trkpt lat="49.32961" lon="-1.6469">
        <ele>26.8</ele>
        <time>2022-02-21T16:11:55Z</time>
      </trkpt>
      <trkpt lat="49.32956" lon="-1.64691">
        <ele>27.2</ele>
        <time>2022-02-21T16:11:59Z</time>
      </trkpt>
      <trkpt lat="49.3295" lon="-1.64692">
        <ele>27.5</ele>
        <time>2022-02-21T16:12:03Z</time>
      </trkpt>
      <trkpt lat="49.32946" lon="-1.64693">
        <ele>27.8</ele>
        <time>2022-02-21T16:12:06Z</time>
      </trkpt>
      <trkpt lat="49.3294" lon="-1.64695">
        <ele>27.8</ele>
        <time>2022-02-21T16:12:10Z</time>
      </trkpt>
      <trkpt lat="49.32934" lon="-1.64698">
        <ele>27.7</ele>
        <time>2022-02-21T16:12:14Z</time>
      </trkpt>
      <trkpt lat="49.32929" lon="-1.64701">
        <ele>27.7</ele>
        <time>2022-02-21T16:12:19Z</time>
      </trkpt>
      <trkpt lat="49.32924" lon="-1.64702">
        <ele>28</ele>
        <time>2022-02-21T16:12:23Z</time>
      </trkpt>
      <trkpt lat="49.32918" lon="-1.64706">
        <ele>28.5</ele>
        <time>2022-02-21T16:12:27Z</time>
      </trkpt>
      <trkpt lat="49.32913" lon="-1.64709">
        <ele>28.7</ele>
        <time>2022-02-21T16:12:31Z</time>
      </trkpt>
      <trkpt lat="49.32909" lon="-1.64712">
        <ele>28.6</ele>
        <time>2022-02-21T16:12:35Z</time>
      </trkpt>
      <trkpt lat="49.32905" lon="-1.64715">
        <ele>28.7</ele>
        <time>2022-02-21T16:12:38Z</time>
      </trkpt>
      <trkpt lat="49.329" lon="-1.64717">
        <ele>28.6</ele>
        <time>2022-02-21T16:12:41Z</time>
      </trkpt>
      <trkpt lat="49.32895" lon="-1.64719">
        <ele>28.6</ele>
        <time>2022-02-21T16:12:45Z</time>
      </trkpt>
      <trkpt lat="49.3289" lon="-1.64721">
        <ele>29.2</ele>
        <time>2022-02-21T16:12:49Z</time>
      </trkpt>
      <trkpt lat="49.32885" lon="-1.64725">
        <ele>30</ele>
        <time>2022-02-21T16:12:53Z</time>
      </trkpt>
      <trkpt lat="49.3288" lon="-1.64727">
        <ele>30.1</ele>
        <time>2022-02-21T16:12:57Z</time>
      </trkpt>
      <trkpt lat="49.32876" lon="-1.64727">
        <ele>30.2</ele>
        <time>2022-02-21T16:13:00Z</time>
      </trkpt>
      <trkpt lat="49.3287" lon="-1.64729">
        <ele>31.2</ele>
        <time>2022-02-21T16:13:04Z</time>
      </trkpt>
      <trkpt lat="49.32865" lon="-1.64732">
        <ele>31.7</ele>
        <time>2022-02-21T16:13:08Z</time>
      </trkpt>
      <trkpt lat="49.3286" lon="-1.64735">
        <ele>31.5</ele>
        <time>2022-02-21T16:13:12Z</time>
      </trkpt>
      <trkpt lat="49.32854" lon="-1.64735">
        <ele>31.6</ele>
        <time>2022-02-21T16:13:17Z</time>
      </trkpt>
      <trkpt lat="49.32849" lon="-1.64738">
        <ele>31.5</ele>
        <time>2022-02-21T16:13:20Z</time>
      </trkpt>
      <trkpt lat="49.32846" lon="-1.64742">
        <ele>31.3</ele>
        <time>2022-02-21T16:13:24Z</time>
      </trkpt>
      <trkpt lat="49.32839" lon="-1.64744">
        <ele>30.9</ele>
        <time>2022-02-21T16:13:28Z</time>
      </trkpt>
      <trkpt lat="49.32835" lon="-1.64746">
        <ele>31.2</ele>
        <time>2022-02-21T16:13:32Z</time>
      </trkpt>
      <trkpt lat="49.3283" lon="-1.64745">
        <ele>31.8</ele>
        <time>2022-02-21T16:13:35Z</time>
      </trkpt>
      <trkpt lat="49.32825" lon="-1.64749">
        <ele>32.3</ele>
        <time>2022-02-21T16:13:40Z</time>
      </trkpt>
      <trkpt lat="49.3282" lon="-1.6475">
        <ele>32.3</ele>
        <time>2022-02-21T16:13:43Z</time>
      </trkpt>
      <trkpt lat="49.32815" lon="-1.64746">
        <ele>32.3</ele>
        <time>2022-02-21T16:13:47Z</time>
      </trkpt>
      <trkpt lat="49.3281" lon="-1.64742">
        <ele>32.2</ele>
        <time>2022-02-21T16:13:52Z</time>
      </trkpt>
      <trkpt lat="49.32806" lon="-1.64741">
        <ele>32.3</ele>
        <time>2022-02-21T16:13:55Z</time>
      </trkpt>
      <trkpt lat="49.32801" lon="-1.64743">
        <ele>32.2</ele>
        <time>2022-02-21T16:13:58Z</time>
      </trkpt>
      <trkpt lat="49.32796" lon="-1.64747">
        <ele>32.1</ele>
        <time>2022-02-21T16:14:02Z</time>
      </trkpt>
      <trkpt lat="49.32791" lon="-1.64748">
        <ele>32.1</ele>
        <time>2022-02-21T16:14:05Z</time>
      </trkpt>
      <trkpt lat="49.32786" lon="-1.64749">
        <ele>32.4</ele>
        <time>2022-02-21T16:14:09Z</time>
      </trkpt>
      <trkpt lat="49.32781" lon="-1.64748">
        <ele>32.8</ele>
        <time>2022-02-21T16:14:12Z</time>
      </trkpt>
      <trkpt lat="49.32775" lon="-1.64749">
        <ele>33.3</ele>
        <time>2022-02-21T16:14:16Z</time>
      </trkpt>
      <trkpt lat="49.32771" lon="-1.64748">
        <ele>33.4</ele>
        <time>2022-02-21T16:14:20Z</time>
      </trkpt>
      <trkpt lat="49.32766" lon="-1.64748">
        <ele>33.2</ele>
        <time>2022-02-21T16:14:24Z</time>
      </trkpt>
      <trkpt lat="49.3276" lon="-1.64751">
        <ele>32.8</ele>
        <time>2022-02-21T16:14:29Z</time>
      </trkpt>
      <trkpt lat="49.32756" lon="-1.64752">
        <ele>32.3</ele>
        <time>2022-02-21T16:14:33Z</time>
      </trkpt>
      <trkpt lat="49.3275" lon="-1.64754">
        <ele>32.1</ele>
        <time>2022-02-21T16:14:38Z</time>
      </trkpt>
      <trkpt lat="49.32745" lon="-1.64755">
        <ele>32.4</ele>
        <time>2022-02-21T16:14:42Z</time>
      </trkpt>
      <trkpt lat="49.3274" lon="-1.64757">
        <ele>32.5</ele>
        <time>2022-02-21T16:14:46Z</time>
      </trkpt>
      <trkpt lat="49.32736" lon="-1.6476">
        <ele>32.2</ele>
        <time>2022-02-21T16:14:50Z</time>
      </trkpt>
      <trkpt lat="49.32731" lon="-1.64762">
        <ele>31.7</ele>
        <time>2022-02-21T16:14:54Z</time>
      </trkpt>
      <trkpt lat="49.32727" lon="-1.64765">
        <ele>31.7</ele>
        <time>2022-02-21T16:14:58Z</time>
      </trkpt>
      <trkpt lat="49.32721" lon="-1.64767">
        <ele>31.7</ele>
        <time>2022-02-21T16:15:02Z</time>
      </trkpt>
      <trkpt lat="49.32716" lon="-1.6477">
        <ele>31.8</ele>
        <time>2022-02-21T16:15:06Z</time>
      </trkpt>
      <trkpt lat="49.32711" lon="-1.64772">
        <ele>32.2</ele>
        <time>2022-02-21T16:15:09Z</time>
      </trkpt>
      <trkpt lat="49.32707" lon="-1.64774">
        <ele>32.6</ele>
        <time>2022-02-21T16:15:13Z</time>
      </trkpt>
      <trkpt lat="49.32702" lon="-1.64772">
        <ele>33</ele>
        <time>2022-02-21T16:15:16Z</time>
      </trkpt>
      <trkpt lat="49.32696" lon="-1.64775">
        <ele>33</ele>
        <time>2022-02-21T16:15:20Z</time>
      </trkpt>
      <trkpt lat="49.3269" lon="-1.64779">
        <ele>33.1</ele>
        <time>2022-02-21T16:15:24Z</time>
      </trkpt>
      <trkpt lat="49.32686" lon="-1.64782">
        <ele>32.9</ele>
        <time>2022-02-21T16:15:27Z</time>
      </trkpt>
      <trkpt lat="49.32681" lon="-1.64785">
        <ele>32.4</ele>
        <time>2022-02-21T16:15:31Z</time>
      </trkpt>
      <trkpt lat="49.32676" lon="-1.6479">
        <ele>31.9</ele>
        <time>2022-02-21T16:15:36Z</time>
      </trkpt>
      <trkpt lat="49.32671" lon="-1.64794">
        <ele>31.5</ele>
        <time>2022-02-21T16:15:40Z</time>
      </trkpt>
      <trkpt lat="49.32664" lon="-1.64795">
        <ele>31.1</ele>
        <time>2022-02-21T16:15:45Z</time>
      </trkpt>
      <trkpt lat="49.32658" lon="-1.64796">
        <ele>31</ele>
        <time>2022-02-21T16:15:49Z</time>
      </trkpt>
      <trkpt lat="49.32652" lon="-1.64798">
        <ele>31.8</ele>
        <time>2022-02-21T16:15:54Z</time>
      </trkpt>
      <trkpt lat="49.32647" lon="-1.64797">
        <ele>32.3</ele>
        <time>2022-02-21T16:15:58Z</time>
      </trkpt>
      <trkpt lat="49.32642" lon="-1.64802">
        <ele>32.5</ele>
        <time>2022-02-21T16:16:02Z</time>
      </trkpt>
      <trkpt lat="49.32637" lon="-1.64807">
        <ele>32.5</ele>
        <time>2022-02-21T16:16:07Z</time>
      </trkpt>
      <trkpt lat="49.32633" lon="-1.64811">
        <ele>32.1</ele>
        <time>2022-02-21T16:16:12Z</time>
      </trkpt>
      <trkpt lat="49.32628" lon="-1.64815">
        <ele>31.4</ele>
        <time>2022-02-21T16:16:16Z</time>
      </trkpt>
      <trkpt lat="49.32623" lon="-1.64817">
        <ele>30.7</ele>
        <time>2022-02-21T16:16:20Z</time>
      </trkpt>
      <trkpt lat="49.32617" lon="-1.64818">
        <ele>30.1</ele>
        <time>2022-02-21T16:16:23Z</time>
      </trkpt>
      <trkpt lat="49.32613" lon="-1.6482">
        <ele>29.9</ele>
        <time>2022-02-21T16:16:26Z</time>
      </trkpt>
      <trkpt lat="49.32608" lon="-1.64823">
        <ele>30</ele>
        <time>2022-02-21T16:16:30Z</time>
      </trkpt>
      <trkpt lat="49.32603" lon="-1.64826">
        <ele>30.4</ele>
        <time>2022-02-21T16:16:44Z</time>
      </trkpt>
      <trkpt lat="49.32597" lon="-1.64827">
        <ele>30.3</ele>
        <time>2022-02-21T16:16:48Z</time>
      </trkpt>
      <trkpt lat="49.32593" lon="-1.64831">
        <ele>30.1</ele>
        <time>2022-02-21T16:16:51Z</time>
      </trkpt>
      <trkpt lat="49.32589" lon="-1.64835">
        <ele>29.9</ele>
        <time>2022-02-21T16:16:56Z</time>
      </trkpt>
      <trkpt lat="49.32596" lon="-1.64834">
        <ele>29.9</ele>
        <time>2022-02-21T16:17:13Z</time>
      </trkpt>
      <trkpt lat="49.32601" lon="-1.6483">
        <ele>29.7</ele>
        <time>2022-02-21T16:17:17Z</time>
      </trkpt>
      <trkpt lat="49.32606" lon="-1.64826">
        <ele>29.5</ele>
        <time>2022-02-21T16:17:20Z</time>
      </trkpt>
      <trkpt lat="49.32611" lon="-1.64822">
        <ele>29.5</ele>
        <time>2022-02-21T16:17:23Z</time>
      </trkpt>
      <trkpt lat="49.32617" lon="-1.64819">
        <ele>29.8</ele>
        <time>2022-02-21T16:17:29Z</time>
      </trkpt>
      <trkpt lat="49.32623" lon="-1.64816">
        <ele>29.8</ele>
        <time>2022-02-21T16:17:34Z</time>
      </trkpt>
      <trkpt lat="49.32628" lon="-1.64811">
        <ele>29.7</ele>
        <time>2022-02-21T16:17:38Z</time>
      </trkpt>
      <trkpt lat="49.32633" lon="-1.64811">
        <ele>29.9</ele>
        <time>2022-02-21T16:17:43Z</time>
      </trkpt>
      <trkpt lat="49.32637" lon="-1.64806">
        <ele>29.9</ele>
        <time>2022-02-21T16:17:46Z</time>
      </trkpt>
      <trkpt lat="49.32641" lon="-1.64804">
        <ele>29.7</ele>
        <time>2022-02-21T16:17:49Z</time>
      </trkpt>
      <trkpt lat="49.32646" lon="-1.64799">
        <ele>29.4</ele>
        <time>2022-02-21T16:17:54Z</time>
      </trkpt>
      <trkpt lat="49.32651" lon="-1.64797">
        <ele>29.4</ele>
        <time>2022-02-21T16:17:58Z</time>
      </trkpt>
      <trkpt lat="49.32657" lon="-1.64795">
        <ele>29.8</ele>
        <time>2022-02-21T16:18:03Z</time>
      </trkpt>
      <trkpt lat="49.32661" lon="-1.64792">
        <ele>29.8</ele>
        <time>2022-02-21T16:18:08Z</time>
      </trkpt>
      <trkpt lat="49.32667" lon="-1.64792">
        <ele>30</ele>
        <time>2022-02-21T16:18:34Z</time>
      </trkpt>
      <trkpt lat="49.32673" lon="-1.6479">
        <ele>30.1</ele>
        <time>2022-02-21T16:18:39Z</time>
      </trkpt>
      <trkpt lat="49.32677" lon="-1.64785">
        <ele>30.2</ele>
        <time>2022-02-21T16:18:43Z</time>
      </trkpt>
      <trkpt lat="49.32683" lon="-1.64784">
        <ele>30</ele>
        <time>2022-02-21T16:18:48Z</time>
      </trkpt>
      <trkpt lat="49.32688" lon="-1.6478">
        <ele>30</ele>
        <time>2022-02-21T16:18:53Z</time>
      </trkpt>
      <trkpt lat="49.32692" lon="-1.64775">
        <ele>30.1</ele>
        <time>2022-02-21T16:18:57Z</time>
      </trkpt>
      <trkpt lat="49.32697" lon="-1.64771">
        <ele>30.5</ele>
        <time>2022-02-21T16:19:01Z</time>
      </trkpt>
      <trkpt lat="49.32702" lon="-1.64771">
        <ele>30.7</ele>
        <time>2022-02-21T16:19:04Z</time>
      </trkpt>
      <trkpt lat="49.32708" lon="-1.6477">
        <ele>30.8</ele>
        <time>2022-02-21T16:19:10Z</time>
      </trkpt>
      <trkpt lat="49.32713" lon="-1.64767">
        <ele>31.2</ele>
        <time>2022-02-21T16:19:14Z</time>
      </trkpt>
      <trkpt lat="49.32718" lon="-1.64766">
        <ele>31.8</ele>
        <time>2022-02-21T16:19:19Z</time>
      </trkpt>
      <trkpt lat="49.32723" lon="-1.64763">
        <ele>32.2</ele>
        <time>2022-02-21T16:19:22Z</time>
      </trkpt>
      <trkpt lat="49.32727" lon="-1.6476">
        <ele>32.4</ele>
        <time>2022-02-21T16:19:25Z</time>
      </trkpt>
      <trkpt lat="49.32732" lon="-1.64759">
        <ele>32.5</ele>
        <time>2022-02-21T16:19:29Z</time>
      </trkpt>
      <trkpt lat="49.32738" lon="-1.64757">
        <ele>32.6</ele>
        <time>2022-02-21T16:19:33Z</time>
      </trkpt>
      <trkpt lat="49.32744" lon="-1.64756">
        <ele>32.7</ele>
        <time>2022-02-21T16:19:37Z</time>
      </trkpt>
      <trkpt lat="49.32749" lon="-1.64754">
        <ele>32.7</ele>
        <time>2022-02-21T16:19:40Z</time>
      </trkpt>
      <trkpt lat="49.32754" lon="-1.64753">
        <ele>32.7</ele>
        <time>2022-02-21T16:19:44Z</time>
      </trkpt>
      <trkpt lat="49.32758" lon="-1.64748">
        <ele>32.8</ele>
        <time>2022-02-21T16:19:49Z</time>
      </trkpt>
      <trkpt lat="49.32764" lon="-1.64749">
        <ele>33</ele>
        <time>2022-02-21T16:19:53Z</time>
      </trkpt>
      <trkpt lat="49.32769" lon="-1.64748">
        <ele>33.1</ele>
        <time>2022-02-21T16:19:56Z</time>
      </trkpt>
      <trkpt lat="49.32773" lon="-1.64748">
        <ele>33.2</ele>
        <time>2022-02-21T16:19:59Z</time>
      </trkpt>
      <trkpt lat="49.32779" lon="-1.6475">
        <ele>33.2</ele>
        <time>2022-02-21T16:20:03Z</time>
      </trkpt>
      <trkpt lat="49.32782" lon="-1.64758">
        <ele>33</ele>
        <time>2022-02-21T16:20:08Z</time>
      </trkpt>
      <trkpt lat="49.32786" lon="-1.64765">
        <ele>32.9</ele>
        <time>2022-02-21T16:20:12Z</time>
      </trkpt>
      <trkpt lat="49.32788" lon="-1.64774">
        <ele>32.9</ele>
        <time>2022-02-21T16:20:18Z</time>
      </trkpt>
      <trkpt lat="49.32788" lon="-1.64783">
        <ele>33.5</ele>
        <time>2022-02-21T16:20:50Z</time>
      </trkpt>
      <trkpt lat="49.32791" lon="-1.6479">
        <ele>33.6</ele>
        <time>2022-02-21T16:20:53Z</time>
      </trkpt>
      <trkpt lat="49.32793" lon="-1.64798">
        <ele>33.8</ele>
        <time>2022-02-21T16:20:58Z</time>
      </trkpt>
      <trkpt lat="49.32795" lon="-1.64806">
        <ele>34</ele>
        <time>2022-02-21T16:21:04Z</time>
      </trkpt>
      <trkpt lat="49.32797" lon="-1.64814">
        <ele>34.4</ele>
        <time>2022-02-21T16:21:09Z</time>
      </trkpt>
      <trkpt lat="49.32798" lon="-1.64823">
        <ele>34.8</ele>
        <time>2022-02-21T16:21:13Z</time>
      </trkpt>
      <trkpt lat="49.328" lon="-1.6483">
        <ele>34.9</ele>
        <time>2022-02-21T16:21:19Z</time>
      </trkpt>
      <trkpt lat="49.32802" lon="-1.64836">
        <ele>35.3</ele>
        <time>2022-02-21T16:21:57Z</time>
      </trkpt>
      <trkpt lat="49.32805" lon="-1.64843">
        <ele>35</ele>
        <time>2022-02-21T16:22:02Z</time>
      </trkpt>
      <trkpt lat="49.32807" lon="-1.6485">
        <ele>34.7</ele>
        <time>2022-02-21T16:22:07Z</time>
      </trkpt>
      <trkpt lat="49.32808" lon="-1.64858">
        <ele>34.5</ele>
        <time>2022-02-21T16:22:10Z</time>
      </trkpt>
      <trkpt lat="49.3281" lon="-1.64866">
        <ele>34.4</ele>
        <time>2022-02-21T16:22:14Z</time>
      </trkpt>
      <trkpt lat="49.32812" lon="-1.64874">
        <ele>35.1</ele>
        <time>2022-02-21T16:22:19Z</time>
      </trkpt>
      <trkpt lat="49.32813" lon="-1.64881">
        <ele>35.5</ele>
        <time>2022-02-21T16:22:22Z</time>
      </trkpt>
      <trkpt lat="49.32813" lon="-1.64889">
        <ele>35.4</ele>
        <time>2022-02-21T16:22:26Z</time>
      </trkpt>
      <trkpt lat="49.32816" lon="-1.64895">
        <ele>34.7</ele>
        <time>2022-02-21T16:22:31Z</time>
      </trkpt>
      <trkpt lat="49.32818" lon="-1.64904">
        <ele>34.6</ele>
        <time>2022-02-21T16:22:38Z</time>
      </trkpt>
      <trkpt lat="49.32818" lon="-1.64911">
        <ele>34.5</ele>
        <time>2022-02-21T16:22:41Z</time>
      </trkpt>
      <trkpt lat="49.3282" lon="-1.64918">
        <ele>34.4</ele>
        <time>2022-02-21T16:22:44Z</time>
      </trkpt>
      <trkpt lat="49.32822" lon="-1.64926">
        <ele>34.3</ele>
        <time>2022-02-21T16:22:48Z</time>
      </trkpt>
      <trkpt lat="49.32824" lon="-1.64934">
        <ele>34.2</ele>
        <time>2022-02-21T16:22:52Z</time>
      </trkpt>
      <trkpt lat="49.32824" lon="-1.64942">
        <ele>34.1</ele>
        <time>2022-02-21T16:22:56Z</time>
      </trkpt>
      <trkpt lat="49.32826" lon="-1.64951">
        <ele>34.6</ele>
        <time>2022-02-21T16:23:00Z</time>
      </trkpt>
      <trkpt lat="49.32828" lon="-1.64958">
        <ele>35.1</ele>
        <time>2022-02-21T16:23:04Z</time>
      </trkpt>
      <trkpt lat="49.32831" lon="-1.64966">
        <ele>35</ele>
        <time>2022-02-21T16:23:09Z</time>
      </trkpt>
      <trkpt lat="49.32833" lon="-1.64974">
        <ele>34.9</ele>
        <time>2022-02-21T16:23:13Z</time>
      </trkpt>
      <trkpt lat="49.32835" lon="-1.64981">
        <ele>34.8</ele>
        <time>2022-02-21T16:23:17Z</time>
      </trkpt>
      <trkpt lat="49.32836" lon="-1.64988">
        <ele>34.2</ele>
        <time>2022-02-21T16:23:21Z</time>
      </trkpt>
      <trkpt lat="49.32839" lon="-1.64995">
        <ele>33.5</ele>
        <time>2022-02-21T16:23:25Z</time>
      </trkpt>
      <trkpt lat="49.32841" lon="-1.65004">
        <ele>33.3</ele>
        <time>2022-02-21T16:23:30Z</time>
      </trkpt>
      <trkpt lat="49.32842" lon="-1.65011">
        <ele>33.1</ele>
        <time>2022-02-21T16:23:34Z</time>
      </trkpt>
      <trkpt lat="49.32845" lon="-1.65019">
        <ele>32.8</ele>
        <time>2022-02-21T16:23:39Z</time>
      </trkpt>
      <trkpt lat="49.32847" lon="-1.65027">
        <ele>32.7</ele>
        <time>2022-02-21T16:23:44Z</time>
      </trkpt>
      <trkpt lat="49.32849" lon="-1.65034">
        <ele>32.4</ele>
        <time>2022-02-21T16:23:48Z</time>
      </trkpt>
      <trkpt lat="49.32851" lon="-1.65042">
        <ele>32.3</ele>
        <time>2022-02-21T16:23:52Z</time>
      </trkpt>
      <trkpt lat="49.32852" lon="-1.65048">
        <ele>32.2</ele>
        <time>2022-02-21T16:23:56Z</time>
      </trkpt>
      <trkpt lat="49.32855" lon="-1.65055">
        <ele>32.1</ele>
        <time>2022-02-21T16:24:00Z</time>
      </trkpt>
      <trkpt lat="49.32857" lon="-1.65063">
        <ele>32.1</ele>
        <time>2022-02-21T16:24:05Z</time>
      </trkpt>
      <trkpt lat="49.32858" lon="-1.65071">
        <ele>32.3</ele>
        <time>2022-02-21T16:24:10Z</time>
      </trkpt>
      <trkpt lat="49.32859" lon="-1.65079">
        <ele>32.3</ele>
        <time>2022-02-21T16:24:14Z</time>
      </trkpt>
      <trkpt lat="49.32861" lon="-1.65086">
        <ele>32.2</ele>
        <time>2022-02-21T16:24:18Z</time>
      </trkpt>
      <trkpt lat="49.32863" lon="-1.65093">
        <ele>32.3</ele>
        <time>2022-02-21T16:24:27Z</time>
      </trkpt>
      <trkpt lat="49.32862" lon="-1.651">
        <ele>31.8</ele>
        <time>2022-02-21T16:24:36Z</time>
      </trkpt>
      <trkpt lat="49.3286" lon="-1.65093">
        <ele>31.8</ele>
        <time>2022-02-21T16:24:46Z</time>
      </trkpt>
      <trkpt lat="49.3286" lon="-1.65101">
        <ele>28.4</ele>
        <time>2022-02-21T16:24:59Z</time>
      </trkpt>
      <trkpt lat="49.32864" lon="-1.65123">
        <ele>25.5</ele>
        <time>2022-02-21T16:25:05Z</time>
      </trkpt>
      <trkpt lat="49.32865" lon="-1.65132">
        <ele>26.4</ele>
        <time>2022-02-21T16:25:09Z</time>
      </trkpt>
      <trkpt lat="49.32867" lon="-1.65139">
        <ele>27.7</ele>
        <time>2022-02-21T16:25:13Z</time>
      </trkpt>
      <trkpt lat="49.32868" lon="-1.65149">
        <ele>28.5</ele>
        <time>2022-02-21T16:25:17Z</time>
      </trkpt>
      <trkpt lat="49.32866" lon="-1.65155">
        <ele>28.8</ele>
        <time>2022-02-21T16:25:26Z</time>
      </trkpt>
      <trkpt lat="49.32867" lon="-1.65163">
        <ele>29</ele>
        <time>2022-02-21T16:25:29Z</time>
      </trkpt>
      <trkpt lat="49.32869" lon="-1.65171">
        <ele>29</ele>
        <time>2022-02-21T16:25:32Z</time>
      </trkpt>
      <trkpt lat="49.32873" lon="-1.65175">
        <ele>29</ele>
        <time>2022-02-21T16:25:35Z</time>
      </trkpt>
      <trkpt lat="49.32876" lon="-1.65181">
        <ele>28.7</ele>
        <time>2022-02-21T16:25:39Z</time>
      </trkpt>
      <trkpt lat="49.32878" lon="-1.65188">
        <ele>28.4</ele>
        <time>2022-02-21T16:25:46Z</time>
      </trkpt>
      <trkpt lat="49.32874" lon="-1.65194">
        <ele>28.5</ele>
        <time>2022-02-21T16:25:50Z</time>
      </trkpt>
      <trkpt lat="49.32874" lon="-1.65201">
        <ele>28.6</ele>
        <time>2022-02-21T16:26:02Z</time>
      </trkpt>
      <trkpt lat="49.32869" lon="-1.65206">
        <ele>28.1</ele>
        <time>2022-02-21T16:26:06Z</time>
      </trkpt>
      <trkpt lat="49.32866" lon="-1.65213">
        <ele>28</ele>
        <time>2022-02-21T16:26:10Z</time>
      </trkpt>
      <trkpt lat="49.32865" lon="-1.65222">
        <ele>28.2</ele>
        <time>2022-02-21T16:26:17Z</time>
      </trkpt>
      <trkpt lat="49.32872" lon="-1.65231">
        <ele>28.1</ele>
        <time>2022-02-21T16:26:20Z</time>
      </trkpt>
      <trkpt lat="49.32876" lon="-1.65237">
        <ele>28</ele>
        <time>2022-02-21T16:26:22Z</time>
      </trkpt>
      <trkpt lat="49.32879" lon="-1.65243">
        <ele>27.9</ele>
        <time>2022-02-21T16:26:25Z</time>
      </trkpt>
      <trkpt lat="49.32883" lon="-1.65248">
        <ele>28</ele>
        <time>2022-02-21T16:26:29Z</time>
      </trkpt>
      <trkpt lat="49.32887" lon="-1.65251">
        <ele>27.9</ele>
        <time>2022-02-21T16:26:33Z</time>
      </trkpt>
      <trkpt lat="49.32888" lon="-1.65259">
        <ele>28.2</ele>
        <time>2022-02-21T16:26:37Z</time>
      </trkpt>
      <trkpt lat="49.3289" lon="-1.65268">
        <ele>28.3</ele>
        <time>2022-02-21T16:27:03Z</time>
      </trkpt>
      <trkpt lat="49.32891" lon="-1.65275">
        <ele>28.5</ele>
        <time>2022-02-21T16:27:06Z</time>
      </trkpt>
      <trkpt lat="49.3289" lon="-1.65286">
        <ele>29.5</ele>
        <time>2022-02-21T16:27:23Z</time>
      </trkpt>
      <trkpt lat="49.32888" lon="-1.65294">
        <ele>29.6</ele>
        <time>2022-02-21T16:27:26Z</time>
      </trkpt>
      <trkpt lat="49.32885" lon="-1.65302">
        <ele>30</ele>
        <time>2022-02-21T16:27:32Z</time>
      </trkpt>
      <trkpt lat="49.32881" lon="-1.65309">
        <ele>30.1</ele>
        <time>2022-02-21T16:27:36Z</time>
      </trkpt>
      <trkpt lat="49.32878" lon="-1.65315">
        <ele>30</ele>
        <time>2022-02-21T16:27:40Z</time>
      </trkpt>
      <trkpt lat="49.32875" lon="-1.65321">
        <ele>29.4</ele>
        <time>2022-02-21T16:27:43Z</time>
      </trkpt>
      <trkpt lat="49.32873" lon="-1.65328">
        <ele>29.1</ele>
        <time>2022-02-21T16:27:49Z</time>
      </trkpt>
      <trkpt lat="49.32874" lon="-1.65334">
        <ele>29.6</ele>
        <time>2022-02-21T16:27:54Z</time>
      </trkpt>
      <trkpt lat="49.32877" lon="-1.65342">
        <ele>30</ele>
        <time>2022-02-21T16:27:59Z</time>
      </trkpt>
      <trkpt lat="49.3288" lon="-1.65347">
        <ele>30</ele>
        <time>2022-02-21T16:28:04Z</time>
      </trkpt>
      <trkpt lat="49.32885" lon="-1.6535">
        <ele>29.8</ele>
        <time>2022-02-21T16:28:08Z</time>
      </trkpt>
      <trkpt lat="49.32888" lon="-1.65355">
        <ele>29.3</ele>
        <time>2022-02-21T16:28:13Z</time>
      </trkpt>
      <trkpt lat="49.32891" lon="-1.65361">
        <ele>28.9</ele>
        <time>2022-02-21T16:28:17Z</time>
      </trkpt>
      <trkpt lat="49.32894" lon="-1.65367">
        <ele>28.6</ele>
        <time>2022-02-21T16:28:21Z</time>
      </trkpt>
      <trkpt lat="49.32897" lon="-1.65372">
        <ele>28.6</ele>
        <time>2022-02-21T16:28:27Z</time>
      </trkpt>
      <trkpt lat="49.329" lon="-1.65379">
        <ele>29.6</ele>
        <time>2022-02-21T16:28:33Z</time>
      </trkpt>
      <trkpt lat="49.32903" lon="-1.65384">
        <ele>30.3</ele>
        <time>2022-02-21T16:28:38Z</time>
      </trkpt>
      <trkpt lat="49.32905" lon="-1.65391">
        <ele>30.6</ele>
        <time>2022-02-21T16:28:44Z</time>
      </trkpt>
      <trkpt lat="49.32909" lon="-1.65395">
        <ele>30.4</ele>
        <time>2022-02-21T16:28:49Z</time>
      </trkpt>
      <trkpt lat="49.32913" lon="-1.654">
        <ele>29.8</ele>
        <time>2022-02-21T16:28:54Z</time>
      </trkpt>
      <trkpt lat="49.32914" lon="-1.65407">
        <ele>29.3</ele>
        <time>2022-02-21T16:28:58Z</time>
      </trkpt>
      <trkpt lat="49.32917" lon="-1.65413">
        <ele>28.6</ele>
        <time>2022-02-21T16:29:24Z</time>
      </trkpt>
      <trkpt lat="49.32923" lon="-1.65418">
        <ele>26.1</ele>
        <time>2022-02-21T16:29:40Z</time>
      </trkpt>
      <trkpt lat="49.32926" lon="-1.65423">
        <ele>26.1</ele>
        <time>2022-02-21T16:29:43Z</time>
      </trkpt>
      <trkpt lat="49.32929" lon="-1.65429">
        <ele>26.4</ele>
        <time>2022-02-21T16:29:58Z</time>
      </trkpt>
      <trkpt lat="49.32931" lon="-1.65436">
        <ele>27.2</ele>
        <time>2022-02-21T16:30:05Z</time>
      </trkpt>
      <trkpt lat="49.32934" lon="-1.65443">
        <ele>27.7</ele>
        <time>2022-02-21T16:30:09Z</time>
      </trkpt>
      <trkpt lat="49.32939" lon="-1.65447">
        <ele>27.7</ele>
        <time>2022-02-21T16:30:17Z</time>
      </trkpt>
      <trkpt lat="49.32941" lon="-1.65453">
        <ele>27.6</ele>
        <time>2022-02-21T16:30:21Z</time>
      </trkpt>
      <trkpt lat="49.32944" lon="-1.6546">
        <ele>27.5</ele>
        <time>2022-02-21T16:30:26Z</time>
      </trkpt>
      <trkpt lat="49.32948" lon="-1.65466">
        <ele>27.6</ele>
        <time>2022-02-21T16:30:30Z</time>
      </trkpt>
      <trkpt lat="49.32951" lon="-1.65473">
        <ele>27.8</ele>
        <time>2022-02-21T16:30:36Z</time>
      </trkpt>
      <trkpt lat="49.32954" lon="-1.65478">
        <ele>28.2</ele>
        <time>2022-02-21T16:30:41Z</time>
      </trkpt>
      <trkpt lat="49.32958" lon="-1.65483">
        <ele>28.4</ele>
        <time>2022-02-21T16:30:46Z</time>
      </trkpt>
      <trkpt lat="49.32962" lon="-1.65488">
        <ele>27.8</ele>
        <time>2022-02-21T16:30:50Z</time>
      </trkpt>
      <trkpt lat="49.32965" lon="-1.65493">
        <ele>27.1</ele>
        <time>2022-02-21T16:30:54Z</time>
      </trkpt>
      <trkpt lat="49.32968" lon="-1.655">
        <ele>26.9</ele>
        <time>2022-02-21T16:30:59Z</time>
      </trkpt>
      <trkpt lat="49.32971" lon="-1.65507">
        <ele>26.9</ele>
        <time>2022-02-21T16:31:03Z</time>
      </trkpt>
      <trkpt lat="49.32974" lon="-1.65514">
        <ele>26.8</ele>
        <time>2022-02-21T16:31:08Z</time>
      </trkpt>
      <trkpt lat="49.32978" lon="-1.65517">
        <ele>26.7</ele>
        <time>2022-02-21T16:31:16Z</time>
      </trkpt>
      <trkpt lat="49.32981" lon="-1.65522">
        <ele>26.7</ele>
        <time>2022-02-21T16:31:30Z</time>
      </trkpt>
      <trkpt lat="49.32985" lon="-1.65527">
        <ele>26.4</ele>
        <time>2022-02-21T16:31:40Z</time>
      </trkpt>
      <trkpt lat="49.32988" lon="-1.65536">
        <ele>26.2</ele>
        <time>2022-02-21T16:31:44Z</time>
      </trkpt>
      <trkpt lat="49.32992" lon="-1.65543">
        <ele>25.4</ele>
        <time>2022-02-21T16:31:50Z</time>
      </trkpt>
      <trkpt lat="49.32996" lon="-1.65549">
        <ele>25.2</ele>
        <time>2022-02-21T16:31:54Z</time>
      </trkpt>
      <trkpt lat="49.32999" lon="-1.65553">
        <ele>25.3</ele>
        <time>2022-02-21T16:31:57Z</time>
      </trkpt>
      <trkpt lat="49.33002" lon="-1.6556">
        <ele>25.3</ele>
        <time>2022-02-21T16:32:01Z</time>
      </trkpt>
      <trkpt lat="49.33004" lon="-1.65566">
        <ele>25.1</ele>
        <time>2022-02-21T16:32:04Z</time>
      </trkpt>
      <trkpt lat="49.33006" lon="-1.65574">
        <ele>24.7</ele>
        <time>2022-02-21T16:32:09Z</time>
      </trkpt>
      <trkpt lat="49.33008" lon="-1.6558">
        <ele>24.6</ele>
        <time>2022-02-21T16:32:19Z</time>
      </trkpt>
      <trkpt lat="49.33013" lon="-1.65583">
        <ele>24.3</ele>
        <time>2022-02-21T16:32:26Z</time>
      </trkpt>
      <trkpt lat="49.33015" lon="-1.65589">
        <ele>24.3</ele>
        <time>2022-02-21T16:32:29Z</time>
      </trkpt>
      <trkpt lat="49.33019" lon="-1.65594">
        <ele>24.3</ele>
        <time>2022-02-21T16:32:32Z</time>
      </trkpt>
      <trkpt lat="49.3302" lon="-1.65602">
        <ele>24.1</ele>
        <time>2022-02-21T16:32:35Z</time>
      </trkpt>
      <trkpt lat="49.33022" lon="-1.65609">
        <ele>23.7</ele>
        <time>2022-02-21T16:32:42Z</time>
      </trkpt>
      <trkpt lat="49.33026" lon="-1.65615">
        <ele>23.6</ele>
        <time>2022-02-21T16:32:45Z</time>
      </trkpt>
      <trkpt lat="49.33029" lon="-1.65622">
        <ele>23.3</ele>
        <time>2022-02-21T16:32:48Z</time>
      </trkpt>
      <trkpt lat="49.33031" lon="-1.6563">
        <ele>22.6</ele>
        <time>2022-02-21T16:32:52Z</time>
      </trkpt>
      <trkpt lat="49.33032" lon="-1.65637">
        <ele>21.7</ele>
        <time>2022-02-21T16:33:06Z</time>
      </trkpt>
      <trkpt lat="49.33035" lon="-1.65643">
        <ele>20.1</ele>
        <time>2022-02-21T16:33:17Z</time>
      </trkpt>
      <trkpt lat="49.3304" lon="-1.6565">
        <ele>19.2</ele>
        <time>2022-02-21T16:33:21Z</time>
      </trkpt>
      <trkpt lat="49.33039" lon="-1.65657">
        <ele>18.4</ele>
        <time>2022-02-21T16:33:27Z</time>
      </trkpt>
      <trkpt lat="49.33036" lon="-1.65663">
        <ele>17.9</ele>
        <time>2022-02-21T16:33:31Z</time>
      </trkpt>
      <trkpt lat="49.33032" lon="-1.65669">
        <ele>17.7</ele>
        <time>2022-02-21T16:33:35Z</time>
      </trkpt>
      <trkpt lat="49.33029" lon="-1.65675">
        <ele>17.5</ele>
        <time>2022-02-21T16:33:37Z</time>
      </trkpt>
      <trkpt lat="49.33026" lon="-1.65681">
        <ele>17.3</ele>
        <time>2022-02-21T16:33:42Z</time>
      </trkpt>
      <trkpt lat="49.33024" lon="-1.65689">
        <ele>17.3</ele>
        <time>2022-02-21T16:33:46Z</time>
      </trkpt>
      <trkpt lat="49.3302" lon="-1.65695">
        <ele>17.2</ele>
        <time>2022-02-21T16:33:49Z</time>
      </trkpt>
      <trkpt lat="49.33016" lon="-1.65703">
        <ele>16.8</ele>
        <time>2022-02-21T16:34:02Z</time>
      </trkpt>
      <trkpt lat="49.33014" lon="-1.65711">
        <ele>16.7</ele>
        <time>2022-02-21T16:34:06Z</time>
      </trkpt>
      <trkpt lat="49.33012" lon="-1.65717">
        <ele>16.4</ele>
        <time>2022-02-21T16:34:09Z</time>
      </trkpt>
      <trkpt lat="49.33008" lon="-1.65724">
        <ele>15.6</ele>
        <time>2022-02-21T16:34:13Z</time>
      </trkpt>
      <trkpt lat="49.33003" lon="-1.65729">
        <ele>15</ele>
        <time>2022-02-21T16:34:18Z</time>
      </trkpt>
      <trkpt lat="49.33001" lon="-1.65736">
        <ele>14.6</ele>
        <time>2022-02-21T16:34:21Z</time>
      </trkpt>
      <trkpt lat="49.33" lon="-1.65743">
        <ele>13.6</ele>
        <time>2022-02-21T16:34:25Z</time>
      </trkpt>
      <trkpt lat="49.32997" lon="-1.65749">
        <ele>12.4</ele>
        <time>2022-02-21T16:34:30Z</time>
      </trkpt>
      <trkpt lat="49.32991" lon="-1.65754">
        <ele>11.7</ele>
        <time>2022-02-21T16:34:35Z</time>
      </trkpt>
      <trkpt lat="49.32988" lon="-1.6576">
        <ele>11.5</ele>
        <time>2022-02-21T16:34:40Z</time>
      </trkpt>
      <trkpt lat="49.32987" lon="-1.65767">
        <ele>10</ele>
        <time>2022-02-21T16:34:47Z</time>
      </trkpt>
      <trkpt lat="49.32983" lon="-1.65771">
        <ele>9.3</ele>
        <time>2022-02-21T16:35:00Z</time>
      </trkpt>
      <trkpt lat="49.32982" lon="-1.65779">
        <ele>9.3</ele>
        <time>2022-02-21T16:35:04Z</time>
      </trkpt>
      <trkpt lat="49.32978" lon="-1.65783">
        <ele>9.6</ele>
        <time>2022-02-21T16:35:07Z</time>
      </trkpt>
      <trkpt lat="49.32977" lon="-1.6579">
        <ele>9.5</ele>
        <time>2022-02-21T16:35:10Z</time>
      </trkpt>
      <trkpt lat="49.32974" lon="-1.65797">
        <ele>8.9</ele>
        <time>2022-02-21T16:35:14Z</time>
      </trkpt>
      <trkpt lat="49.32972" lon="-1.65805">
        <ele>8.2</ele>
        <time>2022-02-21T16:35:18Z</time>
      </trkpt>
      <trkpt lat="49.32969" lon="-1.65812">
        <ele>8.3</ele>
        <time>2022-02-21T16:35:23Z</time>
      </trkpt>
      <trkpt lat="49.32965" lon="-1.65817">
        <ele>8.3</ele>
        <time>2022-02-21T16:35:26Z</time>
      </trkpt>
      <trkpt lat="49.32963" lon="-1.65826">
        <ele>8</ele>
        <time>2022-02-21T16:35:31Z</time>
      </trkpt>
      <trkpt lat="49.3296" lon="-1.65834">
        <ele>7.7</ele>
        <time>2022-02-21T16:35:35Z</time>
      </trkpt>
      <trkpt lat="49.32958" lon="-1.65842">
        <ele>7.5</ele>
        <time>2022-02-21T16:35:40Z</time>
      </trkpt>
      <trkpt lat="49.32958" lon="-1.6585">
        <ele>7.4</ele>
        <time>2022-02-21T16:35:44Z</time>
      </trkpt>
      <trkpt lat="49.32955" lon="-1.65858">
        <ele>7.3</ele>
        <time>2022-02-21T16:35:49Z</time>
      </trkpt>
      <trkpt lat="49.32952" lon="-1.65863">
        <ele>12.6</ele>
        <time>2022-02-21T16:37:56Z</time>
      </trkpt>
      <trkpt lat="49.32956" lon="-1.65865">
        <ele>12.1</ele>
        <time>2022-02-21T16:38:01Z</time>
      </trkpt>
      <trkpt lat="49.3296" lon="-1.65871">
        <ele>11.4</ele>
        <time>2022-02-21T16:38:05Z</time>
      </trkpt>
      <trkpt lat="49.32964" lon="-1.65878">
        <ele>10.7</ele>
        <time>2022-02-21T16:38:08Z</time>
      </trkpt>
      <trkpt lat="49.32968" lon="-1.65882">
        <ele>10.1</ele>
        <time>2022-02-21T16:38:11Z</time>
      </trkpt>
      <trkpt lat="49.32972" lon="-1.65887">
        <ele>10.1</ele>
        <time>2022-02-21T16:38:15Z</time>
      </trkpt>
      <trkpt lat="49.32976" lon="-1.65891">
        <ele>10</ele>
        <time>2022-02-21T16:38:18Z</time>
      </trkpt>
      <trkpt lat="49.3298" lon="-1.65896">
        <ele>9.6</ele>
        <time>2022-02-21T16:38:22Z</time>
      </trkpt>
      <trkpt lat="49.32985" lon="-1.65901">
        <ele>8.9</ele>
        <time>2022-02-21T16:38:27Z</time>
      </trkpt>
      <trkpt lat="49.32989" lon="-1.65907">
        <ele>8.8</ele>
        <time>2022-02-21T16:38:30Z</time>
      </trkpt>
      <trkpt lat="49.32992" lon="-1.65912">
        <ele>8.6</ele>
        <time>2022-02-21T16:38:33Z</time>
      </trkpt>
      <trkpt lat="49.32995" lon="-1.65916">
        <ele>8.3</ele>
        <time>2022-02-21T16:38:36Z</time>
      </trkpt>
      <trkpt lat="49.33" lon="-1.65922">
        <ele>7.9</ele>
        <time>2022-02-21T16:38:40Z</time>
      </trkpt>
      <trkpt lat="49.3301" lon="-1.65934">
        <ele>7.3</ele>
        <time>2022-02-21T16:38:48Z</time>
      </trkpt>
      <trkpt lat="49.33013" lon="-1.65938">
        <ele>7.2</ele>
        <time>2022-02-21T16:38:52Z</time>
      </trkpt>
      <trkpt lat="49.33017" lon="-1.65942">
        <ele>6.9</ele>
        <time>2022-02-21T16:38:55Z</time>
      </trkpt>
      <trkpt lat="49.33021" lon="-1.65947">
        <ele>6.7</ele>
        <time>2022-02-21T16:38:59Z</time>
      </trkpt>
      <trkpt lat="49.33025" lon="-1.65953">
        <ele>6.6</ele>
        <time>2022-02-21T16:39:02Z</time>
      </trkpt>
      <trkpt lat="49.33031" lon="-1.65959">
        <ele>7</ele>
        <time>2022-02-21T16:39:07Z</time>
      </trkpt>
      <trkpt lat="49.33036" lon="-1.65964">
        <ele>7.3</ele>
        <time>2022-02-21T16:39:12Z</time>
      </trkpt>
      <trkpt lat="49.33038" lon="-1.6597">
        <ele>7.2</ele>
        <time>2022-02-21T16:39:15Z</time>
      </trkpt>
      <trkpt lat="49.33043" lon="-1.65971">
        <ele>6.8</ele>
        <time>2022-02-21T16:39:19Z</time>
      </trkpt>
      <trkpt lat="49.33048" lon="-1.65975">
        <ele>6.4</ele>
        <time>2022-02-21T16:39:23Z</time>
      </trkpt>
      <trkpt lat="49.33052" lon="-1.65978">
        <ele>6.4</ele>
        <time>2022-02-21T16:39:26Z</time>
      </trkpt>
      <trkpt lat="49.33055" lon="-1.65982">
        <ele>6.6</ele>
        <time>2022-02-21T16:39:30Z</time>
      </trkpt>
      <trkpt lat="49.3306" lon="-1.65986">
        <ele>6.5</ele>
        <time>2022-02-21T16:39:34Z</time>
      </trkpt>
      <trkpt lat="49.33064" lon="-1.65992">
        <ele>6.3</ele>
        <time>2022-02-21T16:39:40Z</time>
      </trkpt>
      <trkpt lat="49.3307" lon="-1.65997">
        <ele>6.2</ele>
        <time>2022-02-21T16:39:44Z</time>
      </trkpt>
      <trkpt lat="49.33076" lon="-1.66">
        <ele>6.3</ele>
        <time>2022-02-21T16:39:48Z</time>
      </trkpt>
      <trkpt lat="49.3308" lon="-1.66002">
        <ele>5.9</ele>
        <time>2022-02-21T16:39:52Z</time>
      </trkpt>
      <trkpt lat="49.33085" lon="-1.66003">
        <ele>5.9</ele>
        <time>2022-02-21T16:39:55Z</time>
      </trkpt>
      <trkpt lat="49.3309" lon="-1.66007">
        <ele>5.9</ele>
        <time>2022-02-21T16:39:58Z</time>
      </trkpt>
      <trkpt lat="49.33095" lon="-1.6601">
        <ele>6.3</ele>
        <time>2022-02-21T16:40:01Z</time>
      </trkpt>
      <trkpt lat="49.331" lon="-1.66012">
        <ele>6.4</ele>
        <time>2022-02-21T16:40:05Z</time>
      </trkpt>
      <trkpt lat="49.33105" lon="-1.66015">
        <ele>6.6</ele>
        <time>2022-02-21T16:40:09Z</time>
      </trkpt>
      <trkpt lat="49.33111" lon="-1.66017">
        <ele>6.9</ele>
        <time>2022-02-21T16:40:13Z</time>
      </trkpt>
      <trkpt lat="49.33116" lon="-1.6602">
        <ele>6.8</ele>
        <time>2022-02-21T16:40:17Z</time>
      </trkpt>
      <trkpt lat="49.3312" lon="-1.66022">
        <ele>6.4</ele>
        <time>2022-02-21T16:40:21Z</time>
      </trkpt>
      <trkpt lat="49.33125" lon="-1.66026">
        <ele>6</ele>
        <time>2022-02-21T16:40:25Z</time>
      </trkpt>
      <trkpt lat="49.3313" lon="-1.66027">
        <ele>6.3</ele>
        <time>2022-02-21T16:40:31Z</time>
      </trkpt>
      <trkpt lat="49.33134" lon="-1.66028">
        <ele>6.8</ele>
        <time>2022-02-21T16:40:34Z</time>
      </trkpt>
      <trkpt lat="49.33139" lon="-1.66032">
        <ele>7.1</ele>
        <time>2022-02-21T16:40:37Z</time>
      </trkpt>
      <trkpt lat="49.33144" lon="-1.66036">
        <ele>7.2</ele>
        <time>2022-02-21T16:40:40Z</time>
      </trkpt>
      <trkpt lat="49.33149" lon="-1.6604">
        <ele>7.1</ele>
        <time>2022-02-21T16:40:44Z</time>
      </trkpt>
      <trkpt lat="49.33154" lon="-1.66043">
        <ele>7.2</ele>
        <time>2022-02-21T16:40:47Z</time>
      </trkpt>
      <trkpt lat="49.33158" lon="-1.66045">
        <ele>7.2</ele>
        <time>2022-02-21T16:40:50Z</time>
      </trkpt>
      <trkpt lat="49.33163" lon="-1.66048">
        <ele>6.9</ele>
        <time>2022-02-21T16:40:53Z</time>
      </trkpt>
      <trkpt lat="49.33168" lon="-1.66049">
        <ele>6.6</ele>
        <time>2022-02-21T16:40:56Z</time>
      </trkpt>
      <trkpt lat="49.33175" lon="-1.6605">
        <ele>6.2</ele>
        <time>2022-02-21T16:41:00Z</time>
      </trkpt>
      <trkpt lat="49.3318" lon="-1.66052">
        <ele>6</ele>
        <time>2022-02-21T16:41:03Z</time>
      </trkpt>
      <trkpt lat="49.33184" lon="-1.66052">
        <ele>6.2</ele>
        <time>2022-02-21T16:41:06Z</time>
      </trkpt>
      <trkpt lat="49.3319" lon="-1.66051">
        <ele>6.5</ele>
        <time>2022-02-21T16:41:10Z</time>
      </trkpt>
      <trkpt lat="49.33195" lon="-1.66049">
        <ele>6.9</ele>
        <time>2022-02-21T16:41:13Z</time>
      </trkpt>
      <trkpt lat="49.33201" lon="-1.66048">
        <ele>7.2</ele>
        <time>2022-02-21T16:41:19Z</time>
      </trkpt>
      <trkpt lat="49.33206" lon="-1.66049">
        <ele>7.1</ele>
        <time>2022-02-21T16:41:22Z</time>
      </trkpt>
      <trkpt lat="49.3321" lon="-1.66051">
        <ele>7</ele>
        <time>2022-02-21T16:41:25Z</time>
      </trkpt>
      <trkpt lat="49.33215" lon="-1.66054">
        <ele>7.1</ele>
        <time>2022-02-21T16:41:28Z</time>
      </trkpt>
      <trkpt lat="49.3322" lon="-1.66058">
        <ele>7.3</ele>
        <time>2022-02-21T16:41:33Z</time>
      </trkpt>
      <trkpt lat="49.33225" lon="-1.66061">
        <ele>7.6</ele>
        <time>2022-02-21T16:41:36Z</time>
      </trkpt>
      <trkpt lat="49.3323" lon="-1.66065">
        <ele>7.7</ele>
        <time>2022-02-21T16:41:40Z</time>
      </trkpt>
      <trkpt lat="49.33236" lon="-1.66069">
        <ele>7.8</ele>
        <time>2022-02-21T16:41:45Z</time>
      </trkpt>
      <trkpt lat="49.33241" lon="-1.66071">
        <ele>7.9</ele>
        <time>2022-02-21T16:41:48Z</time>
      </trkpt>
      <trkpt lat="49.33245" lon="-1.66071">
        <ele>7.7</ele>
        <time>2022-02-21T16:41:51Z</time>
      </trkpt>
      <trkpt lat="49.3325" lon="-1.66072">
        <ele>7.4</ele>
        <time>2022-02-21T16:41:55Z</time>
      </trkpt>
      <trkpt lat="49.33255" lon="-1.66075">
        <ele>7.1</ele>
        <time>2022-02-21T16:41:58Z</time>
      </trkpt>
      <trkpt lat="49.33258" lon="-1.66082">
        <ele>7.2</ele>
        <time>2022-02-21T16:42:02Z</time>
      </trkpt>
      <trkpt lat="49.33263" lon="-1.66086">
        <ele>7.6</ele>
        <time>2022-02-21T16:42:06Z</time>
      </trkpt>
      <trkpt lat="49.33267" lon="-1.66089">
        <ele>7.9</ele>
        <time>2022-02-21T16:42:09Z</time>
      </trkpt>
      <trkpt lat="49.33273" lon="-1.66091">
        <ele>8</ele>
        <time>2022-02-21T16:42:13Z</time>
      </trkpt>
      <trkpt lat="49.33277" lon="-1.66093">
        <ele>7.9</ele>
        <time>2022-02-21T16:42:16Z</time>
      </trkpt>
      <trkpt lat="49.33282" lon="-1.66094">
        <ele>7.7</ele>
        <time>2022-02-21T16:42:19Z</time>
      </trkpt>
      <trkpt lat="49.33287" lon="-1.66097">
        <ele>7.5</ele>
        <time>2022-02-21T16:42:23Z</time>
      </trkpt>
      <trkpt lat="49.33292" lon="-1.661">
        <ele>7.5</ele>
        <time>2022-02-21T16:42:26Z</time>
      </trkpt>
      <trkpt lat="49.33297" lon="-1.66102">
        <ele>7.4</ele>
        <time>2022-02-21T16:42:30Z</time>
      </trkpt>
      <trkpt lat="49.33303" lon="-1.66106">
        <ele>7.3</ele>
        <time>2022-02-21T16:42:34Z</time>
      </trkpt>
      <trkpt lat="49.33308" lon="-1.66109">
        <ele>7.2</ele>
        <time>2022-02-21T16:42:38Z</time>
      </trkpt>
      <trkpt lat="49.33313" lon="-1.66113">
        <ele>7.1</ele>
        <time>2022-02-21T16:42:43Z</time>
      </trkpt>
      <trkpt lat="49.33317" lon="-1.66118">
        <ele>7</ele>
        <time>2022-02-21T16:42:46Z</time>
      </trkpt>
      <trkpt lat="49.3332" lon="-1.66125">
        <ele>7</ele>
        <time>2022-02-21T16:42:49Z</time>
      </trkpt>
      <trkpt lat="49.33324" lon="-1.66133">
        <ele>7</ele>
        <time>2022-02-21T16:42:54Z</time>
      </trkpt>
      <trkpt lat="49.33327" lon="-1.66138">
        <ele>6.8</ele>
        <time>2022-02-21T16:42:57Z</time>
      </trkpt>
      <trkpt lat="49.33331" lon="-1.66143">
        <ele>6.5</ele>
        <time>2022-02-21T16:43:00Z</time>
      </trkpt>
      <trkpt lat="49.33335" lon="-1.66147">
        <ele>6.3</ele>
        <time>2022-02-21T16:43:04Z</time>
      </trkpt>
      <trkpt lat="49.33338" lon="-1.66152">
        <ele>6.3</ele>
        <time>2022-02-21T16:43:07Z</time>
      </trkpt>
      <trkpt lat="49.33342" lon="-1.66157">
        <ele>6.2</ele>
        <time>2022-02-21T16:43:10Z</time>
      </trkpt>
      <trkpt lat="49.33346" lon="-1.66161">
        <ele>6.1</ele>
        <time>2022-02-21T16:43:14Z</time>
      </trkpt>
      <trkpt lat="49.3335" lon="-1.66168">
        <ele>6</ele>
        <time>2022-02-21T16:43:18Z</time>
      </trkpt>
      <trkpt lat="49.33352" lon="-1.66176">
        <ele>5.6</ele>
        <time>2022-02-21T16:43:22Z</time>
      </trkpt>
      <trkpt lat="49.33352" lon="-1.66186">
        <ele>5.1</ele>
        <time>2022-02-21T16:43:25Z</time>
      </trkpt>
      <trkpt lat="49.3335" lon="-1.66195">
        <ele>5.2</ele>
        <time>2022-02-21T16:43:29Z</time>
      </trkpt>
      <trkpt lat="49.33353" lon="-1.66201">
        <ele>6.2</ele>
        <time>2022-02-21T16:43:41Z</time>
      </trkpt>
      <trkpt lat="49.33352" lon="-1.66209">
        <ele>6.2</ele>
        <time>2022-02-21T16:43:44Z</time>
      </trkpt>
      <trkpt lat="49.3335" lon="-1.66219">
        <ele>6.2</ele>
        <time>2022-02-21T16:43:47Z</time>
      </trkpt>
      <trkpt lat="49.33345" lon="-1.66227">
        <ele>6.2</ele>
        <time>2022-02-21T16:43:50Z</time>
      </trkpt>
      <trkpt lat="49.3334" lon="-1.66232">
        <ele>6.3</ele>
        <time>2022-02-21T16:43:52Z</time>
      </trkpt>
      <trkpt lat="49.33337" lon="-1.66238">
        <ele>6.3</ele>
        <time>2022-02-21T16:43:54Z</time>
      </trkpt>
      <trkpt lat="49.33334" lon="-1.66246">
        <ele>6.1</ele>
        <time>2022-02-21T16:43:57Z</time>
      </trkpt>
      <trkpt lat="49.33331" lon="-1.66253">
        <ele>5.7</ele>
        <time>2022-02-21T16:44:01Z</time>
      </trkpt>
      <trkpt lat="49.33329" lon="-1.66261">
        <ele>5.5</ele>
        <time>2022-02-21T16:44:05Z</time>
      </trkpt>
      <trkpt lat="49.33327" lon="-1.66268">
        <ele>5.4</ele>
        <time>2022-02-21T16:44:08Z</time>
      </trkpt>
      <trkpt lat="49.33325" lon="-1.66274">
        <ele>5.4</ele>
        <time>2022-02-21T16:44:11Z</time>
      </trkpt>
      <trkpt lat="49.33324" lon="-1.66283">
        <ele>5.4</ele>
        <time>2022-02-21T16:44:15Z</time>
      </trkpt>
      <trkpt lat="49.33322" lon="-1.66292">
        <ele>5.6</ele>
        <time>2022-02-21T16:44:18Z</time>
      </trkpt>
      <trkpt lat="49.3332" lon="-1.66298">
        <ele>5.7</ele>
        <time>2022-02-21T16:44:21Z</time>
      </trkpt>
      <trkpt lat="49.33318" lon="-1.66305">
        <ele>5.8</ele>
        <time>2022-02-21T16:44:25Z</time>
      </trkpt>
      <trkpt lat="49.33317" lon="-1.66312">
        <ele>5.9</ele>
        <time>2022-02-21T16:44:28Z</time>
      </trkpt>
      <trkpt lat="49.33316" lon="-1.66319">
        <ele>5.8</ele>
        <time>2022-02-21T16:44:31Z</time>
      </trkpt>
      <trkpt lat="49.33317" lon="-1.66327">
        <ele>5.8</ele>
        <time>2022-02-21T16:44:36Z</time>
      </trkpt>
      <trkpt lat="49.33317" lon="-1.66335">
        <ele>5.7</ele>
        <time>2022-02-21T16:44:39Z</time>
      </trkpt>
      <trkpt lat="49.33318" lon="-1.66343">
        <ele>6.2</ele>
        <time>2022-02-21T16:44:54Z</time>
      </trkpt>
      <trkpt lat="49.33317" lon="-1.66352">
        <ele>6.5</ele>
        <time>2022-02-21T16:44:59Z</time>
      </trkpt>
      <trkpt lat="49.33317" lon="-1.6636">
        <ele>6.9</ele>
        <time>2022-02-21T16:45:02Z</time>
      </trkpt>
      <trkpt lat="49.33318" lon="-1.66368">
        <ele>7.1</ele>
        <time>2022-02-21T16:45:06Z</time>
      </trkpt>
      <trkpt lat="49.33319" lon="-1.66377">
        <ele>6.8</ele>
        <time>2022-02-21T16:45:39Z</time>
      </trkpt>
      <trkpt lat="49.33319" lon="-1.66386">
        <ele>6.7</ele>
        <time>2022-02-21T16:45:42Z</time>
      </trkpt>
      <trkpt lat="49.33321" lon="-1.66393">
        <ele>6.8</ele>
        <time>2022-02-21T16:45:45Z</time>
      </trkpt>
      <trkpt lat="49.33323" lon="-1.664">
        <ele>6.9</ele>
        <time>2022-02-21T16:45:49Z</time>
      </trkpt>
      <trkpt lat="49.33325" lon="-1.66406">
        <ele>7.1</ele>
        <time>2022-02-21T16:45:52Z</time>
      </trkpt>
      <trkpt lat="49.33327" lon="-1.66414">
        <ele>7.3</ele>
        <time>2022-02-21T16:45:55Z</time>
      </trkpt>
      <trkpt lat="49.33329" lon="-1.66421">
        <ele>7.4</ele>
        <time>2022-02-21T16:45:58Z</time>
      </trkpt>
      <trkpt lat="49.33331" lon="-1.66428">
        <ele>7.4</ele>
        <time>2022-02-21T16:46:01Z</time>
      </trkpt>
      <trkpt lat="49.33334" lon="-1.66435">
        <ele>7.3</ele>
        <time>2022-02-21T16:46:06Z</time>
      </trkpt>
      <trkpt lat="49.33335" lon="-1.66442">
        <ele>7.2</ele>
        <time>2022-02-21T16:46:09Z</time>
      </trkpt>
      <trkpt lat="49.33336" lon="-1.66449">
        <ele>7</ele>
        <time>2022-02-21T16:46:13Z</time>
      </trkpt>
      <trkpt lat="49.33338" lon="-1.66455">
        <ele>6.9</ele>
        <time>2022-02-21T16:46:19Z</time>
      </trkpt>
      <trkpt lat="49.33342" lon="-1.6646">
        <ele>7</ele>
        <time>2022-02-21T16:46:24Z</time>
      </trkpt>
      <trkpt lat="49.33345" lon="-1.66467">
        <ele>7</ele>
        <time>2022-02-21T16:46:28Z</time>
      </trkpt>
      <trkpt lat="49.33349" lon="-1.66474">
        <ele>6.8</ele>
        <time>2022-02-21T16:46:33Z</time>
      </trkpt>
      <trkpt lat="49.33353" lon="-1.6648">
        <ele>6.1</ele>
        <time>2022-02-21T16:46:39Z</time>
      </trkpt>
      <trkpt lat="49.33357" lon="-1.66481">
        <ele>5.7</ele>
        <time>2022-02-21T16:46:43Z</time>
      </trkpt>
      <trkpt lat="49.33355" lon="-1.66475">
        <ele>6.1</ele>
        <time>2022-02-21T16:49:46Z</time>
      </trkpt>
      <trkpt lat="49.33351" lon="-1.6647">
        <ele>3.4</ele>
        <time>2022-02-21T16:50:50Z</time>
      </trkpt>
      <trkpt lat="49.33348" lon="-1.66464">
        <ele>3.5</ele>
        <time>2022-02-21T16:50:59Z</time>
      </trkpt>
      <trkpt lat="49.33349" lon="-1.66456">
        <ele>3.5</ele>
        <time>2022-02-21T16:51:06Z</time>
      </trkpt>
      <trkpt lat="49.33354" lon="-1.66453">
        <ele>3.6</ele>
        <time>2022-02-21T16:51:09Z</time>
      </trkpt>
      <trkpt lat="49.33357" lon="-1.66458">
        <ele>3.7</ele>
        <time>2022-02-21T16:51:11Z</time>
      </trkpt>
      <trkpt lat="49.33359" lon="-1.66465">
        <ele>3.9</ele>
        <time>2022-02-21T16:51:13Z</time>
      </trkpt>
      <trkpt lat="49.33363" lon="-1.66472">
        <ele>3.9</ele>
        <time>2022-02-21T16:51:17Z</time>
      </trkpt>
      <trkpt lat="49.33369" lon="-1.66475">
        <ele>3.8</ele>
        <time>2022-02-21T16:51:20Z</time>
      </trkpt>
      <trkpt lat="49.33372" lon="-1.6648">
        <ele>3.8</ele>
        <time>2022-02-21T16:51:24Z</time>
      </trkpt>
      <trkpt lat="49.33375" lon="-1.66487">
        <ele>3.8</ele>
        <time>2022-02-21T16:51:27Z</time>
      </trkpt>
      <trkpt lat="49.33379" lon="-1.66493">
        <ele>4</ele>
        <time>2022-02-21T16:51:31Z</time>
      </trkpt>
      <trkpt lat="49.33382" lon="-1.66498">
        <ele>4.4</ele>
        <time>2022-02-21T16:51:35Z</time>
      </trkpt>
      <trkpt lat="49.33386" lon="-1.66504">
        <ele>5.1</ele>
        <time>2022-02-21T16:51:40Z</time>
      </trkpt>
      <trkpt lat="49.33391" lon="-1.66509">
        <ele>5.6</ele>
        <time>2022-02-21T16:51:45Z</time>
      </trkpt>
      <trkpt lat="49.33395" lon="-1.66514">
        <ele>6.1</ele>
        <time>2022-02-21T16:51:49Z</time>
      </trkpt>
      <trkpt lat="49.33398" lon="-1.66522">
        <ele>6.3</ele>
        <time>2022-02-21T16:51:54Z</time>
      </trkpt>
      <trkpt lat="49.33402" lon="-1.66529">
        <ele>6.6</ele>
        <time>2022-02-21T16:51:58Z</time>
      </trkpt>
      <trkpt lat="49.33405" lon="-1.66536">
        <ele>6.5</ele>
        <time>2022-02-21T16:52:01Z</time>
      </trkpt>
      <trkpt lat="49.33408" lon="-1.66542">
        <ele>6.5</ele>
        <time>2022-02-21T16:52:05Z</time>
      </trkpt>
      <trkpt lat="49.33412" lon="-1.66547">
        <ele>6.1</ele>
        <time>2022-02-21T16:52:08Z</time>
      </trkpt>
      <trkpt lat="49.33416" lon="-1.66551">
        <ele>6.5</ele>
        <time>2022-02-21T16:52:13Z</time>
      </trkpt>
      <trkpt lat="49.33419" lon="-1.66559">
        <ele>7.3</ele>
        <time>2022-02-21T16:52:17Z</time>
      </trkpt>
      <trkpt lat="49.33423" lon="-1.66564">
        <ele>7.9</ele>
        <time>2022-02-21T16:52:20Z</time>
      </trkpt>
      <trkpt lat="49.33426" lon="-1.66569">
        <ele>8.1</ele>
        <time>2022-02-21T16:52:24Z</time>
      </trkpt>
      <trkpt lat="49.33429" lon="-1.66574">
        <ele>8.2</ele>
        <time>2022-02-21T16:52:27Z</time>
      </trkpt>
      <trkpt lat="49.33435" lon="-1.66577">
        <ele>8.5</ele>
        <time>2022-02-21T16:52:32Z</time>
      </trkpt>
      <trkpt lat="49.33439" lon="-1.66581">
        <ele>8.9</ele>
        <time>2022-02-21T16:52:35Z</time>
      </trkpt>
      <trkpt lat="49.33444" lon="-1.66584">
        <ele>8.7</ele>
        <time>2022-02-21T16:52:39Z</time>
      </trkpt>
      <trkpt lat="49.33451" lon="-1.66588">
        <ele>8.7</ele>
        <time>2022-02-21T16:52:44Z</time>
      </trkpt>
      <trkpt lat="49.33456" lon="-1.66589">
        <ele>8.8</ele>
        <time>2022-02-21T16:52:48Z</time>
      </trkpt>
      <trkpt lat="49.3346" lon="-1.66592">
        <ele>9.1</ele>
        <time>2022-02-21T16:52:51Z</time>
      </trkpt>
      <trkpt lat="49.33465" lon="-1.66595">
        <ele>9.3</ele>
        <time>2022-02-21T16:52:55Z</time>
      </trkpt>
      <trkpt lat="49.33471" lon="-1.66597">
        <ele>10</ele>
        <time>2022-02-21T16:52:59Z</time>
      </trkpt>
      <trkpt lat="49.33476" lon="-1.66598">
        <ele>10.7</ele>
        <time>2022-02-21T16:53:03Z</time>
      </trkpt>
      <trkpt lat="49.3348" lon="-1.66599">
        <ele>11</ele>
        <time>2022-02-21T16:53:05Z</time>
      </trkpt>
      <trkpt lat="49.33486" lon="-1.666">
        <ele>11.1</ele>
        <time>2022-02-21T16:53:08Z</time>
      </trkpt>
      <trkpt lat="49.3349" lon="-1.66604">
        <ele>10.8</ele>
        <time>2022-02-21T16:53:12Z</time>
      </trkpt>
      <trkpt lat="49.33495" lon="-1.66608">
        <ele>10.7</ele>
        <time>2022-02-21T16:53:16Z</time>
      </trkpt>
      <trkpt lat="49.33499" lon="-1.66612">
        <ele>10.6</ele>
        <time>2022-02-21T16:53:20Z</time>
      </trkpt>
      <trkpt lat="49.33504" lon="-1.66618">
        <ele>10.3</ele>
        <time>2022-02-21T16:53:24Z</time>
      </trkpt>
      <trkpt lat="49.33507" lon="-1.66623">
        <ele>10.1</ele>
        <time>2022-02-21T16:53:28Z</time>
      </trkpt>
      <trkpt lat="49.3351" lon="-1.66629">
        <ele>10.1</ele>
        <time>2022-02-21T16:53:32Z</time>
      </trkpt>
      <trkpt lat="49.33516" lon="-1.66627">
        <ele>10</ele>
        <time>2022-02-21T16:53:36Z</time>
      </trkpt>
      <trkpt lat="49.33519" lon="-1.66622">
        <ele>10.1</ele>
        <time>2022-02-21T16:53:40Z</time>
      </trkpt>
      <trkpt lat="49.33523" lon="-1.66616">
        <ele>10.1</ele>
        <time>2022-02-21T16:53:43Z</time>
      </trkpt>
      <trkpt lat="49.33526" lon="-1.6661">
        <ele>10.3</ele>
        <time>2022-02-21T16:53:47Z</time>
      </trkpt>
      <trkpt lat="49.33529" lon="-1.66603">
        <ele>10.5</ele>
        <time>2022-02-21T16:53:50Z</time>
      </trkpt>
      <trkpt lat="49.33531" lon="-1.66597">
        <ele>10.5</ele>
        <time>2022-02-21T16:53:53Z</time>
      </trkpt>
      <trkpt lat="49.3353" lon="-1.66588">
        <ele>10.8</ele>
        <time>2022-02-21T16:53:58Z</time>
      </trkpt>
      <trkpt lat="49.33528" lon="-1.66582">
        <ele>11.1</ele>
        <time>2022-02-21T16:54:01Z</time>
      </trkpt>
      <trkpt lat="49.33527" lon="-1.66575">
        <ele>11.2</ele>
        <time>2022-02-21T16:54:04Z</time>
      </trkpt>
      <trkpt lat="49.33528" lon="-1.66567">
        <ele>11.2</ele>
        <time>2022-02-21T16:54:08Z</time>
      </trkpt>
      <trkpt lat="49.33526" lon="-1.66557">
        <ele>11.3</ele>
        <time>2022-02-21T16:54:13Z</time>
      </trkpt>
      <trkpt lat="49.33525" lon="-1.6655">
        <ele>11.6</ele>
        <time>2022-02-21T16:54:17Z</time>
      </trkpt>
      <trkpt lat="49.33524" lon="-1.66542">
        <ele>11.9</ele>
        <time>2022-02-21T16:54:21Z</time>
      </trkpt>
      <trkpt lat="49.33524" lon="-1.66535">
        <ele>12.1</ele>
        <time>2022-02-21T16:54:25Z</time>
      </trkpt>
      <trkpt lat="49.33522" lon="-1.66527">
        <ele>12.6</ele>
        <time>2022-02-21T16:54:30Z</time>
      </trkpt>
      <trkpt lat="49.33522" lon="-1.66519">
        <ele>12.9</ele>
        <time>2022-02-21T16:54:33Z</time>
      </trkpt>
      <trkpt lat="49.33521" lon="-1.6651">
        <ele>13</ele>
        <time>2022-02-21T16:54:37Z</time>
      </trkpt>
      <trkpt lat="49.33521" lon="-1.66502">
        <ele>13</ele>
        <time>2022-02-21T16:54:40Z</time>
      </trkpt>
      <trkpt lat="49.33518" lon="-1.66495">
        <ele>13.1</ele>
        <time>2022-02-21T16:54:44Z</time>
      </trkpt>
      <trkpt lat="49.33517" lon="-1.66487">
        <ele>13.1</ele>
        <time>2022-02-21T16:54:48Z</time>
      </trkpt>
      <trkpt lat="49.33517" lon="-1.6648">
        <ele>13.2</ele>
        <time>2022-02-21T16:54:52Z</time>
      </trkpt>
      <trkpt lat="49.33514" lon="-1.66474">
        <ele>13.4</ele>
        <time>2022-02-21T16:55:03Z</time>
      </trkpt>
      <trkpt lat="49.33511" lon="-1.66467">
        <ele>13.2</ele>
        <time>2022-02-21T16:55:06Z</time>
      </trkpt>
      <trkpt lat="49.33509" lon="-1.66459">
        <ele>12.9</ele>
        <time>2022-02-21T16:55:09Z</time>
      </trkpt>
      <trkpt lat="49.33508" lon="-1.6645">
        <ele>12.7</ele>
        <time>2022-02-21T16:55:13Z</time>
      </trkpt>
      <trkpt lat="49.33507" lon="-1.66444">
        <ele>12.7</ele>
        <time>2022-02-21T16:55:16Z</time>
      </trkpt>
      <trkpt lat="49.33506" lon="-1.66435">
        <ele>12.8</ele>
        <time>2022-02-21T16:55:20Z</time>
      </trkpt>
      <trkpt lat="49.33505" lon="-1.66427">
        <ele>12.9</ele>
        <time>2022-02-21T16:55:24Z</time>
      </trkpt>
      <trkpt lat="49.33503" lon="-1.6642">
        <ele>13.5</ele>
        <time>2022-02-21T16:55:27Z</time>
      </trkpt>
      <trkpt lat="49.335" lon="-1.66412">
        <ele>14.5</ele>
        <time>2022-02-21T16:55:31Z</time>
      </trkpt>
      <trkpt lat="49.33498" lon="-1.66405">
        <ele>14.8</ele>
        <time>2022-02-21T16:55:35Z</time>
      </trkpt>
      <trkpt lat="49.33495" lon="-1.66398">
        <ele>14.8</ele>
        <time>2022-02-21T16:55:39Z</time>
      </trkpt>
      <trkpt lat="49.33494" lon="-1.6639">
        <ele>15</ele>
        <time>2022-02-21T16:55:42Z</time>
      </trkpt>
      <trkpt lat="49.3349" lon="-1.6638">
        <ele>15.2</ele>
        <time>2022-02-21T16:55:47Z</time>
      </trkpt>
      <trkpt lat="49.33487" lon="-1.66374">
        <ele>15.1</ele>
        <time>2022-02-21T16:55:55Z</time>
      </trkpt>
      <trkpt lat="49.33487" lon="-1.66367">
        <ele>15.1</ele>
        <time>2022-02-21T16:56:00Z</time>
      </trkpt>
      <trkpt lat="49.33486" lon="-1.66358">
        <ele>14.9</ele>
        <time>2022-02-21T16:56:04Z</time>
      </trkpt>
      <trkpt lat="49.33485" lon="-1.6635">
        <ele>14.8</ele>
        <time>2022-02-21T16:56:09Z</time>
      </trkpt>
      <trkpt lat="49.33483" lon="-1.66341">
        <ele>14.7</ele>
        <time>2022-02-21T16:56:15Z</time>
      </trkpt>
      <trkpt lat="49.33482" lon="-1.66332">
        <ele>14.1</ele>
        <time>2022-02-21T16:56:20Z</time>
      </trkpt>
      <trkpt lat="49.3348" lon="-1.66325">
        <ele>13.6</ele>
        <time>2022-02-21T16:56:24Z</time>
      </trkpt>
      <trkpt lat="49.33478" lon="-1.66318">
        <ele>13.3</ele>
        <time>2022-02-21T16:56:28Z</time>
      </trkpt>
      <trkpt lat="49.33476" lon="-1.66311">
        <ele>13.1</ele>
        <time>2022-02-21T16:56:32Z</time>
      </trkpt>
      <trkpt lat="49.33475" lon="-1.66304">
        <ele>13</ele>
        <time>2022-02-21T16:56:37Z</time>
      </trkpt>
      <trkpt lat="49.33473" lon="-1.66296">
        <ele>12.9</ele>
        <time>2022-02-21T16:56:43Z</time>
      </trkpt>
      <trkpt lat="49.33473" lon="-1.66289">
        <ele>13.2</ele>
        <time>2022-02-21T16:56:52Z</time>
      </trkpt>
      <trkpt lat="49.33472" lon="-1.66281">
        <ele>13.3</ele>
        <time>2022-02-21T16:56:55Z</time>
      </trkpt>
      <trkpt lat="49.33469" lon="-1.66275">
        <ele>12.3</ele>
        <time>2022-02-21T16:57:24Z</time>
      </trkpt>
      <trkpt lat="49.33465" lon="-1.66271">
        <ele>12.2</ele>
        <time>2022-02-21T16:57:36Z</time>
      </trkpt>
      <trkpt lat="49.33465" lon="-1.66264">
        <ele>10.7</ele>
        <time>2022-02-21T16:58:22Z</time>
      </trkpt>
      <trkpt lat="49.33464" lon="-1.66256">
        <ele>10.5</ele>
        <time>2022-02-21T16:58:54Z</time>
      </trkpt>
      <trkpt lat="49.3346" lon="-1.6625">
        <ele>10.7</ele>
        <time>2022-02-21T16:58:57Z</time>
      </trkpt>
      <trkpt lat="49.33458" lon="-1.66241">
        <ele>10.6</ele>
        <time>2022-02-21T16:59:02Z</time>
      </trkpt>
      <trkpt lat="49.33456" lon="-1.66233">
        <ele>10.4</ele>
        <time>2022-02-21T16:59:06Z</time>
      </trkpt>
      <trkpt lat="49.33454" lon="-1.66226">
        <ele>9.9</ele>
        <time>2022-02-21T16:59:11Z</time>
      </trkpt>
      <trkpt lat="49.33451" lon="-1.66221">
        <ele>9.9</ele>
        <time>2022-02-21T16:59:18Z</time>
      </trkpt>
      <trkpt lat="49.33452" lon="-1.66214">
        <ele>9.6</ele>
        <time>2022-02-21T16:59:25Z</time>
      </trkpt>
      <trkpt lat="49.33452" lon="-1.66207">
        <ele>9.3</ele>
        <time>2022-02-21T16:59:38Z</time>
      </trkpt>
      <trkpt lat="49.33449" lon="-1.66201">
        <ele>9.5</ele>
        <time>2022-02-21T16:59:43Z</time>
      </trkpt>
      <trkpt lat="49.33447" lon="-1.66194">
        <ele>9.5</ele>
        <time>2022-02-21T16:59:47Z</time>
      </trkpt>
      <trkpt lat="49.33445" lon="-1.66185">
        <ele>9.3</ele>
        <time>2022-02-21T16:59:53Z</time>
      </trkpt>
      <trkpt lat="49.33442" lon="-1.66177">
        <ele>9.4</ele>
        <time>2022-02-21T16:59:58Z</time>
      </trkpt>
      <trkpt lat="49.33439" lon="-1.66169">
        <ele>9.6</ele>
        <time>2022-02-21T17:00:02Z</time>
      </trkpt>
      <trkpt lat="49.33436" lon="-1.66161">
        <ele>9.7</ele>
        <time>2022-02-21T17:00:05Z</time>
      </trkpt>
      <trkpt lat="49.33435" lon="-1.66153">
        <ele>10</ele>
        <time>2022-02-21T17:00:08Z</time>
      </trkpt>
      <trkpt lat="49.33432" lon="-1.66144">
        <ele>10.1</ele>
        <time>2022-02-21T17:00:13Z</time>
      </trkpt>
      <trkpt lat="49.33432" lon="-1.66137">
        <ele>9.8</ele>
        <time>2022-02-21T17:00:27Z</time>
      </trkpt>
      <trkpt lat="49.3343" lon="-1.6613">
        <ele>10.1</ele>
        <time>2022-02-21T17:00:32Z</time>
      </trkpt>
      <trkpt lat="49.33429" lon="-1.66123">
        <ele>10.1</ele>
        <time>2022-02-21T17:00:35Z</time>
      </trkpt>
      <trkpt lat="49.33428" lon="-1.66115">
        <ele>9.9</ele>
        <time>2022-02-21T17:00:39Z</time>
      </trkpt>
      <trkpt lat="49.33426" lon="-1.66108">
        <ele>9.6</ele>
        <time>2022-02-21T17:00:42Z</time>
      </trkpt>
      <trkpt lat="49.33423" lon="-1.66102">
        <ele>9.5</ele>
        <time>2022-02-21T17:00:45Z</time>
      </trkpt>
      <trkpt lat="49.33421" lon="-1.66092">
        <ele>9.7</ele>
        <time>2022-02-21T17:00:49Z</time>
      </trkpt>
      <trkpt lat="49.33419" lon="-1.66085">
        <ele>10.1</ele>
        <time>2022-02-21T17:00:55Z</time>
      </trkpt>
      <trkpt lat="49.33417" lon="-1.66077">
        <ele>10.1</ele>
        <time>2022-02-21T17:01:00Z</time>
      </trkpt>
      <trkpt lat="49.33416" lon="-1.66069">
        <ele>10</ele>
        <time>2022-02-21T17:01:04Z</time>
      </trkpt>
      <trkpt lat="49.33414" lon="-1.66062">
        <ele>9.7</ele>
        <time>2022-02-21T17:01:09Z</time>
      </trkpt>
      <trkpt lat="49.33412" lon="-1.66056">
        <ele>9.8</ele>
        <time>2022-02-21T17:01:12Z</time>
      </trkpt>
      <trkpt lat="49.3341" lon="-1.66048">
        <ele>10.3</ele>
        <time>2022-02-21T17:01:18Z</time>
      </trkpt>
      <trkpt lat="49.33408" lon="-1.66041">
        <ele>10.6</ele>
        <time>2022-02-21T17:01:22Z</time>
      </trkpt>
      <trkpt lat="49.33412" lon="-1.66036">
        <ele>10</ele>
        <time>2022-02-21T17:01:42Z</time>
      </trkpt>
      <trkpt lat="49.33409" lon="-1.6603">
        <ele>9.7</ele>
        <time>2022-02-21T17:01:48Z</time>
      </trkpt>
      <trkpt lat="49.33407" lon="-1.66023">
        <ele>9.7</ele>
        <time>2022-02-21T17:01:52Z</time>
      </trkpt>
      <trkpt lat="49.33405" lon="-1.66016">
        <ele>9.9</ele>
        <time>2022-02-21T17:01:59Z</time>
      </trkpt>
      <trkpt lat="49.33403" lon="-1.66008">
        <ele>10</ele>
        <time>2022-02-21T17:02:14Z</time>
      </trkpt>
      <trkpt lat="49.33401" lon="-1.66001">
        <ele>10</ele>
        <time>2022-02-21T17:02:17Z</time>
      </trkpt>
      <trkpt lat="49.33399" lon="-1.65994">
        <ele>10.2</ele>
        <time>2022-02-21T17:02:21Z</time>
      </trkpt>
      <trkpt lat="49.33397" lon="-1.65988">
        <ele>10.6</ele>
        <time>2022-02-21T17:02:32Z</time>
      </trkpt>
      <trkpt lat="49.33396" lon="-1.6598">
        <ele>10.4</ele>
        <time>2022-02-21T17:02:37Z</time>
      </trkpt>
      <trkpt lat="49.33395" lon="-1.65973">
        <ele>10.4</ele>
        <time>2022-02-21T17:02:41Z</time>
      </trkpt>
      <trkpt lat="49.33393" lon="-1.65967">
        <ele>10.3</ele>
        <time>2022-02-21T17:02:45Z</time>
      </trkpt>
      <trkpt lat="49.33391" lon="-1.6596">
        <ele>10.1</ele>
        <time>2022-02-21T17:02:50Z</time>
      </trkpt>
      <trkpt lat="49.33389" lon="-1.65953">
        <ele>10.1</ele>
        <time>2022-02-21T17:02:56Z</time>
      </trkpt>
      <trkpt lat="49.33388" lon="-1.65944">
        <ele>10.3</ele>
        <time>2022-02-21T17:03:01Z</time>
      </trkpt>
      <trkpt lat="49.33387" lon="-1.65937">
        <ele>10.6</ele>
        <time>2022-02-21T17:03:04Z</time>
      </trkpt>
      <trkpt lat="49.33385" lon="-1.65929">
        <ele>10.8</ele>
        <time>2022-02-21T17:03:08Z</time>
      </trkpt>
      <trkpt lat="49.33382" lon="-1.65922">
        <ele>10.7</ele>
        <time>2022-02-21T17:03:12Z</time>
      </trkpt>
      <trkpt lat="49.3338" lon="-1.65914">
        <ele>10.3</ele>
        <time>2022-02-21T17:03:17Z</time>
      </trkpt>
      <trkpt lat="49.33378" lon="-1.65906">
        <ele>10.1</ele>
        <time>2022-02-21T17:03:23Z</time>
      </trkpt>
      <trkpt lat="49.33376" lon="-1.659">
        <ele>10</ele>
        <time>2022-02-21T17:03:29Z</time>
      </trkpt>
      <trkpt lat="49.33375" lon="-1.65892">
        <ele>10.2</ele>
        <time>2022-02-21T17:03:34Z</time>
      </trkpt>
      <trkpt lat="49.33374" lon="-1.65885">
        <ele>10.1</ele>
        <time>2022-02-21T17:03:38Z</time>
      </trkpt>
      <trkpt lat="49.33374" lon="-1.65877">
        <ele>10</ele>
        <time>2022-02-21T17:03:43Z</time>
      </trkpt>
      <trkpt lat="49.33374" lon="-1.6587">
        <ele>10.2</ele>
        <time>2022-02-21T17:03:56Z</time>
      </trkpt>
      <trkpt lat="49.33374" lon="-1.65862">
        <ele>10.1</ele>
        <time>2022-02-21T17:04:04Z</time>
      </trkpt>
      <trkpt lat="49.33372" lon="-1.65855">
        <ele>10.4</ele>
        <time>2022-02-21T17:04:07Z</time>
      </trkpt>
      <trkpt lat="49.33369" lon="-1.65849">
        <ele>10.6</ele>
        <time>2022-02-21T17:04:11Z</time>
      </trkpt>
      <trkpt lat="49.33366" lon="-1.65841">
        <ele>10.9</ele>
        <time>2022-02-21T17:04:15Z</time>
      </trkpt>
      <trkpt lat="49.33364" lon="-1.65834">
        <ele>11.2</ele>
        <time>2022-02-21T17:04:21Z</time>
      </trkpt>
      <trkpt lat="49.33362" lon="-1.65827">
        <ele>11.7</ele>
        <time>2022-02-21T17:04:30Z</time>
      </trkpt>
      <trkpt lat="49.3336" lon="-1.6582">
        <ele>11.9</ele>
        <time>2022-02-21T17:04:32Z</time>
      </trkpt>
      <trkpt lat="49.33359" lon="-1.65814">
        <ele>12.1</ele>
        <time>2022-02-21T17:04:35Z</time>
      </trkpt>
      <trkpt lat="49.33358" lon="-1.65805">
        <ele>12.3</ele>
        <time>2022-02-21T17:04:37Z</time>
      </trkpt>
      <trkpt lat="49.33357" lon="-1.65798">
        <ele>12.6</ele>
        <time>2022-02-21T17:04:50Z</time>
      </trkpt>
      <trkpt lat="49.33355" lon="-1.65791">
        <ele>12.3</ele>
        <time>2022-02-21T17:04:57Z</time>
      </trkpt>
      <trkpt lat="49.33352" lon="-1.65786">
        <ele>12.2</ele>
        <time>2022-02-21T17:05:07Z</time>
      </trkpt>
      <trkpt lat="49.33348" lon="-1.65778">
        <ele>12.2</ele>
        <time>2022-02-21T17:05:10Z</time>
      </trkpt>
      <trkpt lat="49.33347" lon="-1.6577">
        <ele>12.2</ele>
        <time>2022-02-21T17:05:13Z</time>
      </trkpt>
      <trkpt lat="49.33346" lon="-1.65762">
        <ele>12.3</ele>
        <time>2022-02-21T17:05:16Z</time>
      </trkpt>
      <trkpt lat="49.33347" lon="-1.65755">
        <ele>12.4</ele>
        <time>2022-02-21T17:05:31Z</time>
      </trkpt>
      <trkpt lat="49.33344" lon="-1.65746">
        <ele>12.4</ele>
        <time>2022-02-21T17:05:39Z</time>
      </trkpt>
      <trkpt lat="49.33342" lon="-1.65738">
        <ele>12.5</ele>
        <time>2022-02-21T17:05:41Z</time>
      </trkpt>
      <trkpt lat="49.3334" lon="-1.65731">
        <ele>12.5</ele>
        <time>2022-02-21T17:05:45Z</time>
      </trkpt>
      <trkpt lat="49.33337" lon="-1.65725">
        <ele>12.4</ele>
        <time>2022-02-21T17:05:48Z</time>
      </trkpt>
      <trkpt lat="49.33335" lon="-1.65718">
        <ele>12</ele>
        <time>2022-02-21T17:05:56Z</time>
      </trkpt>
      <trkpt lat="49.33333" lon="-1.6571">
        <ele>10.9</ele>
        <time>2022-02-21T17:06:14Z</time>
      </trkpt>
      <trkpt lat="49.33332" lon="-1.65702">
        <ele>11</ele>
        <time>2022-02-21T17:06:18Z</time>
      </trkpt>
      <trkpt lat="49.33331" lon="-1.65695">
        <ele>11</ele>
        <time>2022-02-21T17:06:22Z</time>
      </trkpt>
      <trkpt lat="49.33328" lon="-1.65688">
        <ele>10.9</ele>
        <time>2022-02-21T17:06:27Z</time>
      </trkpt>
      <trkpt lat="49.33326" lon="-1.65681">
        <ele>10.4</ele>
        <time>2022-02-21T17:06:31Z</time>
      </trkpt>
      <trkpt lat="49.33324" lon="-1.65673">
        <ele>9.4</ele>
        <time>2022-02-21T17:06:38Z</time>
      </trkpt>
      <trkpt lat="49.33322" lon="-1.65667">
        <ele>9.3</ele>
        <time>2022-02-21T17:06:42Z</time>
      </trkpt>
      <trkpt lat="49.3332" lon="-1.6566">
        <ele>9.6</ele>
        <time>2022-02-21T17:06:47Z</time>
      </trkpt>
      <trkpt lat="49.33319" lon="-1.65651">
        <ele>9.8</ele>
        <time>2022-02-21T17:06:52Z</time>
      </trkpt>
      <trkpt lat="49.33317" lon="-1.65644">
        <ele>9.7</ele>
        <time>2022-02-21T17:06:56Z</time>
      </trkpt>
      <trkpt lat="49.33315" lon="-1.65635">
        <ele>9.6</ele>
        <time>2022-02-21T17:07:01Z</time>
      </trkpt>
      <trkpt lat="49.33313" lon="-1.65628">
        <ele>9.6</ele>
        <time>2022-02-21T17:07:07Z</time>
      </trkpt>
      <trkpt lat="49.33311" lon="-1.6562">
        <ele>9.7</ele>
        <time>2022-02-21T17:07:11Z</time>
      </trkpt>
      <trkpt lat="49.33309" lon="-1.65611">
        <ele>9.9</ele>
        <time>2022-02-21T17:07:16Z</time>
      </trkpt>
      <trkpt lat="49.33308" lon="-1.65603">
        <ele>10.2</ele>
        <time>2022-02-21T17:07:21Z</time>
      </trkpt>
      <trkpt lat="49.33307" lon="-1.65595">
        <ele>10.6</ele>
        <time>2022-02-21T17:07:26Z</time>
      </trkpt>
      <trkpt lat="49.33305" lon="-1.65588">
        <ele>11</ele>
        <time>2022-02-21T17:07:30Z</time>
      </trkpt>
      <trkpt lat="49.33303" lon="-1.65579">
        <ele>11.8</ele>
        <time>2022-02-21T17:07:34Z</time>
      </trkpt>
      <trkpt lat="49.33302" lon="-1.6557">
        <ele>12.5</ele>
        <time>2022-02-21T17:07:37Z</time>
      </trkpt>
      <trkpt lat="49.333" lon="-1.65562">
        <ele>13</ele>
        <time>2022-02-21T17:07:41Z</time>
      </trkpt>
      <trkpt lat="49.33298" lon="-1.65554">
        <ele>13.1</ele>
        <time>2022-02-21T17:07:45Z</time>
      </trkpt>
      <trkpt lat="49.33295" lon="-1.65547">
        <ele>12.6</ele>
        <time>2022-02-21T17:07:54Z</time>
      </trkpt>
      <trkpt lat="49.33295" lon="-1.65539">
        <ele>12.7</ele>
        <time>2022-02-21T17:08:04Z</time>
      </trkpt>
      <trkpt lat="49.33295" lon="-1.65531">
        <ele>12.5</ele>
        <time>2022-02-21T17:08:09Z</time>
      </trkpt>
      <trkpt lat="49.33295" lon="-1.65524">
        <ele>12</ele>
        <time>2022-02-21T17:08:17Z</time>
      </trkpt>
      <trkpt lat="49.33294" lon="-1.65517">
        <ele>12.7</ele>
        <time>2022-02-21T17:08:24Z</time>
      </trkpt>
      <trkpt lat="49.33293" lon="-1.65509">
        <ele>13.3</ele>
        <time>2022-02-21T17:08:34Z</time>
      </trkpt>
      <trkpt lat="49.33291" lon="-1.65502">
        <ele>13.9</ele>
        <time>2022-02-21T17:08:38Z</time>
      </trkpt>
      <trkpt lat="49.3329" lon="-1.65494">
        <ele>14</ele>
        <time>2022-02-21T17:08:43Z</time>
      </trkpt>
      <trkpt lat="49.33289" lon="-1.65487">
        <ele>13.9</ele>
        <time>2022-02-21T17:08:46Z</time>
      </trkpt>
      <trkpt lat="49.33287" lon="-1.65479">
        <ele>13.7</ele>
        <time>2022-02-21T17:08:50Z</time>
      </trkpt>
      <trkpt lat="49.33286" lon="-1.65472">
        <ele>13.6</ele>
        <time>2022-02-21T17:08:54Z</time>
      </trkpt>
      <trkpt lat="49.33286" lon="-1.65464">
        <ele>13.6</ele>
        <time>2022-02-21T17:09:00Z</time>
      </trkpt>
      <trkpt lat="49.33284" lon="-1.65456">
        <ele>13.3</ele>
        <time>2022-02-21T17:09:14Z</time>
      </trkpt>
      <trkpt lat="49.33283" lon="-1.65449">
        <ele>13</ele>
        <time>2022-02-21T17:09:17Z</time>
      </trkpt>
      <trkpt lat="49.33282" lon="-1.65441">
        <ele>12.7</ele>
        <time>2022-02-21T17:09:21Z</time>
      </trkpt>
      <trkpt lat="49.33281" lon="-1.65433">
        <ele>12.7</ele>
        <time>2022-02-21T17:09:24Z</time>
      </trkpt>
      <trkpt lat="49.33279" lon="-1.65424">
        <ele>12.7</ele>
        <time>2022-02-21T17:09:29Z</time>
      </trkpt>
      <trkpt lat="49.33279" lon="-1.65416">
        <ele>12.5</ele>
        <time>2022-02-21T17:09:34Z</time>
      </trkpt>
      <trkpt lat="49.33278" lon="-1.65409">
        <ele>12.2</ele>
        <time>2022-02-21T17:09:37Z</time>
      </trkpt>
      <trkpt lat="49.33278" lon="-1.65401">
        <ele>12.1</ele>
        <time>2022-02-21T17:09:41Z</time>
      </trkpt>
      <trkpt lat="49.33277" lon="-1.65393">
        <ele>12.3</ele>
        <time>2022-02-21T17:09:45Z</time>
      </trkpt>
      <trkpt lat="49.33273" lon="-1.65389">
        <ele>10.8</ele>
        <time>2022-02-21T17:10:11Z</time>
      </trkpt>
      <trkpt lat="49.33278" lon="-1.6539">
        <ele>11.7</ele>
        <time>2022-02-21T17:10:16Z</time>
      </trkpt>
      <trkpt lat="49.33283" lon="-1.65385">
        <ele>14.7</ele>
        <time>2022-02-21T17:10:22Z</time>
      </trkpt>
      <trkpt lat="49.33287" lon="-1.65379">
        <ele>15.7</ele>
        <time>2022-02-21T17:10:26Z</time>
      </trkpt>
      <trkpt lat="49.33295" lon="-1.65378">
        <ele>16.2</ele>
        <time>2022-02-21T17:10:28Z</time>
      </trkpt>
      <trkpt lat="49.33302" lon="-1.65379">
        <ele>16.5</ele>
        <time>2022-02-21T17:10:30Z</time>
      </trkpt>
      <trkpt lat="49.33306" lon="-1.6538">
        <ele>16.8</ele>
        <time>2022-02-21T17:10:31Z</time>
      </trkpt>
      <trkpt lat="49.33314" lon="-1.65382">
        <ele>17.1</ele>
        <time>2022-02-21T17:10:32Z</time>
      </trkpt>
      <trkpt lat="49.3332" lon="-1.65382">
        <ele>17.7</ele>
        <time>2022-02-21T17:10:34Z</time>
      </trkpt>
      <trkpt lat="49.33325" lon="-1.65382">
        <ele>18.7</ele>
        <time>2022-02-21T17:10:39Z</time>
      </trkpt>
      <trkpt lat="49.33329" lon="-1.6538">
        <ele>18.8</ele>
        <time>2022-02-21T17:10:42Z</time>
      </trkpt>
      <trkpt lat="49.33335" lon="-1.65378">
        <ele>19.1</ele>
        <time>2022-02-21T17:10:46Z</time>
      </trkpt>
      <trkpt lat="49.33339" lon="-1.65374">
        <ele>19.1</ele>
        <time>2022-02-21T17:10:50Z</time>
      </trkpt>
      <trkpt lat="49.33343" lon="-1.65369">
        <ele>19</ele>
        <time>2022-02-21T17:10:54Z</time>
      </trkpt>
      <trkpt lat="49.33349" lon="-1.65368">
        <ele>18.8</ele>
        <time>2022-02-21T17:10:59Z</time>
      </trkpt>
      <trkpt lat="49.33354" lon="-1.65367">
        <ele>18.9</ele>
        <time>2022-02-21T17:11:04Z</time>
      </trkpt>
      <trkpt lat="49.3336" lon="-1.65366">
        <ele>19.3</ele>
        <time>2022-02-21T17:11:08Z</time>
      </trkpt>
      <trkpt lat="49.33365" lon="-1.65366">
        <ele>19.4</ele>
        <time>2022-02-21T17:11:12Z</time>
      </trkpt>
      <trkpt lat="49.3337" lon="-1.65365">
        <ele>19.5</ele>
        <time>2022-02-21T17:11:16Z</time>
      </trkpt>
      <trkpt lat="49.33374" lon="-1.65361">
        <ele>18.9</ele>
        <time>2022-02-21T17:11:20Z</time>
      </trkpt>
      <trkpt lat="49.33379" lon="-1.65355">
        <ele>18.5</ele>
        <time>2022-02-21T17:11:24Z</time>
      </trkpt>
      <trkpt lat="49.33382" lon="-1.6535">
        <ele>18.4</ele>
        <time>2022-02-21T17:11:28Z</time>
      </trkpt>
      <trkpt lat="49.33387" lon="-1.65344">
        <ele>19.3</ele>
        <time>2022-02-21T17:11:32Z</time>
      </trkpt>
      <trkpt lat="49.33391" lon="-1.65339">
        <ele>20.2</ele>
        <time>2022-02-21T17:11:36Z</time>
      </trkpt>
      <trkpt lat="49.33395" lon="-1.65334">
        <ele>20.8</ele>
        <time>2022-02-21T17:11:39Z</time>
      </trkpt>
      <trkpt lat="49.33398" lon="-1.65328">
        <ele>21.1</ele>
        <time>2022-02-21T17:11:43Z</time>
      </trkpt>
      <trkpt lat="49.33402" lon="-1.65322">
        <ele>21.2</ele>
        <time>2022-02-21T17:11:47Z</time>
      </trkpt>
      <trkpt lat="49.33406" lon="-1.65318">
        <ele>21.2</ele>
        <time>2022-02-21T17:11:51Z</time>
      </trkpt>
      <trkpt lat="49.3341" lon="-1.65313">
        <ele>21.3</ele>
        <time>2022-02-21T17:11:56Z</time>
      </trkpt>
      <trkpt lat="49.33414" lon="-1.65306">
        <ele>21.7</ele>
        <time>2022-02-21T17:12:01Z</time>
      </trkpt>
      <trkpt lat="49.33417" lon="-1.65301">
        <ele>22.2</ele>
        <time>2022-02-21T17:12:05Z</time>
      </trkpt>
      <trkpt lat="49.3342" lon="-1.65294">
        <ele>22.5</ele>
        <time>2022-02-21T17:12:09Z</time>
      </trkpt>
      <trkpt lat="49.33424" lon="-1.65288">
        <ele>22.8</ele>
        <time>2022-02-21T17:12:12Z</time>
      </trkpt>
      <trkpt lat="49.33426" lon="-1.65281">
        <ele>23.1</ele>
        <time>2022-02-21T17:12:15Z</time>
      </trkpt>
      <trkpt lat="49.33428" lon="-1.65273">
        <ele>23.8</ele>
        <time>2022-02-21T17:12:20Z</time>
      </trkpt>
      <trkpt lat="49.33431" lon="-1.65265">
        <ele>24.4</ele>
        <time>2022-02-21T17:12:25Z</time>
      </trkpt>
      <trkpt lat="49.33435" lon="-1.6526">
        <ele>24.6</ele>
        <time>2022-02-21T17:12:31Z</time>
      </trkpt>
      <trkpt lat="49.33437" lon="-1.65253">
        <ele>24.5</ele>
        <time>2022-02-21T17:12:36Z</time>
      </trkpt>
      <trkpt lat="49.33438" lon="-1.65245">
        <ele>24.4</ele>
        <time>2022-02-21T17:12:41Z</time>
      </trkpt>
      <trkpt lat="49.33441" lon="-1.65238">
        <ele>24</ele>
        <time>2022-02-21T17:12:46Z</time>
      </trkpt>
      <trkpt lat="49.33444" lon="-1.65231">
        <ele>23.6</ele>
        <time>2022-02-21T17:12:51Z</time>
      </trkpt>
      <trkpt lat="49.33447" lon="-1.65226">
        <ele>23.5</ele>
        <time>2022-02-21T17:12:55Z</time>
      </trkpt>
      <trkpt lat="49.3345" lon="-1.65219">
        <ele>23.7</ele>
        <time>2022-02-21T17:13:01Z</time>
      </trkpt>
      <trkpt lat="49.33453" lon="-1.65213">
        <ele>23.8</ele>
        <time>2022-02-21T17:13:06Z</time>
      </trkpt>
      <trkpt lat="49.33455" lon="-1.65206">
        <ele>24.1</ele>
        <time>2022-02-21T17:13:11Z</time>
      </trkpt>
      <trkpt lat="49.33458" lon="-1.652">
        <ele>24.3</ele>
        <time>2022-02-21T17:13:14Z</time>
      </trkpt>
      <trkpt lat="49.33462" lon="-1.65196">
        <ele>24.4</ele>
        <time>2022-02-21T17:13:18Z</time>
      </trkpt>
      <trkpt lat="49.33465" lon="-1.65191">
        <ele>24.6</ele>
        <time>2022-02-21T17:13:22Z</time>
      </trkpt>
      <trkpt lat="49.3347" lon="-1.65187">
        <ele>24.8</ele>
        <time>2022-02-21T17:13:26Z</time>
      </trkpt>
      <trkpt lat="49.33473" lon="-1.6518">
        <ele>24.5</ele>
        <time>2022-02-21T17:13:32Z</time>
      </trkpt>
      <trkpt lat="49.33476" lon="-1.65173">
        <ele>24.2</ele>
        <time>2022-02-21T17:13:37Z</time>
      </trkpt>
      <trkpt lat="49.3348" lon="-1.65169">
        <ele>26.1</ele>
        <time>2022-02-21T17:14:03Z</time>
      </trkpt>
      <trkpt lat="49.33483" lon="-1.65164">
        <ele>26.1</ele>
        <time>2022-02-21T17:14:06Z</time>
      </trkpt>
      <trkpt lat="49.33489" lon="-1.65158">
        <ele>26.3</ele>
        <time>2022-02-21T17:14:09Z</time>
      </trkpt>
      <trkpt lat="49.33493" lon="-1.65152">
        <ele>26.8</ele>
        <time>2022-02-21T17:14:14Z</time>
      </trkpt>
      <trkpt lat="49.33496" lon="-1.65146">
        <ele>27.2</ele>
        <time>2022-02-21T17:14:18Z</time>
      </trkpt>
      <trkpt lat="49.335" lon="-1.6514">
        <ele>27.4</ele>
        <time>2022-02-21T17:14:22Z</time>
      </trkpt>
      <trkpt lat="49.33504" lon="-1.65134">
        <ele>27.7</ele>
        <time>2022-02-21T17:14:26Z</time>
      </trkpt>
      <trkpt lat="49.33509" lon="-1.65128">
        <ele>28.3</ele>
        <time>2022-02-21T17:14:32Z</time>
      </trkpt>
      <trkpt lat="49.33513" lon="-1.65122">
        <ele>28.4</ele>
        <time>2022-02-21T17:14:36Z</time>
      </trkpt>
      <trkpt lat="49.33516" lon="-1.65116">
        <ele>28.5</ele>
        <time>2022-02-21T17:14:41Z</time>
      </trkpt>
      <trkpt lat="49.3352" lon="-1.6511">
        <ele>28.5</ele>
        <time>2022-02-21T17:14:46Z</time>
      </trkpt>
      <trkpt lat="49.33523" lon="-1.65103">
        <ele>28.6</ele>
        <time>2022-02-21T17:14:51Z</time>
      </trkpt>
      <trkpt lat="49.33527" lon="-1.65097">
        <ele>28.5</ele>
        <time>2022-02-21T17:14:57Z</time>
      </trkpt>
      <trkpt lat="49.33529" lon="-1.6509">
        <ele>28.5</ele>
        <time>2022-02-21T17:15:01Z</time>
      </trkpt>
      <trkpt lat="49.33533" lon="-1.65091">
        <ele>28.8</ele>
        <time>2022-02-21T17:15:04Z</time>
      </trkpt>
      <trkpt lat="49.33538" lon="-1.65089">
        <ele>29.4</ele>
        <time>2022-02-21T17:15:09Z</time>
      </trkpt>
      <trkpt lat="49.33542" lon="-1.65084">
        <ele>29.4</ele>
        <time>2022-02-21T17:15:13Z</time>
      </trkpt>
      <trkpt lat="49.33544" lon="-1.65076">
        <ele>29.2</ele>
        <time>2022-02-21T17:15:17Z</time>
      </trkpt>
      <trkpt lat="49.33546" lon="-1.65068">
        <ele>29.4</ele>
        <time>2022-02-21T17:15:26Z</time>
      </trkpt>
      <trkpt lat="49.33549" lon="-1.65062">
        <ele>29.5</ele>
        <time>2022-02-21T17:15:29Z</time>
      </trkpt>
      <trkpt lat="49.33552" lon="-1.65056">
        <ele>29.7</ele>
        <time>2022-02-21T17:15:32Z</time>
      </trkpt>
      <trkpt lat="49.33557" lon="-1.6505">
        <ele>30.1</ele>
        <time>2022-02-21T17:15:36Z</time>
      </trkpt>
      <trkpt lat="49.3356" lon="-1.65044">
        <ele>30.4</ele>
        <time>2022-02-21T17:15:41Z</time>
      </trkpt>
      <trkpt lat="49.33563" lon="-1.65038">
        <ele>30.7</ele>
        <time>2022-02-21T17:15:44Z</time>
      </trkpt>
      <trkpt lat="49.33567" lon="-1.65032">
        <ele>31</ele>
        <time>2022-02-21T17:15:49Z</time>
      </trkpt>
      <trkpt lat="49.3357" lon="-1.65027">
        <ele>31</ele>
        <time>2022-02-21T17:15:53Z</time>
      </trkpt>
      <trkpt lat="49.33574" lon="-1.65021">
        <ele>31.1</ele>
        <time>2022-02-21T17:15:58Z</time>
      </trkpt>
      <trkpt lat="49.33579" lon="-1.65014">
        <ele>31.5</ele>
        <time>2022-02-21T17:16:03Z</time>
      </trkpt>
      <trkpt lat="49.33582" lon="-1.65007">
        <ele>32</ele>
        <time>2022-02-21T17:16:07Z</time>
      </trkpt>
      <trkpt lat="49.33586" lon="-1.64998">
        <ele>32.3</ele>
        <time>2022-02-21T17:16:12Z</time>
      </trkpt>
      <trkpt lat="49.3359" lon="-1.64993">
        <ele>32.6</ele>
        <time>2022-02-21T17:16:16Z</time>
      </trkpt>
      <trkpt lat="49.33593" lon="-1.64988">
        <ele>32.9</ele>
        <time>2022-02-21T17:16:20Z</time>
      </trkpt>
      <trkpt lat="49.33596" lon="-1.64981">
        <ele>33</ele>
        <time>2022-02-21T17:16:24Z</time>
      </trkpt>
      <trkpt lat="49.33599" lon="-1.64974">
        <ele>33</ele>
        <time>2022-02-21T17:16:29Z</time>
      </trkpt>
      <trkpt lat="49.33603" lon="-1.64968">
        <ele>32.9</ele>
        <time>2022-02-21T17:16:33Z</time>
      </trkpt>
      <trkpt lat="49.33606" lon="-1.64963">
        <ele>33</ele>
        <time>2022-02-21T17:16:37Z</time>
      </trkpt>
      <trkpt lat="49.33609" lon="-1.64956">
        <ele>33.4</ele>
        <time>2022-02-21T17:16:41Z</time>
      </trkpt>
      <trkpt lat="49.33612" lon="-1.64949">
        <ele>33.6</ele>
        <time>2022-02-21T17:16:45Z</time>
      </trkpt>
      <trkpt lat="49.33615" lon="-1.64943">
        <ele>33.6</ele>
        <time>2022-02-21T17:16:48Z</time>
      </trkpt>
      <trkpt lat="49.33619" lon="-1.64939">
        <ele>33.6</ele>
        <time>2022-02-21T17:16:52Z</time>
      </trkpt>
      <trkpt lat="49.33622" lon="-1.64933">
        <ele>33.6</ele>
        <time>2022-02-21T17:16:56Z</time>
      </trkpt>
      <trkpt lat="49.33626" lon="-1.64928">
        <ele>33.7</ele>
        <time>2022-02-21T17:16:59Z</time>
      </trkpt>
      <trkpt lat="49.33628" lon="-1.64922">
        <ele>33.7</ele>
        <time>2022-02-21T17:17:02Z</time>
      </trkpt>
      <trkpt lat="49.33632" lon="-1.64915">
        <ele>33.7</ele>
        <time>2022-02-21T17:17:07Z</time>
      </trkpt>
      <trkpt lat="49.33635" lon="-1.64909">
        <ele>33.9</ele>
        <time>2022-02-21T17:17:10Z</time>
      </trkpt>
      <trkpt lat="49.33638" lon="-1.64902">
        <ele>33.9</ele>
        <time>2022-02-21T17:17:14Z</time>
      </trkpt>
      <trkpt lat="49.33641" lon="-1.64895">
        <ele>33.9</ele>
        <time>2022-02-21T17:17:18Z</time>
      </trkpt>
      <trkpt lat="49.33645" lon="-1.64888">
        <ele>33.8</ele>
        <time>2022-02-21T17:17:23Z</time>
      </trkpt>
      <trkpt lat="49.33648" lon="-1.64881">
        <ele>34.1</ele>
        <time>2022-02-21T17:17:27Z</time>
      </trkpt>
      <trkpt lat="49.33652" lon="-1.64875">
        <ele>34.3</ele>
        <time>2022-02-21T17:17:31Z</time>
      </trkpt>
      <trkpt lat="49.33655" lon="-1.64868">
        <ele>34.2</ele>
        <time>2022-02-21T17:17:35Z</time>
      </trkpt>
      <trkpt lat="49.33656" lon="-1.6486">
        <ele>34</ele>
        <time>2022-02-21T17:17:39Z</time>
      </trkpt>
      <trkpt lat="49.33659" lon="-1.6485">
        <ele>33.6</ele>
        <time>2022-02-21T17:17:44Z</time>
      </trkpt>
      <trkpt lat="49.33663" lon="-1.64846">
        <ele>33.6</ele>
        <time>2022-02-21T17:17:47Z</time>
      </trkpt>
      <trkpt lat="49.33668" lon="-1.64842">
        <ele>33.7</ele>
        <time>2022-02-21T17:17:51Z</time>
      </trkpt>
      <trkpt lat="49.3367" lon="-1.64836">
        <ele>33.7</ele>
        <time>2022-02-21T17:17:55Z</time>
      </trkpt>
      <trkpt lat="49.33673" lon="-1.64829">
        <ele>33.9</ele>
        <time>2022-02-21T17:17:59Z</time>
      </trkpt>
      <trkpt lat="49.33675" lon="-1.64821">
        <ele>34.2</ele>
        <time>2022-02-21T17:18:03Z</time>
      </trkpt>
      <trkpt lat="49.33677" lon="-1.64814">
        <ele>34.3</ele>
        <time>2022-02-21T17:18:17Z</time>
      </trkpt>
      <trkpt lat="49.33681" lon="-1.64808">
        <ele>33.9</ele>
        <time>2022-02-21T17:18:20Z</time>
      </trkpt>
      <trkpt lat="49.33685" lon="-1.64801">
        <ele>33.6</ele>
        <time>2022-02-21T17:18:24Z</time>
      </trkpt>
      <trkpt lat="49.33688" lon="-1.64796">
        <ele>33.8</ele>
        <time>2022-02-21T17:18:27Z</time>
      </trkpt>
      <trkpt lat="49.33691" lon="-1.64789">
        <ele>34.1</ele>
        <time>2022-02-21T17:18:30Z</time>
      </trkpt>
      <trkpt lat="49.33695" lon="-1.64784">
        <ele>34</ele>
        <time>2022-02-21T17:18:34Z</time>
      </trkpt>
      <trkpt lat="49.33699" lon="-1.64778">
        <ele>33.7</ele>
        <time>2022-02-21T17:18:38Z</time>
      </trkpt>
      <trkpt lat="49.33703" lon="-1.64772">
        <ele>33.4</ele>
        <time>2022-02-21T17:18:42Z</time>
      </trkpt>
      <trkpt lat="49.33707" lon="-1.64766">
        <ele>33</ele>
        <time>2022-02-21T17:18:47Z</time>
      </trkpt>
      <trkpt lat="49.33712" lon="-1.64762">
        <ele>32.8</ele>
        <time>2022-02-21T17:18:50Z</time>
      </trkpt>
      <trkpt lat="49.33716" lon="-1.64758">
        <ele>32.9</ele>
        <time>2022-02-21T17:18:53Z</time>
      </trkpt>
      <trkpt lat="49.33721" lon="-1.64753">
        <ele>33</ele>
        <time>2022-02-21T17:18:57Z</time>
      </trkpt>
      <trkpt lat="49.33724" lon="-1.64747">
        <ele>33</ele>
        <time>2022-02-21T17:19:01Z</time>
      </trkpt>
      <trkpt lat="49.3373" lon="-1.64735">
        <ele>33</ele>
        <time>2022-02-21T17:19:09Z</time>
      </trkpt>
      <trkpt lat="49.33735" lon="-1.64728">
        <ele>33.2</ele>
        <time>2022-02-21T17:19:13Z</time>
      </trkpt>
      <trkpt lat="49.33738" lon="-1.64722">
        <ele>33.4</ele>
        <time>2022-02-21T17:19:17Z</time>
      </trkpt>
      <trkpt lat="49.33741" lon="-1.64716">
        <ele>33.5</ele>
        <time>2022-02-21T17:19:20Z</time>
      </trkpt>
      <trkpt lat="49.33745" lon="-1.6471">
        <ele>33.5</ele>
        <time>2022-02-21T17:19:24Z</time>
      </trkpt>
      <trkpt lat="49.33749" lon="-1.64707">
        <ele>33.5</ele>
        <time>2022-02-21T17:19:27Z</time>
      </trkpt>
      <trkpt lat="49.33753" lon="-1.64701">
        <ele>33.5</ele>
        <time>2022-02-21T17:19:32Z</time>
      </trkpt>
      <trkpt lat="49.33755" lon="-1.64692">
        <ele>33.3</ele>
        <time>2022-02-21T17:19:48Z</time>
      </trkpt>
      <trkpt lat="49.33758" lon="-1.64685">
        <ele>33.4</ele>
        <time>2022-02-21T17:19:51Z</time>
      </trkpt>
      <trkpt lat="49.33771" lon="-1.64663">
        <ele>33.2</ele>
        <time>2022-02-21T17:20:04Z</time>
      </trkpt>
      <trkpt lat="49.3378" lon="-1.6465">
        <ele>32.7</ele>
        <time>2022-02-21T17:20:12Z</time>
      </trkpt>
      <trkpt lat="49.33783" lon="-1.64642">
        <ele>33.3</ele>
        <time>2022-02-21T17:20:16Z</time>
      </trkpt>
      <trkpt lat="49.33785" lon="-1.64635">
        <ele>34</ele>
        <time>2022-02-21T17:20:19Z</time>
      </trkpt>
      <trkpt lat="49.33788" lon="-1.64629">
        <ele>34.6</ele>
        <time>2022-02-21T17:20:22Z</time>
      </trkpt>
      <trkpt lat="49.33791" lon="-1.64622">
        <ele>35.2</ele>
        <time>2022-02-21T17:20:27Z</time>
      </trkpt>
      <trkpt lat="49.33793" lon="-1.64613">
        <ele>35.6</ele>
        <time>2022-02-21T17:20:31Z</time>
      </trkpt>
      <trkpt lat="49.33794" lon="-1.64606">
        <ele>35.8</ele>
        <time>2022-02-21T17:20:35Z</time>
      </trkpt>
      <trkpt lat="49.33797" lon="-1.64598">
        <ele>36.1</ele>
        <time>2022-02-21T17:20:39Z</time>
      </trkpt>
      <trkpt lat="49.338" lon="-1.64591">
        <ele>36.5</ele>
        <time>2022-02-21T17:20:43Z</time>
      </trkpt>
      <trkpt lat="49.33803" lon="-1.64584">
        <ele>36.8</ele>
        <time>2022-02-21T17:20:47Z</time>
      </trkpt>
      <trkpt lat="49.33805" lon="-1.64576">
        <ele>37</ele>
        <time>2022-02-21T17:20:51Z</time>
      </trkpt>
      <trkpt lat="49.33807" lon="-1.6457">
        <ele>37</ele>
        <time>2022-02-21T17:20:54Z</time>
      </trkpt>
      <trkpt lat="49.3381" lon="-1.64564">
        <ele>37.1</ele>
        <time>2022-02-21T17:20:58Z</time>
      </trkpt>
      <trkpt lat="49.33812" lon="-1.64557">
        <ele>37.2</ele>
        <time>2022-02-21T17:21:01Z</time>
      </trkpt>
      <trkpt lat="49.33816" lon="-1.6455">
        <ele>37.5</ele>
        <time>2022-02-21T17:21:05Z</time>
      </trkpt>
      <trkpt lat="49.33819" lon="-1.64544">
        <ele>37.7</ele>
        <time>2022-02-21T17:21:09Z</time>
      </trkpt>
      <trkpt lat="49.33824" lon="-1.64538">
        <ele>37.7</ele>
        <time>2022-02-21T17:21:13Z</time>
      </trkpt>
      <trkpt lat="49.33828" lon="-1.64533">
        <ele>37.5</ele>
        <time>2022-02-21T17:21:17Z</time>
      </trkpt>
      <trkpt lat="49.33832" lon="-1.64527">
        <ele>37.2</ele>
        <time>2022-02-21T17:21:22Z</time>
      </trkpt>
      <trkpt lat="49.33836" lon="-1.64521">
        <ele>36.9</ele>
        <time>2022-02-21T17:21:25Z</time>
      </trkpt>
      <trkpt lat="49.3384" lon="-1.64514">
        <ele>36.6</ele>
        <time>2022-02-21T17:21:29Z</time>
      </trkpt>
      <trkpt lat="49.33845" lon="-1.64507">
        <ele>36.6</ele>
        <time>2022-02-21T17:21:34Z</time>
      </trkpt>
      <trkpt lat="49.33848" lon="-1.64501">
        <ele>36.9</ele>
        <time>2022-02-21T17:21:38Z</time>
      </trkpt>
      <trkpt lat="49.33852" lon="-1.64495">
        <ele>37.2</ele>
        <time>2022-02-21T17:21:43Z</time>
      </trkpt>
      <trkpt lat="49.33855" lon="-1.6449">
        <ele>37.1</ele>
        <time>2022-02-21T17:21:46Z</time>
      </trkpt>
      <trkpt lat="49.33859" lon="-1.64485">
        <ele>37</ele>
        <time>2022-02-21T17:21:49Z</time>
      </trkpt>
      <trkpt lat="49.33862" lon="-1.64479">
        <ele>36.6</ele>
        <time>2022-02-21T17:21:54Z</time>
      </trkpt>
      <trkpt lat="49.33866" lon="-1.64473">
        <ele>36.3</ele>
        <time>2022-02-21T17:21:57Z</time>
      </trkpt>
      <trkpt lat="49.3387" lon="-1.64468">
        <ele>36</ele>
        <time>2022-02-21T17:22:01Z</time>
      </trkpt>
      <trkpt lat="49.33874" lon="-1.64463">
        <ele>36</ele>
        <time>2022-02-21T17:22:04Z</time>
      </trkpt>
      <trkpt lat="49.33878" lon="-1.64457">
        <ele>36.1</ele>
        <time>2022-02-21T17:22:09Z</time>
      </trkpt>
      <trkpt lat="49.3388" lon="-1.6445">
        <ele>36.2</ele>
        <time>2022-02-21T17:22:12Z</time>
      </trkpt>
      <trkpt lat="49.33884" lon="-1.64445">
        <ele>36.1</ele>
        <time>2022-02-21T17:22:15Z</time>
      </trkpt>
      <trkpt lat="49.33889" lon="-1.6444">
        <ele>35.9</ele>
        <time>2022-02-21T17:22:19Z</time>
      </trkpt>
      <trkpt lat="49.33894" lon="-1.64435">
        <ele>35.6</ele>
        <time>2022-02-21T17:22:24Z</time>
      </trkpt>
      <trkpt lat="49.339" lon="-1.64434">
        <ele>35.4</ele>
        <time>2022-02-21T17:22:29Z</time>
      </trkpt>
      <trkpt lat="49.33904" lon="-1.64428">
        <ele>35.4</ele>
        <time>2022-02-21T17:22:33Z</time>
      </trkpt>
      <trkpt lat="49.33908" lon="-1.64423">
        <ele>35.4</ele>
        <time>2022-02-21T17:22:36Z</time>
      </trkpt>
      <trkpt lat="49.33911" lon="-1.64417">
        <ele>35.5</ele>
        <time>2022-02-21T17:22:40Z</time>
      </trkpt>
      <trkpt lat="49.33914" lon="-1.64409">
        <ele>35.7</ele>
        <time>2022-02-21T17:22:45Z</time>
      </trkpt>
      <trkpt lat="49.33917" lon="-1.64403">
        <ele>36.1</ele>
        <time>2022-02-21T17:22:48Z</time>
      </trkpt>
      <trkpt lat="49.33918" lon="-1.64395">
        <ele>36.5</ele>
        <time>2022-02-21T17:22:52Z</time>
      </trkpt>
      <trkpt lat="49.33918" lon="-1.64385">
        <ele>36.9</ele>
        <time>2022-02-21T17:22:57Z</time>
      </trkpt>
      <trkpt lat="49.33917" lon="-1.64378">
        <ele>37</ele>
        <time>2022-02-21T17:23:00Z</time>
      </trkpt>
      <trkpt lat="49.33915" lon="-1.64371">
        <ele>37.3</ele>
        <time>2022-02-21T17:23:06Z</time>
      </trkpt>
      <trkpt lat="49.33913" lon="-1.64365">
        <ele>37.4</ele>
        <time>2022-02-21T17:23:10Z</time>
      </trkpt>
      <trkpt lat="49.33913" lon="-1.64355">
        <ele>37.5</ele>
        <time>2022-02-21T17:23:13Z</time>
      </trkpt>
      <trkpt lat="49.33914" lon="-1.64347">
        <ele>37.5</ele>
        <time>2022-02-21T17:23:17Z</time>
      </trkpt>
      <trkpt lat="49.33913" lon="-1.64339">
        <ele>37.7</ele>
        <time>2022-02-21T17:23:20Z</time>
      </trkpt>
      <trkpt lat="49.33911" lon="-1.64331">
        <ele>37.9</ele>
        <time>2022-02-21T17:23:25Z</time>
      </trkpt>
      <trkpt lat="49.3391" lon="-1.64324">
        <ele>37.9</ele>
        <time>2022-02-21T17:23:28Z</time>
      </trkpt>
      <trkpt lat="49.3391" lon="-1.64315">
        <ele>37.7</ele>
        <time>2022-02-21T17:23:32Z</time>
      </trkpt>
      <trkpt lat="49.33909" lon="-1.64305">
        <ele>37.5</ele>
        <time>2022-02-21T17:23:37Z</time>
      </trkpt>
      <trkpt lat="49.33909" lon="-1.64298">
        <ele>37.5</ele>
        <time>2022-02-21T17:23:40Z</time>
      </trkpt>
      <trkpt lat="49.33909" lon="-1.64291">
        <ele>37.5</ele>
        <time>2022-02-21T17:23:44Z</time>
      </trkpt>
      <trkpt lat="49.3391" lon="-1.64282">
        <ele>37.4</ele>
        <time>2022-02-21T17:23:48Z</time>
      </trkpt>
      <trkpt lat="49.3391" lon="-1.64274">
        <ele>36.9</ele>
        <time>2022-02-21T17:23:53Z</time>
      </trkpt>
      <trkpt lat="49.33911" lon="-1.64266">
        <ele>36.8</ele>
        <time>2022-02-21T17:23:56Z</time>
      </trkpt>
      <trkpt lat="49.33912" lon="-1.64258">
        <ele>36.7</ele>
        <time>2022-02-21T17:24:00Z</time>
      </trkpt>
      <trkpt lat="49.33912" lon="-1.6425">
        <ele>36.8</ele>
        <time>2022-02-21T17:24:05Z</time>
      </trkpt>
      <trkpt lat="49.33913" lon="-1.64242">
        <ele>36.9</ele>
        <time>2022-02-21T17:24:10Z</time>
      </trkpt>
      <trkpt lat="49.33911" lon="-1.64235">
        <ele>37.2</ele>
        <time>2022-02-21T17:24:13Z</time>
      </trkpt>
      <trkpt lat="49.3391" lon="-1.64227">
        <ele>37.5</ele>
        <time>2022-02-21T17:24:16Z</time>
      </trkpt>
      <trkpt lat="49.3391" lon="-1.6422">
        <ele>37.7</ele>
        <time>2022-02-21T17:24:20Z</time>
      </trkpt>
      <trkpt lat="49.33909" lon="-1.64212">
        <ele>37.8</ele>
        <time>2022-02-21T17:24:23Z</time>
      </trkpt>
      <trkpt lat="49.33908" lon="-1.64204">
        <ele>37.9</ele>
        <time>2022-02-21T17:24:27Z</time>
      </trkpt>
      <trkpt lat="49.33906" lon="-1.64196">
        <ele>38.1</ele>
        <time>2022-02-21T17:24:31Z</time>
      </trkpt>
      <trkpt lat="49.33905" lon="-1.64187">
        <ele>38.3</ele>
        <time>2022-02-21T17:24:35Z</time>
      </trkpt>
      <trkpt lat="49.33907" lon="-1.64179">
        <ele>38.2</ele>
        <time>2022-02-21T17:24:39Z</time>
      </trkpt>
      <trkpt lat="49.3391" lon="-1.64174">
        <ele>38.1</ele>
        <time>2022-02-21T17:24:43Z</time>
      </trkpt>
      <trkpt lat="49.33914" lon="-1.64165">
        <ele>38</ele>
        <time>2022-02-21T17:24:47Z</time>
      </trkpt>
      <trkpt lat="49.33918" lon="-1.64161">
        <ele>38</ele>
        <time>2022-02-21T17:24:51Z</time>
      </trkpt>
      <trkpt lat="49.33922" lon="-1.64158">
        <ele>38</ele>
        <time>2022-02-21T17:24:54Z</time>
      </trkpt>
      <trkpt lat="49.33927" lon="-1.64155">
        <ele>37.9</ele>
        <time>2022-02-21T17:24:57Z</time>
      </trkpt>
      <trkpt lat="49.33932" lon="-1.64154">
        <ele>37.8</ele>
        <time>2022-02-21T17:25:01Z</time>
      </trkpt>
      <trkpt lat="49.33937" lon="-1.6415">
        <ele>37.7</ele>
        <time>2022-02-21T17:25:06Z</time>
      </trkpt>
      <trkpt lat="49.33941" lon="-1.64146">
        <ele>37.6</ele>
        <time>2022-02-21T17:25:09Z</time>
      </trkpt>
      <trkpt lat="49.33945" lon="-1.6414">
        <ele>37.4</ele>
        <time>2022-02-21T17:25:13Z</time>
      </trkpt>
      <trkpt lat="49.33948" lon="-1.64134">
        <ele>37.2</ele>
        <time>2022-02-21T17:25:17Z</time>
      </trkpt>
      <trkpt lat="49.33951" lon="-1.64127">
        <ele>37.2</ele>
        <time>2022-02-21T17:25:20Z</time>
      </trkpt>
      <trkpt lat="49.33954" lon="-1.6412">
        <ele>37.4</ele>
        <time>2022-02-21T17:25:23Z</time>
      </trkpt>
      <trkpt lat="49.33957" lon="-1.64115">
        <ele>37.6</ele>
        <time>2022-02-21T17:25:26Z</time>
      </trkpt>
      <trkpt lat="49.33961" lon="-1.64108">
        <ele>37.5</ele>
        <time>2022-02-21T17:25:31Z</time>
      </trkpt>
      <trkpt lat="49.33965" lon="-1.64102">
        <ele>37.5</ele>
        <time>2022-02-21T17:25:35Z</time>
      </trkpt>
      <trkpt lat="49.33968" lon="-1.64094">
        <ele>37.8</ele>
        <time>2022-02-21T17:25:39Z</time>
      </trkpt>
      <trkpt lat="49.33972" lon="-1.64088">
        <ele>37.8</ele>
        <time>2022-02-21T17:25:43Z</time>
      </trkpt>
      <trkpt lat="49.33976" lon="-1.64082">
        <ele>37.8</ele>
        <time>2022-02-21T17:25:47Z</time>
      </trkpt>
      <trkpt lat="49.33979" lon="-1.64077">
        <ele>37.8</ele>
        <time>2022-02-21T17:25:50Z</time>
      </trkpt>
      <trkpt lat="49.33983" lon="-1.64072">
        <ele>38</ele>
        <time>2022-02-21T17:25:54Z</time>
      </trkpt>
      <trkpt lat="49.33987" lon="-1.64066">
        <ele>38.1</ele>
        <time>2022-02-21T17:25:58Z</time>
      </trkpt>
      <trkpt lat="49.3399" lon="-1.64061">
        <ele>38.2</ele>
        <time>2022-02-21T17:26:01Z</time>
      </trkpt>
      <trkpt lat="49.33993" lon="-1.64053">
        <ele>38.5</ele>
        <time>2022-02-21T17:26:05Z</time>
      </trkpt>
      <trkpt lat="49.33996" lon="-1.64046">
        <ele>38.6</ele>
        <time>2022-02-21T17:26:09Z</time>
      </trkpt>
      <trkpt lat="49.34" lon="-1.64043">
        <ele>38.8</ele>
        <time>2022-02-21T17:26:13Z</time>
      </trkpt>
      <trkpt lat="49.34003" lon="-1.64038">
        <ele>38.8</ele>
        <time>2022-02-21T17:26:16Z</time>
      </trkpt>
      <trkpt lat="49.34007" lon="-1.64033">
        <ele>38.9</ele>
        <time>2022-02-21T17:26:19Z</time>
      </trkpt>
      <trkpt lat="49.3401" lon="-1.64026">
        <ele>39.2</ele>
        <time>2022-02-21T17:26:24Z</time>
      </trkpt>
      <trkpt lat="49.34014" lon="-1.64019">
        <ele>39.4</ele>
        <time>2022-02-21T17:26:28Z</time>
      </trkpt>
      <trkpt lat="49.34017" lon="-1.64013">
        <ele>39.5</ele>
        <time>2022-02-21T17:26:31Z</time>
      </trkpt>
      <trkpt lat="49.34021" lon="-1.64007">
        <ele>39.6</ele>
        <time>2022-02-21T17:26:35Z</time>
      </trkpt>
      <trkpt lat="49.34024" lon="-1.64001">
        <ele>39.8</ele>
        <time>2022-02-21T17:26:39Z</time>
      </trkpt>
      <trkpt lat="49.34027" lon="-1.63992">
        <ele>39.7</ele>
        <time>2022-02-21T17:26:43Z</time>
      </trkpt>
      <trkpt lat="49.34031" lon="-1.63988">
        <ele>39.6</ele>
        <time>2022-02-21T17:26:47Z</time>
      </trkpt>
      <trkpt lat="49.34035" lon="-1.63983">
        <ele>39.6</ele>
        <time>2022-02-21T17:26:51Z</time>
      </trkpt>
      <trkpt lat="49.34039" lon="-1.63978">
        <ele>39.7</ele>
        <time>2022-02-21T17:26:55Z</time>
      </trkpt>
      <trkpt lat="49.3404" lon="-1.63971">
        <ele>39.9</ele>
        <time>2022-02-21T17:26:58Z</time>
      </trkpt>
      <trkpt lat="49.34043" lon="-1.63965">
        <ele>39.1</ele>
        <time>2022-02-21T17:27:20Z</time>
      </trkpt>
      <trkpt lat="49.34048" lon="-1.6396">
        <ele>38.9</ele>
        <time>2022-02-21T17:27:24Z</time>
      </trkpt>
      <trkpt lat="49.34053" lon="-1.63957">
        <ele>39.2</ele>
        <time>2022-02-21T17:27:27Z</time>
      </trkpt>
      <trkpt lat="49.34056" lon="-1.63952">
        <ele>39.6</ele>
        <time>2022-02-21T17:27:30Z</time>
      </trkpt>
      <trkpt lat="49.34059" lon="-1.63947">
        <ele>39.9</ele>
        <time>2022-02-21T17:27:33Z</time>
      </trkpt>
      <trkpt lat="49.34064" lon="-1.63941">
        <ele>39.8</ele>
        <time>2022-02-21T17:27:38Z</time>
      </trkpt>
      <trkpt lat="49.34067" lon="-1.63936">
        <ele>39.8</ele>
        <time>2022-02-21T17:27:41Z</time>
      </trkpt>
      <trkpt lat="49.3407" lon="-1.6393">
        <ele>39.8</ele>
        <time>2022-02-21T17:27:44Z</time>
      </trkpt>
      <trkpt lat="49.34073" lon="-1.63925">
        <ele>39.8</ele>
        <time>2022-02-21T17:27:48Z</time>
      </trkpt>
      <trkpt lat="49.34078" lon="-1.6392">
        <ele>39.7</ele>
        <time>2022-02-21T17:27:52Z</time>
      </trkpt>
      <trkpt lat="49.34081" lon="-1.63915">
        <ele>39.5</ele>
        <time>2022-02-21T17:27:55Z</time>
      </trkpt>
      <trkpt lat="49.34085" lon="-1.63911">
        <ele>39.5</ele>
        <time>2022-02-21T17:27:59Z</time>
      </trkpt>
      <trkpt lat="49.34089" lon="-1.63904">
        <ele>39.6</ele>
        <time>2022-02-21T17:28:03Z</time>
      </trkpt>
      <trkpt lat="49.34093" lon="-1.63901">
        <ele>39.9</ele>
        <time>2022-02-21T17:28:07Z</time>
      </trkpt>
      <trkpt lat="49.34097" lon="-1.63895">
        <ele>40.3</ele>
        <time>2022-02-21T17:28:12Z</time>
      </trkpt>
      <trkpt lat="49.34101" lon="-1.63891">
        <ele>40.5</ele>
        <time>2022-02-21T17:28:17Z</time>
      </trkpt>
      <trkpt lat="49.34105" lon="-1.63886">
        <ele>40.4</ele>
        <time>2022-02-21T17:28:21Z</time>
      </trkpt>
      <trkpt lat="49.34109" lon="-1.63881">
        <ele>40.3</ele>
        <time>2022-02-21T17:28:24Z</time>
      </trkpt>
      <trkpt lat="49.34117" lon="-1.63872">
        <ele>40.5</ele>
        <time>2022-02-21T17:28:31Z</time>
      </trkpt>
      <trkpt lat="49.34121" lon="-1.63869">
        <ele>41</ele>
        <time>2022-02-21T17:28:35Z</time>
      </trkpt>
      <trkpt lat="49.34126" lon="-1.63864">
        <ele>41.4</ele>
        <time>2022-02-21T17:28:38Z</time>
      </trkpt>
      <trkpt lat="49.3413" lon="-1.6386">
        <ele>41.5</ele>
        <time>2022-02-21T17:28:41Z</time>
      </trkpt>
      <trkpt lat="49.34135" lon="-1.63856">
        <ele>41.4</ele>
        <time>2022-02-21T17:28:45Z</time>
      </trkpt>
      <trkpt lat="49.3414" lon="-1.6385">
        <ele>40.8</ele>
        <time>2022-02-21T17:28:50Z</time>
      </trkpt>
      <trkpt lat="49.34144" lon="-1.63844">
        <ele>40.3</ele>
        <time>2022-02-21T17:28:54Z</time>
      </trkpt>
      <trkpt lat="49.34147" lon="-1.63838">
        <ele>40.2</ele>
        <time>2022-02-21T17:28:58Z</time>
      </trkpt>
      <trkpt lat="49.34151" lon="-1.63834">
        <ele>40.6</ele>
        <time>2022-02-21T17:29:01Z</time>
      </trkpt>
      <trkpt lat="49.34156" lon="-1.63828">
        <ele>41.4</ele>
        <time>2022-02-21T17:29:05Z</time>
      </trkpt>
      <trkpt lat="49.3416" lon="-1.63823">
        <ele>42</ele>
        <time>2022-02-21T17:29:09Z</time>
      </trkpt>
      <trkpt lat="49.34163" lon="-1.63816">
        <ele>42.3</ele>
        <time>2022-02-21T17:29:13Z</time>
      </trkpt>
      <trkpt lat="49.34166" lon="-1.63811">
        <ele>42.4</ele>
        <time>2022-02-21T17:29:17Z</time>
      </trkpt>
      <trkpt lat="49.34171" lon="-1.63804">
        <ele>42.4</ele>
        <time>2022-02-21T17:29:22Z</time>
      </trkpt>
      <trkpt lat="49.34174" lon="-1.63796">
        <ele>42.3</ele>
        <time>2022-02-21T17:29:26Z</time>
      </trkpt>
      <trkpt lat="49.34176" lon="-1.6379">
        <ele>42.5</ele>
        <time>2022-02-21T17:29:30Z</time>
      </trkpt>
      <trkpt lat="49.34181" lon="-1.63785">
        <ele>42.7</ele>
        <time>2022-02-21T17:29:33Z</time>
      </trkpt>
      <trkpt lat="49.34185" lon="-1.63782">
        <ele>42.6</ele>
        <time>2022-02-21T17:29:36Z</time>
      </trkpt>
      <trkpt lat="49.34189" lon="-1.6378">
        <ele>42.3</ele>
        <time>2022-02-21T17:29:40Z</time>
      </trkpt>
      <trkpt lat="49.34193" lon="-1.63776">
        <ele>42.1</ele>
        <time>2022-02-21T17:29:43Z</time>
      </trkpt>
      <trkpt lat="49.34198" lon="-1.63772">
        <ele>41.8</ele>
        <time>2022-02-21T17:29:47Z</time>
      </trkpt>
      <trkpt lat="49.34203" lon="-1.63765">
        <ele>41.7</ele>
        <time>2022-02-21T17:29:52Z</time>
      </trkpt>
      <trkpt lat="49.34205" lon="-1.63757">
        <ele>41.7</ele>
        <time>2022-02-21T17:29:57Z</time>
      </trkpt>
      <trkpt lat="49.34208" lon="-1.63751">
        <ele>41.5</ele>
        <time>2022-02-21T17:30:04Z</time>
      </trkpt>
      <trkpt lat="49.34211" lon="-1.63745">
        <ele>40.8</ele>
        <time>2022-02-21T17:30:27Z</time>
      </trkpt>
      <trkpt lat="49.34215" lon="-1.6374">
        <ele>40.7</ele>
        <time>2022-02-21T17:30:32Z</time>
      </trkpt>
      <trkpt lat="49.34218" lon="-1.63735">
        <ele>40.6</ele>
        <time>2022-02-21T17:30:35Z</time>
      </trkpt>
      <trkpt lat="49.34222" lon="-1.6373">
        <ele>40.5</ele>
        <time>2022-02-21T17:30:38Z</time>
      </trkpt>
      <trkpt lat="49.34226" lon="-1.63724">
        <ele>40.3</ele>
        <time>2022-02-21T17:30:42Z</time>
      </trkpt>
      <trkpt lat="49.34231" lon="-1.63717">
        <ele>40.2</ele>
        <time>2022-02-21T17:30:48Z</time>
      </trkpt>
      <trkpt lat="49.34235" lon="-1.6371">
        <ele>40</ele>
        <time>2022-02-21T17:30:53Z</time>
      </trkpt>
      <trkpt lat="49.34239" lon="-1.63702">
        <ele>39.9</ele>
        <time>2022-02-21T17:30:57Z</time>
      </trkpt>
      <trkpt lat="49.34243" lon="-1.63697">
        <ele>39.9</ele>
        <time>2022-02-21T17:31:01Z</time>
      </trkpt>
      <trkpt lat="49.34247" lon="-1.63693">
        <ele>39.7</ele>
        <time>2022-02-21T17:31:05Z</time>
      </trkpt>
      <trkpt lat="49.34252" lon="-1.6369">
        <ele>39.5</ele>
        <time>2022-02-21T17:31:09Z</time>
      </trkpt>
      <trkpt lat="49.34257" lon="-1.63686">
        <ele>39.2</ele>
        <time>2022-02-21T17:31:13Z</time>
      </trkpt>
      <trkpt lat="49.34259" lon="-1.6368">
        <ele>38.9</ele>
        <time>2022-02-21T17:31:17Z</time>
      </trkpt>
      <trkpt lat="49.34263" lon="-1.63676">
        <ele>38.8</ele>
        <time>2022-02-21T17:31:21Z</time>
      </trkpt>
      <trkpt lat="49.34266" lon="-1.6367">
        <ele>38.8</ele>
        <time>2022-02-21T17:31:24Z</time>
      </trkpt>
      <trkpt lat="49.34269" lon="-1.63664">
        <ele>39</ele>
        <time>2022-02-21T17:31:28Z</time>
      </trkpt>
      <trkpt lat="49.34272" lon="-1.63658">
        <ele>38.3</ele>
        <time>2022-02-21T17:31:50Z</time>
      </trkpt>
      <trkpt lat="49.34278" lon="-1.63653">
        <ele>38.3</ele>
        <time>2022-02-21T17:31:53Z</time>
      </trkpt>
      <trkpt lat="49.34281" lon="-1.63649">
        <ele>38.4</ele>
        <time>2022-02-21T17:31:56Z</time>
      </trkpt>
      <trkpt lat="49.34286" lon="-1.63644">
        <ele>38.6</ele>
        <time>2022-02-21T17:32:00Z</time>
      </trkpt>
      <trkpt lat="49.34289" lon="-1.63638">
        <ele>38.9</ele>
        <time>2022-02-21T17:32:03Z</time>
      </trkpt>
      <trkpt lat="49.34293" lon="-1.63632">
        <ele>39</ele>
        <time>2022-02-21T17:32:12Z</time>
      </trkpt>
      <trkpt lat="49.34297" lon="-1.63627">
        <ele>39.1</ele>
        <time>2022-02-21T17:32:16Z</time>
      </trkpt>
      <trkpt lat="49.34302" lon="-1.6362">
        <ele>39</ele>
        <time>2022-02-21T17:32:20Z</time>
      </trkpt>
      <trkpt lat="49.34305" lon="-1.63615">
        <ele>39</ele>
        <time>2022-02-21T17:32:23Z</time>
      </trkpt>
      <trkpt lat="49.34309" lon="-1.63609">
        <ele>38.8</ele>
        <time>2022-02-21T17:32:27Z</time>
      </trkpt>
      <trkpt lat="49.34313" lon="-1.63606">
        <ele>38.7</ele>
        <time>2022-02-21T17:32:30Z</time>
      </trkpt>
      <trkpt lat="49.34317" lon="-1.63604">
        <ele>39.1</ele>
        <time>2022-02-21T17:32:34Z</time>
      </trkpt>
      <trkpt lat="49.34322" lon="-1.63603">
        <ele>39.5</ele>
        <time>2022-02-21T17:32:37Z</time>
      </trkpt>
      <trkpt lat="49.34327" lon="-1.63604">
        <ele>39.9</ele>
        <time>2022-02-21T17:32:41Z</time>
      </trkpt>
      <trkpt lat="49.34333" lon="-1.63603">
        <ele>39.7</ele>
        <time>2022-02-21T17:32:45Z</time>
      </trkpt>
      <trkpt lat="49.34338" lon="-1.63601">
        <ele>39.6</ele>
        <time>2022-02-21T17:33:04Z</time>
      </trkpt>
      <trkpt lat="49.34344" lon="-1.636">
        <ele>39.5</ele>
        <time>2022-02-21T17:33:07Z</time>
      </trkpt>
      <trkpt lat="49.34351" lon="-1.636">
        <ele>39.4</ele>
        <time>2022-02-21T17:33:12Z</time>
      </trkpt>
      <trkpt lat="49.34357" lon="-1.63602">
        <ele>39</ele>
        <time>2022-02-21T17:33:17Z</time>
      </trkpt>
      <trkpt lat="49.34362" lon="-1.63604">
        <ele>38.8</ele>
        <time>2022-02-21T17:33:20Z</time>
      </trkpt>
      <trkpt lat="49.34367" lon="-1.63605">
        <ele>38.6</ele>
        <time>2022-02-21T17:33:25Z</time>
      </trkpt>
      <trkpt lat="49.34371" lon="-1.63609">
        <ele>38.5</ele>
        <time>2022-02-21T17:33:28Z</time>
      </trkpt>
      <trkpt lat="49.34375" lon="-1.63613">
        <ele>38.5</ele>
        <time>2022-02-21T17:33:31Z</time>
      </trkpt>
      <trkpt lat="49.3438" lon="-1.63617">
        <ele>38.8</ele>
        <time>2022-02-21T17:33:36Z</time>
      </trkpt>
      <trkpt lat="49.34384" lon="-1.63621">
        <ele>39.3</ele>
        <time>2022-02-21T17:33:39Z</time>
      </trkpt>
      <trkpt lat="49.34388" lon="-1.63624">
        <ele>39.8</ele>
        <time>2022-02-21T17:33:42Z</time>
      </trkpt>
      <trkpt lat="49.34392" lon="-1.63628">
        <ele>39.9</ele>
        <time>2022-02-21T17:33:45Z</time>
      </trkpt>
      <trkpt lat="49.34397" lon="-1.6363">
        <ele>39.6</ele>
        <time>2022-02-21T17:33:49Z</time>
      </trkpt>
      <trkpt lat="49.34402" lon="-1.63632">
        <ele>38.8</ele>
        <time>2022-02-21T17:33:54Z</time>
      </trkpt>
      <trkpt lat="49.34406" lon="-1.63637">
        <ele>38.3</ele>
        <time>2022-02-21T17:33:58Z</time>
      </trkpt>
      <trkpt lat="49.3441" lon="-1.63633">
        <ele>36.7</ele>
        <time>2022-02-21T17:35:53Z</time>
      </trkpt>
    </trkseg>
  </trk>
</gpx>